<?xml version="1.0" encoding="UTF-8" standalone="no" ?>
<gpx xmlns="http://www.topografix.com/GPX/1/1" xmlns:xsi="http://www.w3.org/2001/XMLSchema-instance" xsi:schemaLocation="http://www.topografix.com/GPX/1/1 http://www.topografix.com/GPX/1/1/gpx.xsd" version="1.1" creator="VisuGPX - https://www.visugpx.com">
  <metadata>
    <name>Mont Saint Martin</name>
    <desc><![CDATA[Montée par la route puis belle descente en single avec peu de difficultés techniques]]></desc>
  </metadata>
  <trk>
    <name><![CDATA[2011-04-27-01 Mont Saint Martin]]></name>
    <trkseg>
      <trkpt lat="45.25277" lon="5.66673">
        <ele>224.5</ele>
        <time>2011-04-27T10:22:43Z</time>
      </trkpt>
      <trkpt lat="45.25288" lon="5.66664">
        <ele>224</ele>
        <time>2011-04-27T10:22:47Z</time>
      </trkpt>
      <trkpt lat="45.25294" lon="5.66659">
        <ele>224.9</ele>
        <time>2011-04-27T10:22:49Z</time>
      </trkpt>
      <trkpt lat="45.25301" lon="5.66654">
        <ele>225.1</ele>
        <time>2011-04-27T10:22:51Z</time>
      </trkpt>
      <trkpt lat="45.25307" lon="5.66647">
        <ele>225.1</ele>
        <time>2011-04-27T10:22:53Z</time>
      </trkpt>
      <trkpt lat="45.25314" lon="5.66641">
        <ele>225.4</ele>
        <time>2011-04-27T10:22:55Z</time>
      </trkpt>
      <trkpt lat="45.25321" lon="5.66636">
        <ele>225.6</ele>
        <time>2011-04-27T10:22:57Z</time>
      </trkpt>
      <trkpt lat="45.25327" lon="5.6663">
        <ele>225.7</ele>
        <time>2011-04-27T10:22:59Z</time>
      </trkpt>
      <trkpt lat="45.25334" lon="5.66624">
        <ele>225.3</ele>
        <time>2011-04-27T10:23:01Z</time>
      </trkpt>
      <trkpt lat="45.25341" lon="5.66619">
        <ele>225.8</ele>
        <time>2011-04-27T10:23:03Z</time>
      </trkpt>
      <trkpt lat="45.25348" lon="5.66615">
        <ele>226.5</ele>
        <time>2011-04-27T10:23:05Z</time>
      </trkpt>
      <trkpt lat="45.25356" lon="5.66615">
        <ele>226.4</ele>
        <time>2011-04-27T10:23:07Z</time>
      </trkpt>
      <trkpt lat="45.25363" lon="5.6662">
        <ele>226.3</ele>
        <time>2011-04-27T10:23:09Z</time>
      </trkpt>
      <trkpt lat="45.25368" lon="5.66629">
        <ele>226</ele>
        <time>2011-04-27T10:23:11Z</time>
      </trkpt>
      <trkpt lat="45.25374" lon="5.66638">
        <ele>225.5</ele>
        <time>2011-04-27T10:23:13Z</time>
      </trkpt>
      <trkpt lat="45.25379" lon="5.66647">
        <ele>225.1</ele>
        <time>2011-04-27T10:23:15Z</time>
      </trkpt>
      <trkpt lat="45.25385" lon="5.66655">
        <ele>224.8</ele>
        <time>2011-04-27T10:23:17Z</time>
      </trkpt>
      <trkpt lat="45.25391" lon="5.66662">
        <ele>224.9</ele>
        <time>2011-04-27T10:23:19Z</time>
      </trkpt>
      <trkpt lat="45.25397" lon="5.66668">
        <ele>225.2</ele>
        <time>2011-04-27T10:23:21Z</time>
      </trkpt>
      <trkpt lat="45.25403" lon="5.66671">
        <ele>225.7</ele>
        <time>2011-04-27T10:23:23Z</time>
      </trkpt>
      <trkpt lat="45.25408" lon="5.66675">
        <ele>226.2</ele>
        <time>2011-04-27T10:23:25Z</time>
      </trkpt>
      <trkpt lat="45.25415" lon="5.66677">
        <ele>226.5</ele>
        <time>2011-04-27T10:23:27Z</time>
      </trkpt>
      <trkpt lat="45.25422" lon="5.66679">
        <ele>226.9</ele>
        <time>2011-04-27T10:23:29Z</time>
      </trkpt>
      <trkpt lat="45.25428" lon="5.66678">
        <ele>227.3</ele>
        <time>2011-04-27T10:23:31Z</time>
      </trkpt>
      <trkpt lat="45.25435" lon="5.66677">
        <ele>228.2</ele>
        <time>2011-04-27T10:23:33Z</time>
      </trkpt>
      <trkpt lat="45.25441" lon="5.66674">
        <ele>228.7</ele>
        <time>2011-04-27T10:23:35Z</time>
      </trkpt>
      <trkpt lat="45.25447" lon="5.6667">
        <ele>229</ele>
        <time>2011-04-27T10:23:37Z</time>
      </trkpt>
      <trkpt lat="45.25453" lon="5.66665">
        <ele>229.3</ele>
        <time>2011-04-27T10:23:39Z</time>
      </trkpt>
      <trkpt lat="45.25459" lon="5.66658">
        <ele>229.8</ele>
        <time>2011-04-27T10:23:41Z</time>
      </trkpt>
      <trkpt lat="45.25465" lon="5.66652">
        <ele>230.3</ele>
        <time>2011-04-27T10:23:43Z</time>
      </trkpt>
      <trkpt lat="45.25469" lon="5.66649">
        <ele>230.5</ele>
        <time>2011-04-27T10:23:44Z</time>
      </trkpt>
      <trkpt lat="45.25479" lon="5.66641">
        <ele>230.4</ele>
        <time>2011-04-27T10:23:47Z</time>
      </trkpt>
      <trkpt lat="45.25485" lon="5.66636">
        <ele>230.7</ele>
        <time>2011-04-27T10:23:49Z</time>
      </trkpt>
      <trkpt lat="45.25492" lon="5.66631">
        <ele>231.2</ele>
        <time>2011-04-27T10:23:51Z</time>
      </trkpt>
      <trkpt lat="45.25499" lon="5.66627">
        <ele>231.8</ele>
        <time>2011-04-27T10:23:53Z</time>
      </trkpt>
      <trkpt lat="45.25507" lon="5.66626">
        <ele>231.4</ele>
        <time>2011-04-27T10:23:55Z</time>
      </trkpt>
      <trkpt lat="45.25514" lon="5.66625">
        <ele>231.2</ele>
        <time>2011-04-27T10:23:57Z</time>
      </trkpt>
      <trkpt lat="45.25522" lon="5.66626">
        <ele>231.2</ele>
        <time>2011-04-27T10:23:59Z</time>
      </trkpt>
      <trkpt lat="45.25529" lon="5.66627">
        <ele>231.9</ele>
        <time>2011-04-27T10:24:01Z</time>
      </trkpt>
      <trkpt lat="45.25536" lon="5.66629">
        <ele>232.4</ele>
        <time>2011-04-27T10:24:03Z</time>
      </trkpt>
      <trkpt lat="45.25543" lon="5.6663">
        <ele>232.5</ele>
        <time>2011-04-27T10:24:05Z</time>
      </trkpt>
      <trkpt lat="45.2555" lon="5.66631">
        <ele>232.5</ele>
        <time>2011-04-27T10:24:07Z</time>
      </trkpt>
      <trkpt lat="45.25557" lon="5.66632">
        <ele>232.6</ele>
        <time>2011-04-27T10:24:09Z</time>
      </trkpt>
      <trkpt lat="45.25564" lon="5.66633">
        <ele>233</ele>
        <time>2011-04-27T10:24:11Z</time>
      </trkpt>
      <trkpt lat="45.25571" lon="5.66634">
        <ele>233.5</ele>
        <time>2011-04-27T10:24:13Z</time>
      </trkpt>
      <trkpt lat="45.25578" lon="5.66634">
        <ele>234</ele>
        <time>2011-04-27T10:24:15Z</time>
      </trkpt>
      <trkpt lat="45.25585" lon="5.66635">
        <ele>234.2</ele>
        <time>2011-04-27T10:24:17Z</time>
      </trkpt>
      <trkpt lat="45.25592" lon="5.66635">
        <ele>234.3</ele>
        <time>2011-04-27T10:24:19Z</time>
      </trkpt>
      <trkpt lat="45.25599" lon="5.66634">
        <ele>234</ele>
        <time>2011-04-27T10:24:21Z</time>
      </trkpt>
      <trkpt lat="45.25606" lon="5.66633">
        <ele>234</ele>
        <time>2011-04-27T10:24:23Z</time>
      </trkpt>
      <trkpt lat="45.25613" lon="5.66632">
        <ele>234.2</ele>
        <time>2011-04-27T10:24:25Z</time>
      </trkpt>
      <trkpt lat="45.2562" lon="5.6663">
        <ele>234.7</ele>
        <time>2011-04-27T10:24:27Z</time>
      </trkpt>
      <trkpt lat="45.25627" lon="5.66628">
        <ele>235.3</ele>
        <time>2011-04-27T10:24:29Z</time>
      </trkpt>
      <trkpt lat="45.25634" lon="5.66625">
        <ele>235.7</ele>
        <time>2011-04-27T10:24:31Z</time>
      </trkpt>
      <trkpt lat="45.2564" lon="5.66623">
        <ele>235.8</ele>
        <time>2011-04-27T10:24:33Z</time>
      </trkpt>
      <trkpt lat="45.25647" lon="5.6662">
        <ele>235.7</ele>
        <time>2011-04-27T10:24:35Z</time>
      </trkpt>
      <trkpt lat="45.25654" lon="5.66618">
        <ele>235.7</ele>
        <time>2011-04-27T10:24:37Z</time>
      </trkpt>
      <trkpt lat="45.25661" lon="5.66616">
        <ele>236</ele>
        <time>2011-04-27T10:24:39Z</time>
      </trkpt>
      <trkpt lat="45.25668" lon="5.66614">
        <ele>236.4</ele>
        <time>2011-04-27T10:24:41Z</time>
      </trkpt>
      <trkpt lat="45.25674" lon="5.66612">
        <ele>237.1</ele>
        <time>2011-04-27T10:24:43Z</time>
      </trkpt>
      <trkpt lat="45.25681" lon="5.6661">
        <ele>237.2</ele>
        <time>2011-04-27T10:24:45Z</time>
      </trkpt>
      <trkpt lat="45.25684" lon="5.66608">
        <ele>237.2</ele>
        <time>2011-04-27T10:24:46Z</time>
      </trkpt>
      <trkpt lat="45.25693" lon="5.66604">
        <ele>237.8</ele>
        <time>2011-04-27T10:24:49Z</time>
      </trkpt>
      <trkpt lat="45.25699" lon="5.66601">
        <ele>238.2</ele>
        <time>2011-04-27T10:24:51Z</time>
      </trkpt>
      <trkpt lat="45.25705" lon="5.66596">
        <ele>238.6</ele>
        <time>2011-04-27T10:24:53Z</time>
      </trkpt>
      <trkpt lat="45.2571" lon="5.66592">
        <ele>239</ele>
        <time>2011-04-27T10:24:55Z</time>
      </trkpt>
      <trkpt lat="45.25715" lon="5.66587">
        <ele>239.5</ele>
        <time>2011-04-27T10:24:57Z</time>
      </trkpt>
      <trkpt lat="45.2572" lon="5.66581">
        <ele>239.9</ele>
        <time>2011-04-27T10:24:59Z</time>
      </trkpt>
      <trkpt lat="45.25724" lon="5.66576">
        <ele>240.7</ele>
        <time>2011-04-27T10:25:01Z</time>
      </trkpt>
      <trkpt lat="45.2573" lon="5.66566">
        <ele>241.8</ele>
        <time>2011-04-27T10:25:04Z</time>
      </trkpt>
      <trkpt lat="45.25735" lon="5.66557">
        <ele>242.2</ele>
        <time>2011-04-27T10:25:07Z</time>
      </trkpt>
      <trkpt lat="45.25741" lon="5.66548">
        <ele>242.6</ele>
        <time>2011-04-27T10:25:10Z</time>
      </trkpt>
      <trkpt lat="45.25745" lon="5.6654">
        <ele>243.4</ele>
        <time>2011-04-27T10:25:13Z</time>
      </trkpt>
      <trkpt lat="45.25752" lon="5.66533">
        <ele>243.9</ele>
        <time>2011-04-27T10:25:16Z</time>
      </trkpt>
      <trkpt lat="45.25759" lon="5.66529">
        <ele>245.1</ele>
        <time>2011-04-27T10:25:19Z</time>
      </trkpt>
      <trkpt lat="45.25766" lon="5.66525">
        <ele>246.6</ele>
        <time>2011-04-27T10:25:22Z</time>
      </trkpt>
      <trkpt lat="45.25774" lon="5.66522">
        <ele>247.6</ele>
        <time>2011-04-27T10:25:25Z</time>
      </trkpt>
      <trkpt lat="45.25782" lon="5.6652">
        <ele>247.9</ele>
        <time>2011-04-27T10:25:28Z</time>
      </trkpt>
      <trkpt lat="45.2579" lon="5.66519">
        <ele>248.7</ele>
        <time>2011-04-27T10:25:31Z</time>
      </trkpt>
      <trkpt lat="45.25798" lon="5.66517">
        <ele>249</ele>
        <time>2011-04-27T10:25:34Z</time>
      </trkpt>
      <trkpt lat="45.25805" lon="5.66514">
        <ele>249.8</ele>
        <time>2011-04-27T10:25:37Z</time>
      </trkpt>
      <trkpt lat="45.25813" lon="5.66509">
        <ele>250.8</ele>
        <time>2011-04-27T10:25:40Z</time>
      </trkpt>
      <trkpt lat="45.2582" lon="5.66504">
        <ele>251.8</ele>
        <time>2011-04-27T10:25:43Z</time>
      </trkpt>
      <trkpt lat="45.25825" lon="5.66495">
        <ele>251.9</ele>
        <time>2011-04-27T10:25:46Z</time>
      </trkpt>
      <trkpt lat="45.25827" lon="5.66492">
        <ele>251.9</ele>
        <time>2011-04-27T10:25:47Z</time>
      </trkpt>
      <trkpt lat="45.25832" lon="5.66473">
        <ele>252.5</ele>
        <time>2011-04-27T10:25:52Z</time>
      </trkpt>
      <trkpt lat="45.25833" lon="5.66464">
        <ele>252.7</ele>
        <time>2011-04-27T10:25:54Z</time>
      </trkpt>
      <trkpt lat="45.25832" lon="5.66455">
        <ele>253</ele>
        <time>2011-04-27T10:25:56Z</time>
      </trkpt>
      <trkpt lat="45.2583" lon="5.66445">
        <ele>253.5</ele>
        <time>2011-04-27T10:25:58Z</time>
      </trkpt>
      <trkpt lat="45.25828" lon="5.66436">
        <ele>254.1</ele>
        <time>2011-04-27T10:26:00Z</time>
      </trkpt>
      <trkpt lat="45.25826" lon="5.66427">
        <ele>254.4</ele>
        <time>2011-04-27T10:26:02Z</time>
      </trkpt>
      <trkpt lat="45.25823" lon="5.66419">
        <ele>254.6</ele>
        <time>2011-04-27T10:26:04Z</time>
      </trkpt>
      <trkpt lat="45.25821" lon="5.6641">
        <ele>254.7</ele>
        <time>2011-04-27T10:26:06Z</time>
      </trkpt>
      <trkpt lat="45.25821" lon="5.66401">
        <ele>255.3</ele>
        <time>2011-04-27T10:26:08Z</time>
      </trkpt>
      <trkpt lat="45.25824" lon="5.66393">
        <ele>255.6</ele>
        <time>2011-04-27T10:26:10Z</time>
      </trkpt>
      <trkpt lat="45.25828" lon="5.66388">
        <ele>255.5</ele>
        <time>2011-04-27T10:26:12Z</time>
      </trkpt>
      <trkpt lat="45.25834" lon="5.66384">
        <ele>255.6</ele>
        <time>2011-04-27T10:26:14Z</time>
      </trkpt>
      <trkpt lat="45.2584" lon="5.66381">
        <ele>255.8</ele>
        <time>2011-04-27T10:26:16Z</time>
      </trkpt>
      <trkpt lat="45.25846" lon="5.66377">
        <ele>256.2</ele>
        <time>2011-04-27T10:26:18Z</time>
      </trkpt>
      <trkpt lat="45.25852" lon="5.66373">
        <ele>257.1</ele>
        <time>2011-04-27T10:26:20Z</time>
      </trkpt>
      <trkpt lat="45.25857" lon="5.66369">
        <ele>258.2</ele>
        <time>2011-04-27T10:26:22Z</time>
      </trkpt>
      <trkpt lat="45.25863" lon="5.66365">
        <ele>258.9</ele>
        <time>2011-04-27T10:26:24Z</time>
      </trkpt>
      <trkpt lat="45.25868" lon="5.66362">
        <ele>259.5</ele>
        <time>2011-04-27T10:26:26Z</time>
      </trkpt>
      <trkpt lat="45.25874" lon="5.66359">
        <ele>259.9</ele>
        <time>2011-04-27T10:26:28Z</time>
      </trkpt>
      <trkpt lat="45.25882" lon="5.66355">
        <ele>260.6</ele>
        <time>2011-04-27T10:26:31Z</time>
      </trkpt>
      <trkpt lat="45.25891" lon="5.66352">
        <ele>261.8</ele>
        <time>2011-04-27T10:26:34Z</time>
      </trkpt>
      <trkpt lat="45.25899" lon="5.66349">
        <ele>262.1</ele>
        <time>2011-04-27T10:26:37Z</time>
      </trkpt>
      <trkpt lat="45.25907" lon="5.66346">
        <ele>262.7</ele>
        <time>2011-04-27T10:26:40Z</time>
      </trkpt>
      <trkpt lat="45.25914" lon="5.66345">
        <ele>263.9</ele>
        <time>2011-04-27T10:26:43Z</time>
      </trkpt>
      <trkpt lat="45.25921" lon="5.66345">
        <ele>264.9</ele>
        <time>2011-04-27T10:26:46Z</time>
      </trkpt>
      <trkpt lat="45.25929" lon="5.66347">
        <ele>265.6</ele>
        <time>2011-04-27T10:26:50Z</time>
      </trkpt>
      <trkpt lat="45.25931" lon="5.66348">
        <ele>265.6</ele>
        <time>2011-04-27T10:26:51Z</time>
      </trkpt>
      <trkpt lat="45.25941" lon="5.66362">
        <ele>268.8</ele>
        <time>2011-04-27T10:26:58Z</time>
      </trkpt>
      <trkpt lat="45.25945" lon="5.66371">
        <ele>270.2</ele>
        <time>2011-04-27T10:27:02Z</time>
      </trkpt>
      <trkpt lat="45.2595" lon="5.6638">
        <ele>270.9</ele>
        <time>2011-04-27T10:27:06Z</time>
      </trkpt>
      <trkpt lat="45.25954" lon="5.66389">
        <ele>271.3</ele>
        <time>2011-04-27T10:27:10Z</time>
      </trkpt>
      <trkpt lat="45.25959" lon="5.66398">
        <ele>272.4</ele>
        <time>2011-04-27T10:27:14Z</time>
      </trkpt>
      <trkpt lat="45.25963" lon="5.66408">
        <ele>273.1</ele>
        <time>2011-04-27T10:27:18Z</time>
      </trkpt>
      <trkpt lat="45.25967" lon="5.66416">
        <ele>274.9</ele>
        <time>2011-04-27T10:27:22Z</time>
      </trkpt>
      <trkpt lat="45.2597" lon="5.66426">
        <ele>275.8</ele>
        <time>2011-04-27T10:27:26Z</time>
      </trkpt>
      <trkpt lat="45.25975" lon="5.66434">
        <ele>276.6</ele>
        <time>2011-04-27T10:27:30Z</time>
      </trkpt>
      <trkpt lat="45.25981" lon="5.6644">
        <ele>277.8</ele>
        <time>2011-04-27T10:27:34Z</time>
      </trkpt>
      <trkpt lat="45.25986" lon="5.66448">
        <ele>279.4</ele>
        <time>2011-04-27T10:27:38Z</time>
      </trkpt>
      <trkpt lat="45.25991" lon="5.66456">
        <ele>278.8</ele>
        <time>2011-04-27T10:27:42Z</time>
      </trkpt>
      <trkpt lat="45.25996" lon="5.66465">
        <ele>280.7</ele>
        <time>2011-04-27T10:27:46Z</time>
      </trkpt>
      <trkpt lat="45.26001" lon="5.66473">
        <ele>281.9</ele>
        <time>2011-04-27T10:27:50Z</time>
      </trkpt>
      <trkpt lat="45.26006" lon="5.66482">
        <ele>282.8</ele>
        <time>2011-04-27T10:27:54Z</time>
      </trkpt>
      <trkpt lat="45.26008" lon="5.66484">
        <ele>283</ele>
        <time>2011-04-27T10:27:55Z</time>
      </trkpt>
      <trkpt lat="45.26017" lon="5.66499">
        <ele>283.5</ele>
        <time>2011-04-27T10:28:02Z</time>
      </trkpt>
      <trkpt lat="45.26024" lon="5.66505">
        <ele>284.6</ele>
        <time>2011-04-27T10:28:06Z</time>
      </trkpt>
      <trkpt lat="45.26031" lon="5.66511">
        <ele>284.7</ele>
        <time>2011-04-27T10:28:10Z</time>
      </trkpt>
      <trkpt lat="45.26038" lon="5.66514">
        <ele>286.5</ele>
        <time>2011-04-27T10:28:14Z</time>
      </trkpt>
      <trkpt lat="45.26045" lon="5.66517">
        <ele>287.3</ele>
        <time>2011-04-27T10:28:18Z</time>
      </trkpt>
      <trkpt lat="45.26053" lon="5.66519">
        <ele>288.4</ele>
        <time>2011-04-27T10:28:22Z</time>
      </trkpt>
      <trkpt lat="45.26061" lon="5.66521">
        <ele>288.6</ele>
        <time>2011-04-27T10:28:26Z</time>
      </trkpt>
      <trkpt lat="45.26068" lon="5.66525">
        <ele>289.3</ele>
        <time>2011-04-27T10:28:30Z</time>
      </trkpt>
      <trkpt lat="45.26076" lon="5.66529">
        <ele>290.7</ele>
        <time>2011-04-27T10:28:35Z</time>
      </trkpt>
      <trkpt lat="45.26082" lon="5.66534">
        <ele>291.3</ele>
        <time>2011-04-27T10:28:39Z</time>
      </trkpt>
      <trkpt lat="45.2609" lon="5.66541">
        <ele>293.6</ele>
        <time>2011-04-27T10:28:44Z</time>
      </trkpt>
      <trkpt lat="45.26096" lon="5.66549">
        <ele>294.5</ele>
        <time>2011-04-27T10:28:49Z</time>
      </trkpt>
      <trkpt lat="45.26101" lon="5.66557">
        <ele>294.9</ele>
        <time>2011-04-27T10:28:53Z</time>
      </trkpt>
      <trkpt lat="45.26107" lon="5.66566">
        <ele>295.5</ele>
        <time>2011-04-27T10:28:58Z</time>
      </trkpt>
      <trkpt lat="45.26109" lon="5.66568">
        <ele>296.1</ele>
        <time>2011-04-27T10:28:59Z</time>
      </trkpt>
      <trkpt lat="45.26121" lon="5.66583">
        <ele>298.3</ele>
        <time>2011-04-27T10:29:08Z</time>
      </trkpt>
      <trkpt lat="45.26128" lon="5.66578">
        <ele>299.8</ele>
        <time>2011-04-27T10:29:13Z</time>
      </trkpt>
      <trkpt lat="45.26129" lon="5.66567">
        <ele>301.7</ele>
        <time>2011-04-27T10:29:17Z</time>
      </trkpt>
      <trkpt lat="45.26124" lon="5.66558">
        <ele>301.6</ele>
        <time>2011-04-27T10:29:21Z</time>
      </trkpt>
      <trkpt lat="45.2612" lon="5.66548">
        <ele>301.5</ele>
        <time>2011-04-27T10:29:25Z</time>
      </trkpt>
      <trkpt lat="45.26119" lon="5.66538">
        <ele>303.3</ele>
        <time>2011-04-27T10:29:29Z</time>
      </trkpt>
      <trkpt lat="45.26118" lon="5.66527">
        <ele>304.1</ele>
        <time>2011-04-27T10:29:33Z</time>
      </trkpt>
      <trkpt lat="45.26118" lon="5.66516">
        <ele>306</ele>
        <time>2011-04-27T10:29:37Z</time>
      </trkpt>
      <trkpt lat="45.26117" lon="5.66505">
        <ele>306.4</ele>
        <time>2011-04-27T10:29:41Z</time>
      </trkpt>
      <trkpt lat="45.26113" lon="5.66496">
        <ele>307.1</ele>
        <time>2011-04-27T10:29:45Z</time>
      </trkpt>
      <trkpt lat="45.26107" lon="5.66489">
        <ele>308.1</ele>
        <time>2011-04-27T10:29:49Z</time>
      </trkpt>
      <trkpt lat="45.261" lon="5.66485">
        <ele>308.5</ele>
        <time>2011-04-27T10:29:53Z</time>
      </trkpt>
      <trkpt lat="45.26093" lon="5.6648">
        <ele>309.6</ele>
        <time>2011-04-27T10:29:57Z</time>
      </trkpt>
      <trkpt lat="45.2609" lon="5.6647">
        <ele>310.9</ele>
        <time>2011-04-27T10:30:01Z</time>
      </trkpt>
      <trkpt lat="45.26091" lon="5.66467">
        <ele>311.2</ele>
        <time>2011-04-27T10:30:02Z</time>
      </trkpt>
      <trkpt lat="45.26099" lon="5.66453">
        <ele>313.3</ele>
        <time>2011-04-27T10:30:09Z</time>
      </trkpt>
      <trkpt lat="45.26107" lon="5.66454">
        <ele>314.5</ele>
        <time>2011-04-27T10:30:13Z</time>
      </trkpt>
      <trkpt lat="45.26114" lon="5.66458">
        <ele>315.3</ele>
        <time>2011-04-27T10:30:17Z</time>
      </trkpt>
      <trkpt lat="45.26122" lon="5.66462">
        <ele>316.3</ele>
        <time>2011-04-27T10:30:21Z</time>
      </trkpt>
      <trkpt lat="45.26129" lon="5.66464">
        <ele>317.3</ele>
        <time>2011-04-27T10:30:25Z</time>
      </trkpt>
      <trkpt lat="45.26137" lon="5.66466">
        <ele>317.8</ele>
        <time>2011-04-27T10:30:29Z</time>
      </trkpt>
      <trkpt lat="45.26144" lon="5.66472">
        <ele>318.1</ele>
        <time>2011-04-27T10:30:33Z</time>
      </trkpt>
      <trkpt lat="45.26149" lon="5.66479">
        <ele>320.1</ele>
        <time>2011-04-27T10:30:37Z</time>
      </trkpt>
      <trkpt lat="45.26154" lon="5.66487">
        <ele>321.3</ele>
        <time>2011-04-27T10:30:41Z</time>
      </trkpt>
      <trkpt lat="45.26157" lon="5.66497">
        <ele>322.7</ele>
        <time>2011-04-27T10:30:45Z</time>
      </trkpt>
      <trkpt lat="45.2616" lon="5.66506">
        <ele>323.7</ele>
        <time>2011-04-27T10:30:49Z</time>
      </trkpt>
      <trkpt lat="45.26163" lon="5.66516">
        <ele>323.8</ele>
        <time>2011-04-27T10:30:53Z</time>
      </trkpt>
      <trkpt lat="45.26166" lon="5.66526">
        <ele>325</ele>
        <time>2011-04-27T10:30:57Z</time>
      </trkpt>
      <trkpt lat="45.26169" lon="5.66537">
        <ele>325.1</ele>
        <time>2011-04-27T10:31:02Z</time>
      </trkpt>
      <trkpt lat="45.2617" lon="5.6654">
        <ele>325.5</ele>
        <time>2011-04-27T10:31:03Z</time>
      </trkpt>
      <trkpt lat="45.26178" lon="5.66554">
        <ele>328.2</ele>
        <time>2011-04-27T10:31:10Z</time>
      </trkpt>
      <trkpt lat="45.26184" lon="5.6656">
        <ele>328.8</ele>
        <time>2011-04-27T10:31:14Z</time>
      </trkpt>
      <trkpt lat="45.26191" lon="5.66564">
        <ele>330.1</ele>
        <time>2011-04-27T10:31:18Z</time>
      </trkpt>
      <trkpt lat="45.26199" lon="5.66568">
        <ele>329.8</ele>
        <time>2011-04-27T10:31:23Z</time>
      </trkpt>
      <trkpt lat="45.26207" lon="5.66574">
        <ele>330.9</ele>
        <time>2011-04-27T10:31:28Z</time>
      </trkpt>
      <trkpt lat="45.26214" lon="5.66577">
        <ele>332</ele>
        <time>2011-04-27T10:31:32Z</time>
      </trkpt>
      <trkpt lat="45.26221" lon="5.6658">
        <ele>333.7</ele>
        <time>2011-04-27T10:31:36Z</time>
      </trkpt>
      <trkpt lat="45.2623" lon="5.66583">
        <ele>333.9</ele>
        <time>2011-04-27T10:31:41Z</time>
      </trkpt>
      <trkpt lat="45.26237" lon="5.66588">
        <ele>335.3</ele>
        <time>2011-04-27T10:31:46Z</time>
      </trkpt>
      <trkpt lat="45.26244" lon="5.66594">
        <ele>336.5</ele>
        <time>2011-04-27T10:31:51Z</time>
      </trkpt>
      <trkpt lat="45.26251" lon="5.66602">
        <ele>337.2</ele>
        <time>2011-04-27T10:31:56Z</time>
      </trkpt>
      <trkpt lat="45.26256" lon="5.6661">
        <ele>338.2</ele>
        <time>2011-04-27T10:32:00Z</time>
      </trkpt>
      <trkpt lat="45.26259" lon="5.6662">
        <ele>339.4</ele>
        <time>2011-04-27T10:32:04Z</time>
      </trkpt>
      <trkpt lat="45.26259" lon="5.66623">
        <ele>339.6</ele>
        <time>2011-04-27T10:32:05Z</time>
      </trkpt>
      <trkpt lat="45.2626" lon="5.66643">
        <ele>341.4</ele>
        <time>2011-04-27T10:32:13Z</time>
      </trkpt>
      <trkpt lat="45.2626" lon="5.66654">
        <ele>341.9</ele>
        <time>2011-04-27T10:32:17Z</time>
      </trkpt>
      <trkpt lat="45.26262" lon="5.66664">
        <ele>342.5</ele>
        <time>2011-04-27T10:32:21Z</time>
      </trkpt>
      <trkpt lat="45.26267" lon="5.66675">
        <ele>343.7</ele>
        <time>2011-04-27T10:32:26Z</time>
      </trkpt>
      <trkpt lat="45.26273" lon="5.66684">
        <ele>345.2</ele>
        <time>2011-04-27T10:32:31Z</time>
      </trkpt>
      <trkpt lat="45.26279" lon="5.6669">
        <ele>346.2</ele>
        <time>2011-04-27T10:32:35Z</time>
      </trkpt>
      <trkpt lat="45.26285" lon="5.66699">
        <ele>347.6</ele>
        <time>2011-04-27T10:32:40Z</time>
      </trkpt>
      <trkpt lat="45.26289" lon="5.66707">
        <ele>348.2</ele>
        <time>2011-04-27T10:32:44Z</time>
      </trkpt>
      <trkpt lat="45.26294" lon="5.66719">
        <ele>348.7</ele>
        <time>2011-04-27T10:32:49Z</time>
      </trkpt>
      <trkpt lat="45.26296" lon="5.66729">
        <ele>349.6</ele>
        <time>2011-04-27T10:32:54Z</time>
      </trkpt>
      <trkpt lat="45.26297" lon="5.66741">
        <ele>350.4</ele>
        <time>2011-04-27T10:32:59Z</time>
      </trkpt>
      <trkpt lat="45.26297" lon="5.66753">
        <ele>352.3</ele>
        <time>2011-04-27T10:33:04Z</time>
      </trkpt>
      <trkpt lat="45.26297" lon="5.66763">
        <ele>353</ele>
        <time>2011-04-27T10:33:08Z</time>
      </trkpt>
      <trkpt lat="45.26297" lon="5.66766">
        <ele>353</ele>
        <time>2011-04-27T10:33:09Z</time>
      </trkpt>
      <trkpt lat="45.26299" lon="5.66784">
        <ele>355.2</ele>
        <time>2011-04-27T10:33:16Z</time>
      </trkpt>
      <trkpt lat="45.263" lon="5.66795">
        <ele>355.8</ele>
        <time>2011-04-27T10:33:20Z</time>
      </trkpt>
      <trkpt lat="45.26303" lon="5.66806">
        <ele>356.9</ele>
        <time>2011-04-27T10:33:24Z</time>
      </trkpt>
      <trkpt lat="45.26306" lon="5.66817">
        <ele>357.2</ele>
        <time>2011-04-27T10:33:28Z</time>
      </trkpt>
      <trkpt lat="45.2631" lon="5.66827">
        <ele>358.4</ele>
        <time>2011-04-27T10:33:32Z</time>
      </trkpt>
      <trkpt lat="45.26316" lon="5.66834">
        <ele>359.3</ele>
        <time>2011-04-27T10:33:36Z</time>
      </trkpt>
      <trkpt lat="45.26323" lon="5.66828">
        <ele>359.8</ele>
        <time>2011-04-27T10:33:41Z</time>
      </trkpt>
      <trkpt lat="45.26323" lon="5.66817">
        <ele>360.8</ele>
        <time>2011-04-27T10:33:45Z</time>
      </trkpt>
      <trkpt lat="45.26319" lon="5.66806">
        <ele>361.9</ele>
        <time>2011-04-27T10:33:49Z</time>
      </trkpt>
      <trkpt lat="45.26316" lon="5.66795">
        <ele>362.3</ele>
        <time>2011-04-27T10:33:53Z</time>
      </trkpt>
      <trkpt lat="45.26315" lon="5.66783">
        <ele>363.8</ele>
        <time>2011-04-27T10:33:57Z</time>
      </trkpt>
      <trkpt lat="45.26316" lon="5.66772">
        <ele>364.5</ele>
        <time>2011-04-27T10:34:01Z</time>
      </trkpt>
      <trkpt lat="45.26317" lon="5.66761">
        <ele>364.5</ele>
        <time>2011-04-27T10:34:05Z</time>
      </trkpt>
      <trkpt lat="45.26318" lon="5.66749">
        <ele>366</ele>
        <time>2011-04-27T10:34:09Z</time>
      </trkpt>
      <trkpt lat="45.26318" lon="5.66747">
        <ele>366.2</ele>
        <time>2011-04-27T10:34:10Z</time>
      </trkpt>
      <trkpt lat="45.2632" lon="5.66727">
        <ele>367.8</ele>
        <time>2011-04-27T10:34:17Z</time>
      </trkpt>
      <trkpt lat="45.26321" lon="5.66716">
        <ele>368.2</ele>
        <time>2011-04-27T10:34:21Z</time>
      </trkpt>
      <trkpt lat="45.26322" lon="5.66703">
        <ele>368.9</ele>
        <time>2011-04-27T10:34:25Z</time>
      </trkpt>
      <trkpt lat="45.26323" lon="5.66692">
        <ele>370.7</ele>
        <time>2011-04-27T10:34:29Z</time>
      </trkpt>
      <trkpt lat="45.26326" lon="5.66681">
        <ele>372.2</ele>
        <time>2011-04-27T10:34:33Z</time>
      </trkpt>
      <trkpt lat="45.2633" lon="5.66671">
        <ele>373.9</ele>
        <time>2011-04-27T10:34:37Z</time>
      </trkpt>
      <trkpt lat="45.26335" lon="5.66663">
        <ele>373.6</ele>
        <time>2011-04-27T10:34:41Z</time>
      </trkpt>
      <trkpt lat="45.26343" lon="5.6666">
        <ele>374.3</ele>
        <time>2011-04-27T10:34:45Z</time>
      </trkpt>
      <trkpt lat="45.26351" lon="5.66656">
        <ele>376.4</ele>
        <time>2011-04-27T10:34:49Z</time>
      </trkpt>
      <trkpt lat="45.26357" lon="5.66648">
        <ele>376.4</ele>
        <time>2011-04-27T10:34:53Z</time>
      </trkpt>
      <trkpt lat="45.26362" lon="5.66639">
        <ele>377.7</ele>
        <time>2011-04-27T10:34:57Z</time>
      </trkpt>
      <trkpt lat="45.26365" lon="5.66628">
        <ele>378.3</ele>
        <time>2011-04-27T10:35:01Z</time>
      </trkpt>
      <trkpt lat="45.26366" lon="5.66617">
        <ele>379.3</ele>
        <time>2011-04-27T10:35:05Z</time>
      </trkpt>
      <trkpt lat="45.26367" lon="5.66606">
        <ele>380.7</ele>
        <time>2011-04-27T10:35:09Z</time>
      </trkpt>
      <trkpt lat="45.26368" lon="5.66594">
        <ele>381.3</ele>
        <time>2011-04-27T10:35:13Z</time>
      </trkpt>
      <trkpt lat="45.26368" lon="5.66591">
        <ele>381.6</ele>
        <time>2011-04-27T10:35:14Z</time>
      </trkpt>
      <trkpt lat="45.2637" lon="5.66571">
        <ele>384.8</ele>
        <time>2011-04-27T10:35:21Z</time>
      </trkpt>
      <trkpt lat="45.26371" lon="5.66559">
        <ele>384.7</ele>
        <time>2011-04-27T10:35:25Z</time>
      </trkpt>
      <trkpt lat="45.26372" lon="5.66548">
        <ele>386.3</ele>
        <time>2011-04-27T10:35:29Z</time>
      </trkpt>
      <trkpt lat="45.26372" lon="5.66536">
        <ele>387.2</ele>
        <time>2011-04-27T10:35:33Z</time>
      </trkpt>
      <trkpt lat="45.26372" lon="5.66525">
        <ele>387.4</ele>
        <time>2011-04-27T10:35:37Z</time>
      </trkpt>
      <trkpt lat="45.26371" lon="5.66514">
        <ele>388.6</ele>
        <time>2011-04-27T10:35:41Z</time>
      </trkpt>
      <trkpt lat="45.2637" lon="5.66503">
        <ele>390.6</ele>
        <time>2011-04-27T10:35:45Z</time>
      </trkpt>
      <trkpt lat="45.26368" lon="5.66493">
        <ele>391.4</ele>
        <time>2011-04-27T10:35:49Z</time>
      </trkpt>
      <trkpt lat="45.26367" lon="5.66481">
        <ele>392.1</ele>
        <time>2011-04-27T10:35:53Z</time>
      </trkpt>
      <trkpt lat="45.26368" lon="5.66469">
        <ele>392.5</ele>
        <time>2011-04-27T10:35:57Z</time>
      </trkpt>
      <trkpt lat="45.26368" lon="5.66457">
        <ele>393.9</ele>
        <time>2011-04-27T10:36:01Z</time>
      </trkpt>
      <trkpt lat="45.2637" lon="5.66445">
        <ele>395.3</ele>
        <time>2011-04-27T10:36:05Z</time>
      </trkpt>
      <trkpt lat="45.26371" lon="5.66433">
        <ele>395.8</ele>
        <time>2011-04-27T10:36:09Z</time>
      </trkpt>
      <trkpt lat="45.26372" lon="5.66421">
        <ele>396.4</ele>
        <time>2011-04-27T10:36:13Z</time>
      </trkpt>
      <trkpt lat="45.26373" lon="5.6641">
        <ele>397.6</ele>
        <time>2011-04-27T10:36:17Z</time>
      </trkpt>
      <trkpt lat="45.26373" lon="5.66407">
        <ele>397.8</ele>
        <time>2011-04-27T10:36:18Z</time>
      </trkpt>
      <trkpt lat="45.26373" lon="5.66388">
        <ele>400.4</ele>
        <time>2011-04-27T10:36:25Z</time>
      </trkpt>
      <trkpt lat="45.26375" lon="5.66377">
        <ele>401.1</ele>
        <time>2011-04-27T10:36:29Z</time>
      </trkpt>
      <trkpt lat="45.26384" lon="5.66373">
        <ele>401.6</ele>
        <time>2011-04-27T10:36:34Z</time>
      </trkpt>
      <trkpt lat="45.26389" lon="5.66383">
        <ele>402</ele>
        <time>2011-04-27T10:36:38Z</time>
      </trkpt>
      <trkpt lat="45.26391" lon="5.66393">
        <ele>403.2</ele>
        <time>2011-04-27T10:36:42Z</time>
      </trkpt>
      <trkpt lat="45.26394" lon="5.66403">
        <ele>404.4</ele>
        <time>2011-04-27T10:36:46Z</time>
      </trkpt>
      <trkpt lat="45.26398" lon="5.66414">
        <ele>405.1</ele>
        <time>2011-04-27T10:36:50Z</time>
      </trkpt>
      <trkpt lat="45.26402" lon="5.66424">
        <ele>405.7</ele>
        <time>2011-04-27T10:36:54Z</time>
      </trkpt>
      <trkpt lat="45.26406" lon="5.66433">
        <ele>405.5</ele>
        <time>2011-04-27T10:36:58Z</time>
      </trkpt>
      <trkpt lat="45.26412" lon="5.66441">
        <ele>406.7</ele>
        <time>2011-04-27T10:37:02Z</time>
      </trkpt>
      <trkpt lat="45.26419" lon="5.66448">
        <ele>408.1</ele>
        <time>2011-04-27T10:37:06Z</time>
      </trkpt>
      <trkpt lat="45.26426" lon="5.66454">
        <ele>408.6</ele>
        <time>2011-04-27T10:37:10Z</time>
      </trkpt>
      <trkpt lat="45.26431" lon="5.66461">
        <ele>409.6</ele>
        <time>2011-04-27T10:37:14Z</time>
      </trkpt>
      <trkpt lat="45.26437" lon="5.66468">
        <ele>410</ele>
        <time>2011-04-27T10:37:18Z</time>
      </trkpt>
      <trkpt lat="45.26438" lon="5.6647">
        <ele>410.1</ele>
        <time>2011-04-27T10:37:19Z</time>
      </trkpt>
      <trkpt lat="45.26444" lon="5.66486">
        <ele>412.8</ele>
        <time>2011-04-27T10:37:26Z</time>
      </trkpt>
      <trkpt lat="45.26446" lon="5.66496">
        <ele>413.2</ele>
        <time>2011-04-27T10:37:30Z</time>
      </trkpt>
      <trkpt lat="45.26448" lon="5.66506">
        <ele>413.5</ele>
        <time>2011-04-27T10:37:34Z</time>
      </trkpt>
      <trkpt lat="45.26451" lon="5.66516">
        <ele>414.4</ele>
        <time>2011-04-27T10:37:38Z</time>
      </trkpt>
      <trkpt lat="45.26453" lon="5.66527">
        <ele>415.2</ele>
        <time>2011-04-27T10:37:42Z</time>
      </trkpt>
      <trkpt lat="45.26455" lon="5.66538">
        <ele>417.2</ele>
        <time>2011-04-27T10:37:46Z</time>
      </trkpt>
      <trkpt lat="45.26458" lon="5.66548">
        <ele>418.8</ele>
        <time>2011-04-27T10:37:50Z</time>
      </trkpt>
      <trkpt lat="45.26461" lon="5.66557">
        <ele>418.7</ele>
        <time>2011-04-27T10:37:54Z</time>
      </trkpt>
      <trkpt lat="45.26464" lon="5.66567">
        <ele>419.7</ele>
        <time>2011-04-27T10:37:58Z</time>
      </trkpt>
      <trkpt lat="45.26467" lon="5.66576">
        <ele>420</ele>
        <time>2011-04-27T10:38:02Z</time>
      </trkpt>
      <trkpt lat="45.2647" lon="5.66586">
        <ele>421</ele>
        <time>2011-04-27T10:38:06Z</time>
      </trkpt>
      <trkpt lat="45.26472" lon="5.66596">
        <ele>422.6</ele>
        <time>2011-04-27T10:38:10Z</time>
      </trkpt>
      <trkpt lat="45.26476" lon="5.66605">
        <ele>423.8</ele>
        <time>2011-04-27T10:38:14Z</time>
      </trkpt>
      <trkpt lat="45.26478" lon="5.66617">
        <ele>424.4</ele>
        <time>2011-04-27T10:38:19Z</time>
      </trkpt>
      <trkpt lat="45.26479" lon="5.66619">
        <ele>424.5</ele>
        <time>2011-04-27T10:38:20Z</time>
      </trkpt>
      <trkpt lat="45.26484" lon="5.66636">
        <ele>426.3</ele>
        <time>2011-04-27T10:38:27Z</time>
      </trkpt>
      <trkpt lat="45.26486" lon="5.66648">
        <ele>426.9</ele>
        <time>2011-04-27T10:38:32Z</time>
      </trkpt>
      <trkpt lat="45.26488" lon="5.6666">
        <ele>427.7</ele>
        <time>2011-04-27T10:38:37Z</time>
      </trkpt>
      <trkpt lat="45.26488" lon="5.66671">
        <ele>428.7</ele>
        <time>2011-04-27T10:38:41Z</time>
      </trkpt>
      <trkpt lat="45.26487" lon="5.66681">
        <ele>429</ele>
        <time>2011-04-27T10:38:45Z</time>
      </trkpt>
      <trkpt lat="45.26485" lon="5.66693">
        <ele>430.3</ele>
        <time>2011-04-27T10:38:50Z</time>
      </trkpt>
      <trkpt lat="45.2648" lon="5.66703">
        <ele>431.8</ele>
        <time>2011-04-27T10:38:55Z</time>
      </trkpt>
      <trkpt lat="45.26475" lon="5.66711">
        <ele>432.3</ele>
        <time>2011-04-27T10:38:59Z</time>
      </trkpt>
      <trkpt lat="45.2647" lon="5.66721">
        <ele>433.5</ele>
        <time>2011-04-27T10:39:04Z</time>
      </trkpt>
      <trkpt lat="45.26465" lon="5.66729">
        <ele>434.9</ele>
        <time>2011-04-27T10:39:08Z</time>
      </trkpt>
      <trkpt lat="45.2646" lon="5.66736">
        <ele>435.7</ele>
        <time>2011-04-27T10:39:12Z</time>
      </trkpt>
      <trkpt lat="45.26455" lon="5.66744">
        <ele>435.4</ele>
        <time>2011-04-27T10:39:16Z</time>
      </trkpt>
      <trkpt lat="45.2645" lon="5.66752">
        <ele>435.8</ele>
        <time>2011-04-27T10:39:20Z</time>
      </trkpt>
      <trkpt lat="45.26449" lon="5.66753">
        <ele>436.2</ele>
        <time>2011-04-27T10:39:21Z</time>
      </trkpt>
      <trkpt lat="45.2644" lon="5.6677">
        <ele>438.3</ele>
        <time>2011-04-27T10:39:29Z</time>
      </trkpt>
      <trkpt lat="45.26441" lon="5.66782">
        <ele>439.1</ele>
        <time>2011-04-27T10:39:34Z</time>
      </trkpt>
      <trkpt lat="45.2645" lon="5.66783">
        <ele>439.8</ele>
        <time>2011-04-27T10:39:39Z</time>
      </trkpt>
      <trkpt lat="45.26455" lon="5.66775">
        <ele>441.3</ele>
        <time>2011-04-27T10:39:43Z</time>
      </trkpt>
      <trkpt lat="45.2646" lon="5.66766">
        <ele>442.2</ele>
        <time>2011-04-27T10:39:47Z</time>
      </trkpt>
      <trkpt lat="45.26466" lon="5.66759">
        <ele>443</ele>
        <time>2011-04-27T10:39:51Z</time>
      </trkpt>
      <trkpt lat="45.26472" lon="5.66752">
        <ele>443</ele>
        <time>2011-04-27T10:39:55Z</time>
      </trkpt>
      <trkpt lat="45.26478" lon="5.66745">
        <ele>444.2</ele>
        <time>2011-04-27T10:39:59Z</time>
      </trkpt>
      <trkpt lat="45.26485" lon="5.66739">
        <ele>445.2</ele>
        <time>2011-04-27T10:40:03Z</time>
      </trkpt>
      <trkpt lat="45.26491" lon="5.66733">
        <ele>446.5</ele>
        <time>2011-04-27T10:40:07Z</time>
      </trkpt>
      <trkpt lat="45.26497" lon="5.66727">
        <ele>447.2</ele>
        <time>2011-04-27T10:40:11Z</time>
      </trkpt>
      <trkpt lat="45.26503" lon="5.6672">
        <ele>447.6</ele>
        <time>2011-04-27T10:40:15Z</time>
      </trkpt>
      <trkpt lat="45.26509" lon="5.66713">
        <ele>448.5</ele>
        <time>2011-04-27T10:40:19Z</time>
      </trkpt>
      <trkpt lat="45.26516" lon="5.66707">
        <ele>449.7</ele>
        <time>2011-04-27T10:40:23Z</time>
      </trkpt>
      <trkpt lat="45.26518" lon="5.66706">
        <ele>450.1</ele>
        <time>2011-04-27T10:40:24Z</time>
      </trkpt>
      <trkpt lat="45.26531" lon="5.66696">
        <ele>451.9</ele>
        <time>2011-04-27T10:40:31Z</time>
      </trkpt>
      <trkpt lat="45.26538" lon="5.66688">
        <ele>451.9</ele>
        <time>2011-04-27T10:40:35Z</time>
      </trkpt>
      <trkpt lat="45.26543" lon="5.66679">
        <ele>452.8</ele>
        <time>2011-04-27T10:40:39Z</time>
      </trkpt>
      <trkpt lat="45.26547" lon="5.66669">
        <ele>454.6</ele>
        <time>2011-04-27T10:40:43Z</time>
      </trkpt>
      <trkpt lat="45.2655" lon="5.6666">
        <ele>456.3</ele>
        <time>2011-04-27T10:40:47Z</time>
      </trkpt>
      <trkpt lat="45.26552" lon="5.66648">
        <ele>457</ele>
        <time>2011-04-27T10:40:51Z</time>
      </trkpt>
      <trkpt lat="45.26555" lon="5.66637">
        <ele>457.4</ele>
        <time>2011-04-27T10:40:56Z</time>
      </trkpt>
      <trkpt lat="45.26557" lon="5.66625">
        <ele>458.7</ele>
        <time>2011-04-27T10:41:01Z</time>
      </trkpt>
      <trkpt lat="45.26557" lon="5.66615">
        <ele>458.9</ele>
        <time>2011-04-27T10:41:05Z</time>
      </trkpt>
      <trkpt lat="45.26557" lon="5.66604">
        <ele>460.4</ele>
        <time>2011-04-27T10:41:09Z</time>
      </trkpt>
      <trkpt lat="45.26558" lon="5.66594">
        <ele>460.9</ele>
        <time>2011-04-27T10:41:13Z</time>
      </trkpt>
      <trkpt lat="45.26561" lon="5.66584">
        <ele>462.6</ele>
        <time>2011-04-27T10:41:17Z</time>
      </trkpt>
      <trkpt lat="45.26566" lon="5.66575">
        <ele>463</ele>
        <time>2011-04-27T10:41:21Z</time>
      </trkpt>
      <trkpt lat="45.26571" lon="5.66566">
        <ele>463.9</ele>
        <time>2011-04-27T10:41:25Z</time>
      </trkpt>
      <trkpt lat="45.26572" lon="5.66565">
        <ele>464</ele>
        <time>2011-04-27T10:41:26Z</time>
      </trkpt>
      <trkpt lat="45.26582" lon="5.66554">
        <ele>465.4</ele>
        <time>2011-04-27T10:41:33Z</time>
      </trkpt>
      <trkpt lat="45.26588" lon="5.66547">
        <ele>466.1</ele>
        <time>2011-04-27T10:41:37Z</time>
      </trkpt>
      <trkpt lat="45.26594" lon="5.6654">
        <ele>467.5</ele>
        <time>2011-04-27T10:41:41Z</time>
      </trkpt>
      <trkpt lat="45.266" lon="5.66532">
        <ele>468.4</ele>
        <time>2011-04-27T10:41:45Z</time>
      </trkpt>
      <trkpt lat="45.26604" lon="5.66524">
        <ele>469</ele>
        <time>2011-04-27T10:41:49Z</time>
      </trkpt>
      <trkpt lat="45.26608" lon="5.66515">
        <ele>470.4</ele>
        <time>2011-04-27T10:41:53Z</time>
      </trkpt>
      <trkpt lat="45.26612" lon="5.66505">
        <ele>471.3</ele>
        <time>2011-04-27T10:41:57Z</time>
      </trkpt>
      <trkpt lat="45.26614" lon="5.66495">
        <ele>472</ele>
        <time>2011-04-27T10:42:01Z</time>
      </trkpt>
      <trkpt lat="45.26615" lon="5.66484">
        <ele>473.7</ele>
        <time>2011-04-27T10:42:05Z</time>
      </trkpt>
      <trkpt lat="45.26617" lon="5.66474">
        <ele>474.2</ele>
        <time>2011-04-27T10:42:09Z</time>
      </trkpt>
      <trkpt lat="45.26619" lon="5.66463">
        <ele>475.4</ele>
        <time>2011-04-27T10:42:13Z</time>
      </trkpt>
      <trkpt lat="45.2662" lon="5.66453">
        <ele>476.4</ele>
        <time>2011-04-27T10:42:17Z</time>
      </trkpt>
      <trkpt lat="45.26621" lon="5.66442">
        <ele>476.4</ele>
        <time>2011-04-27T10:42:21Z</time>
      </trkpt>
      <trkpt lat="45.26623" lon="5.66431">
        <ele>476.8</ele>
        <time>2011-04-27T10:42:25Z</time>
      </trkpt>
      <trkpt lat="45.26624" lon="5.6642">
        <ele>478.3</ele>
        <time>2011-04-27T10:42:29Z</time>
      </trkpt>
      <trkpt lat="45.26625" lon="5.66417">
        <ele>478.6</ele>
        <time>2011-04-27T10:42:30Z</time>
      </trkpt>
      <trkpt lat="45.26626" lon="5.66398">
        <ele>479.9</ele>
        <time>2011-04-27T10:42:37Z</time>
      </trkpt>
      <trkpt lat="45.26628" lon="5.66387">
        <ele>482</ele>
        <time>2011-04-27T10:42:41Z</time>
      </trkpt>
      <trkpt lat="45.26629" lon="5.66376">
        <ele>483.3</ele>
        <time>2011-04-27T10:42:45Z</time>
      </trkpt>
      <trkpt lat="45.26629" lon="5.66365">
        <ele>483.5</ele>
        <time>2011-04-27T10:42:49Z</time>
      </trkpt>
      <trkpt lat="45.26628" lon="5.66355">
        <ele>483.6</ele>
        <time>2011-04-27T10:42:53Z</time>
      </trkpt>
      <trkpt lat="45.26626" lon="5.66344">
        <ele>484.2</ele>
        <time>2011-04-27T10:42:57Z</time>
      </trkpt>
      <trkpt lat="45.26623" lon="5.66334">
        <ele>485.7</ele>
        <time>2011-04-27T10:43:01Z</time>
      </trkpt>
      <trkpt lat="45.26621" lon="5.66323">
        <ele>486</ele>
        <time>2011-04-27T10:43:05Z</time>
      </trkpt>
      <trkpt lat="45.26619" lon="5.66312">
        <ele>487.5</ele>
        <time>2011-04-27T10:43:09Z</time>
      </trkpt>
      <trkpt lat="45.26622" lon="5.66301">
        <ele>488.9</ele>
        <time>2011-04-27T10:43:13Z</time>
      </trkpt>
      <trkpt lat="45.2663" lon="5.66301">
        <ele>489.3</ele>
        <time>2011-04-27T10:43:18Z</time>
      </trkpt>
      <trkpt lat="45.26635" lon="5.6631">
        <ele>491</ele>
        <time>2011-04-27T10:43:22Z</time>
      </trkpt>
      <trkpt lat="45.2664" lon="5.66319">
        <ele>491.3</ele>
        <time>2011-04-27T10:43:26Z</time>
      </trkpt>
      <trkpt lat="45.26646" lon="5.66326">
        <ele>492.1</ele>
        <time>2011-04-27T10:43:30Z</time>
      </trkpt>
      <trkpt lat="45.26648" lon="5.66327">
        <ele>492.2</ele>
        <time>2011-04-27T10:43:31Z</time>
      </trkpt>
      <trkpt lat="45.2666" lon="5.66335">
        <ele>493.6</ele>
        <time>2011-04-27T10:43:38Z</time>
      </trkpt>
      <trkpt lat="45.26666" lon="5.66342">
        <ele>494.8</ele>
        <time>2011-04-27T10:43:42Z</time>
      </trkpt>
      <trkpt lat="45.26671" lon="5.66349">
        <ele>495.8</ele>
        <time>2011-04-27T10:43:46Z</time>
      </trkpt>
      <trkpt lat="45.26675" lon="5.66357">
        <ele>496.9</ele>
        <time>2011-04-27T10:43:50Z</time>
      </trkpt>
      <trkpt lat="45.2668" lon="5.66366">
        <ele>497.4</ele>
        <time>2011-04-27T10:43:54Z</time>
      </trkpt>
      <trkpt lat="45.26684" lon="5.66374">
        <ele>498.4</ele>
        <time>2011-04-27T10:43:58Z</time>
      </trkpt>
      <trkpt lat="45.26688" lon="5.66383">
        <ele>499.4</ele>
        <time>2011-04-27T10:44:02Z</time>
      </trkpt>
      <trkpt lat="45.26693" lon="5.66392">
        <ele>500.3</ele>
        <time>2011-04-27T10:44:06Z</time>
      </trkpt>
      <trkpt lat="45.26697" lon="5.664">
        <ele>501.1</ele>
        <time>2011-04-27T10:44:10Z</time>
      </trkpt>
      <trkpt lat="45.26702" lon="5.66411">
        <ele>502.8</ele>
        <time>2011-04-27T10:44:15Z</time>
      </trkpt>
      <trkpt lat="45.26706" lon="5.66421">
        <ele>503.7</ele>
        <time>2011-04-27T10:44:20Z</time>
      </trkpt>
      <trkpt lat="45.26707" lon="5.66432">
        <ele>503.6</ele>
        <time>2011-04-27T10:44:25Z</time>
      </trkpt>
      <trkpt lat="45.26706" lon="5.66444">
        <ele>504.7</ele>
        <time>2011-04-27T10:44:30Z</time>
      </trkpt>
      <trkpt lat="45.26703" lon="5.66455">
        <ele>506.9</ele>
        <time>2011-04-27T10:44:35Z</time>
      </trkpt>
      <trkpt lat="45.26702" lon="5.66457">
        <ele>507.3</ele>
        <time>2011-04-27T10:44:36Z</time>
      </trkpt>
      <trkpt lat="45.26696" lon="5.66478">
        <ele>509.2</ele>
        <time>2011-04-27T10:44:45Z</time>
      </trkpt>
      <trkpt lat="45.26696" lon="5.6649">
        <ele>511</ele>
        <time>2011-04-27T10:44:50Z</time>
      </trkpt>
      <trkpt lat="45.26697" lon="5.66502">
        <ele>510.8</ele>
        <time>2011-04-27T10:44:55Z</time>
      </trkpt>
      <trkpt lat="45.26701" lon="5.66513">
        <ele>511.7</ele>
        <time>2011-04-27T10:45:00Z</time>
      </trkpt>
      <trkpt lat="45.26706" lon="5.66522">
        <ele>512.5</ele>
        <time>2011-04-27T10:45:05Z</time>
      </trkpt>
      <trkpt lat="45.26712" lon="5.6653">
        <ele>512.9</ele>
        <time>2011-04-27T10:45:10Z</time>
      </trkpt>
      <trkpt lat="45.26719" lon="5.66538">
        <ele>514.4</ele>
        <time>2011-04-27T10:45:15Z</time>
      </trkpt>
      <trkpt lat="45.26725" lon="5.66547">
        <ele>514.8</ele>
        <time>2011-04-27T10:45:20Z</time>
      </trkpt>
      <trkpt lat="45.26731" lon="5.66555">
        <ele>514.8</ele>
        <time>2011-04-27T10:45:25Z</time>
      </trkpt>
      <trkpt lat="45.26737" lon="5.66562">
        <ele>516</ele>
        <time>2011-04-27T10:45:29Z</time>
      </trkpt>
      <trkpt lat="45.26744" lon="5.6657">
        <ele>517.6</ele>
        <time>2011-04-27T10:45:34Z</time>
      </trkpt>
      <trkpt lat="45.26749" lon="5.66577">
        <ele>519.1</ele>
        <time>2011-04-27T10:45:38Z</time>
      </trkpt>
      <trkpt lat="45.26749" lon="5.66579">
        <ele>519.6</ele>
        <time>2011-04-27T10:45:39Z</time>
      </trkpt>
      <trkpt lat="45.2675" lon="5.66601">
        <ele>521.5</ele>
        <time>2011-04-27T10:45:48Z</time>
      </trkpt>
      <trkpt lat="45.26751" lon="5.66613">
        <ele>521.7</ele>
        <time>2011-04-27T10:45:53Z</time>
      </trkpt>
      <trkpt lat="45.26759" lon="5.66617">
        <ele>523</ele>
        <time>2011-04-27T10:45:58Z</time>
      </trkpt>
      <trkpt lat="45.26765" lon="5.66611">
        <ele>523</ele>
        <time>2011-04-27T10:46:02Z</time>
      </trkpt>
      <trkpt lat="45.26769" lon="5.666">
        <ele>524.2</ele>
        <time>2011-04-27T10:46:06Z</time>
      </trkpt>
      <trkpt lat="45.26772" lon="5.66589">
        <ele>525.5</ele>
        <time>2011-04-27T10:46:10Z</time>
      </trkpt>
      <trkpt lat="45.26773" lon="5.66577">
        <ele>525.7</ele>
        <time>2011-04-27T10:46:14Z</time>
      </trkpt>
      <trkpt lat="45.26773" lon="5.66566">
        <ele>526.3</ele>
        <time>2011-04-27T10:46:18Z</time>
      </trkpt>
      <trkpt lat="45.26772" lon="5.66554">
        <ele>526.8</ele>
        <time>2011-04-27T10:46:22Z</time>
      </trkpt>
      <trkpt lat="45.26771" lon="5.66544">
        <ele>527.4</ele>
        <time>2011-04-27T10:46:26Z</time>
      </trkpt>
      <trkpt lat="45.26769" lon="5.66533">
        <ele>529.6</ele>
        <time>2011-04-27T10:46:30Z</time>
      </trkpt>
      <trkpt lat="45.2677" lon="5.66522">
        <ele>530.7</ele>
        <time>2011-04-27T10:46:34Z</time>
      </trkpt>
      <trkpt lat="45.26774" lon="5.66513">
        <ele>531.2</ele>
        <time>2011-04-27T10:46:38Z</time>
      </trkpt>
      <trkpt lat="45.26779" lon="5.66503">
        <ele>531.4</ele>
        <time>2011-04-27T10:46:43Z</time>
      </trkpt>
      <trkpt lat="45.2678" lon="5.66501">
        <ele>531.6</ele>
        <time>2011-04-27T10:46:44Z</time>
      </trkpt>
      <trkpt lat="45.26792" lon="5.66492">
        <ele>533.9</ele>
        <time>2011-04-27T10:46:51Z</time>
      </trkpt>
      <trkpt lat="45.26798" lon="5.66486">
        <ele>534.8</ele>
        <time>2011-04-27T10:46:55Z</time>
      </trkpt>
      <trkpt lat="45.26805" lon="5.66481">
        <ele>535.4</ele>
        <time>2011-04-27T10:46:59Z</time>
      </trkpt>
      <trkpt lat="45.26812" lon="5.66474">
        <ele>535.4</ele>
        <time>2011-04-27T10:47:03Z</time>
      </trkpt>
      <trkpt lat="45.26818" lon="5.66467">
        <ele>537.3</ele>
        <time>2011-04-27T10:47:07Z</time>
      </trkpt>
      <trkpt lat="45.26824" lon="5.6646">
        <ele>538</ele>
        <time>2011-04-27T10:47:11Z</time>
      </trkpt>
      <trkpt lat="45.2683" lon="5.66452">
        <ele>538.5</ele>
        <time>2011-04-27T10:47:15Z</time>
      </trkpt>
      <trkpt lat="45.26836" lon="5.66444">
        <ele>540.3</ele>
        <time>2011-04-27T10:47:19Z</time>
      </trkpt>
      <trkpt lat="45.26842" lon="5.66435">
        <ele>540.9</ele>
        <time>2011-04-27T10:47:23Z</time>
      </trkpt>
      <trkpt lat="45.26851" lon="5.66438">
        <ele>540.7</ele>
        <time>2011-04-27T10:47:28Z</time>
      </trkpt>
      <trkpt lat="45.26851" lon="5.66449">
        <ele>542.7</ele>
        <time>2011-04-27T10:47:33Z</time>
      </trkpt>
      <trkpt lat="45.26845" lon="5.66458">
        <ele>543.7</ele>
        <time>2011-04-27T10:47:38Z</time>
      </trkpt>
      <trkpt lat="45.26839" lon="5.66467">
        <ele>544.9</ele>
        <time>2011-04-27T10:47:43Z</time>
      </trkpt>
      <trkpt lat="45.26833" lon="5.66475">
        <ele>545.9</ele>
        <time>2011-04-27T10:47:48Z</time>
      </trkpt>
      <trkpt lat="45.26831" lon="5.66477">
        <ele>545.9</ele>
        <time>2011-04-27T10:47:49Z</time>
      </trkpt>
      <trkpt lat="45.26827" lon="5.66498">
        <ele>548.1</ele>
        <time>2011-04-27T10:47:58Z</time>
      </trkpt>
      <trkpt lat="45.2683" lon="5.6651">
        <ele>548.6</ele>
        <time>2011-04-27T10:48:03Z</time>
      </trkpt>
      <trkpt lat="45.26834" lon="5.66518">
        <ele>550</ele>
        <time>2011-04-27T10:48:07Z</time>
      </trkpt>
      <trkpt lat="45.26839" lon="5.66528">
        <ele>550.7</ele>
        <time>2011-04-27T10:48:12Z</time>
      </trkpt>
      <trkpt lat="45.26843" lon="5.66539">
        <ele>551.1</ele>
        <time>2011-04-27T10:48:17Z</time>
      </trkpt>
      <trkpt lat="45.26846" lon="5.6655">
        <ele>552</ele>
        <time>2011-04-27T10:48:22Z</time>
      </trkpt>
      <trkpt lat="45.2685" lon="5.66561">
        <ele>553.1</ele>
        <time>2011-04-27T10:48:27Z</time>
      </trkpt>
      <trkpt lat="45.26859" lon="5.66565">
        <ele>554</ele>
        <time>2011-04-27T10:48:33Z</time>
      </trkpt>
      <trkpt lat="45.26865" lon="5.66559">
        <ele>554.9</ele>
        <time>2011-04-27T10:48:38Z</time>
      </trkpt>
      <trkpt lat="45.26872" lon="5.6655">
        <ele>557.2</ele>
        <time>2011-04-27T10:48:43Z</time>
      </trkpt>
      <trkpt lat="45.26878" lon="5.66542">
        <ele>556.1</ele>
        <time>2011-04-27T10:48:48Z</time>
      </trkpt>
      <trkpt lat="45.26885" lon="5.66534">
        <ele>558.2</ele>
        <time>2011-04-27T10:48:53Z</time>
      </trkpt>
      <trkpt lat="45.26887" lon="5.66534">
        <ele>558.4</ele>
        <time>2011-04-27T10:48:54Z</time>
      </trkpt>
      <trkpt lat="45.269" lon="5.66539">
        <ele>560.7</ele>
        <time>2011-04-27T10:49:02Z</time>
      </trkpt>
      <trkpt lat="45.26907" lon="5.66545">
        <ele>561.2</ele>
        <time>2011-04-27T10:49:06Z</time>
      </trkpt>
      <trkpt lat="45.26913" lon="5.6655">
        <ele>561.9</ele>
        <time>2011-04-27T10:49:10Z</time>
      </trkpt>
      <trkpt lat="45.2692" lon="5.66554">
        <ele>562.5</ele>
        <time>2011-04-27T10:49:14Z</time>
      </trkpt>
      <trkpt lat="45.26927" lon="5.66556">
        <ele>563</ele>
        <time>2011-04-27T10:49:18Z</time>
      </trkpt>
      <trkpt lat="45.26936" lon="5.66554">
        <ele>562.7</ele>
        <time>2011-04-27T10:49:23Z</time>
      </trkpt>
      <trkpt lat="45.26944" lon="5.66549">
        <ele>564.8</ele>
        <time>2011-04-27T10:49:28Z</time>
      </trkpt>
      <trkpt lat="45.2695" lon="5.66542">
        <ele>566.7</ele>
        <time>2011-04-27T10:49:33Z</time>
      </trkpt>
      <trkpt lat="45.26958" lon="5.66537">
        <ele>567.6</ele>
        <time>2011-04-27T10:49:38Z</time>
      </trkpt>
      <trkpt lat="45.26964" lon="5.6653">
        <ele>568.7</ele>
        <time>2011-04-27T10:49:43Z</time>
      </trkpt>
      <trkpt lat="45.26972" lon="5.66526">
        <ele>569.1</ele>
        <time>2011-04-27T10:49:48Z</time>
      </trkpt>
      <trkpt lat="45.26981" lon="5.66524">
        <ele>571.3</ele>
        <time>2011-04-27T10:49:53Z</time>
      </trkpt>
      <trkpt lat="45.26989" lon="5.66523">
        <ele>572.7</ele>
        <time>2011-04-27T10:49:58Z</time>
      </trkpt>
      <trkpt lat="45.26991" lon="5.66523">
        <ele>573</ele>
        <time>2011-04-27T10:49:59Z</time>
      </trkpt>
      <trkpt lat="45.27005" lon="5.66521">
        <ele>573.9</ele>
        <time>2011-04-27T10:50:07Z</time>
      </trkpt>
      <trkpt lat="45.27013" lon="5.66519">
        <ele>575.3</ele>
        <time>2011-04-27T10:50:12Z</time>
      </trkpt>
      <trkpt lat="45.2702" lon="5.66518">
        <ele>576.2</ele>
        <time>2011-04-27T10:50:16Z</time>
      </trkpt>
      <trkpt lat="45.27029" lon="5.66518">
        <ele>577.1</ele>
        <time>2011-04-27T10:50:21Z</time>
      </trkpt>
      <trkpt lat="45.27037" lon="5.66516">
        <ele>578.6</ele>
        <time>2011-04-27T10:50:26Z</time>
      </trkpt>
      <trkpt lat="45.27045" lon="5.66514">
        <ele>579.7</ele>
        <time>2011-04-27T10:50:31Z</time>
      </trkpt>
      <trkpt lat="45.27053" lon="5.66515">
        <ele>581.1</ele>
        <time>2011-04-27T10:50:35Z</time>
      </trkpt>
      <trkpt lat="45.27062" lon="5.66516">
        <ele>581.1</ele>
        <time>2011-04-27T10:50:40Z</time>
      </trkpt>
      <trkpt lat="45.2707" lon="5.66515">
        <ele>582</ele>
        <time>2011-04-27T10:50:45Z</time>
      </trkpt>
      <trkpt lat="45.27079" lon="5.66515">
        <ele>583.1</ele>
        <time>2011-04-27T10:50:50Z</time>
      </trkpt>
      <trkpt lat="45.27088" lon="5.66516">
        <ele>584.3</ele>
        <time>2011-04-27T10:50:55Z</time>
      </trkpt>
      <trkpt lat="45.27096" lon="5.66517">
        <ele>585.7</ele>
        <time>2011-04-27T10:51:00Z</time>
      </trkpt>
      <trkpt lat="45.27098" lon="5.66517">
        <ele>585.8</ele>
        <time>2011-04-27T10:51:01Z</time>
      </trkpt>
      <trkpt lat="45.27111" lon="5.66527">
        <ele>588.6</ele>
        <time>2011-04-27T10:51:14Z</time>
      </trkpt>
      <trkpt lat="45.27102" lon="5.66531">
        <ele>589.8</ele>
        <time>2011-04-27T10:51:20Z</time>
      </trkpt>
      <trkpt lat="45.27094" lon="5.66529">
        <ele>590.4</ele>
        <time>2011-04-27T10:51:25Z</time>
      </trkpt>
      <trkpt lat="45.27085" lon="5.66529">
        <ele>591.1</ele>
        <time>2011-04-27T10:51:30Z</time>
      </trkpt>
      <trkpt lat="45.27077" lon="5.6653">
        <ele>592.7</ele>
        <time>2011-04-27T10:51:35Z</time>
      </trkpt>
      <trkpt lat="45.27069" lon="5.66533">
        <ele>593.4</ele>
        <time>2011-04-27T10:51:40Z</time>
      </trkpt>
      <trkpt lat="45.27062" lon="5.66537">
        <ele>594</ele>
        <time>2011-04-27T10:51:45Z</time>
      </trkpt>
      <trkpt lat="45.27055" lon="5.66543">
        <ele>595</ele>
        <time>2011-04-27T10:51:50Z</time>
      </trkpt>
      <trkpt lat="45.27048" lon="5.66549">
        <ele>595.4</ele>
        <time>2011-04-27T10:51:55Z</time>
      </trkpt>
      <trkpt lat="45.27041" lon="5.66555">
        <ele>596.8</ele>
        <time>2011-04-27T10:52:00Z</time>
      </trkpt>
      <trkpt lat="45.27034" lon="5.66561">
        <ele>599.3</ele>
        <time>2011-04-27T10:52:05Z</time>
      </trkpt>
      <trkpt lat="45.27033" lon="5.66562">
        <ele>599.5</ele>
        <time>2011-04-27T10:52:06Z</time>
      </trkpt>
      <trkpt lat="45.27021" lon="5.66572">
        <ele>600.7</ele>
        <time>2011-04-27T10:52:15Z</time>
      </trkpt>
      <trkpt lat="45.27014" lon="5.66577">
        <ele>601.6</ele>
        <time>2011-04-27T10:52:20Z</time>
      </trkpt>
      <trkpt lat="45.27006" lon="5.66581">
        <ele>602.1</ele>
        <time>2011-04-27T10:52:25Z</time>
      </trkpt>
      <trkpt lat="45.26998" lon="5.66586">
        <ele>603.5</ele>
        <time>2011-04-27T10:52:30Z</time>
      </trkpt>
      <trkpt lat="45.26991" lon="5.6659">
        <ele>605.6</ele>
        <time>2011-04-27T10:52:35Z</time>
      </trkpt>
      <trkpt lat="45.26984" lon="5.66597">
        <ele>606.3</ele>
        <time>2011-04-27T10:52:40Z</time>
      </trkpt>
      <trkpt lat="45.26981" lon="5.66607">
        <ele>607.5</ele>
        <time>2011-04-27T10:52:45Z</time>
      </trkpt>
      <trkpt lat="45.26986" lon="5.66617">
        <ele>609.2</ele>
        <time>2011-04-27T10:52:50Z</time>
      </trkpt>
      <trkpt lat="45.26992" lon="5.66624">
        <ele>609.6</ele>
        <time>2011-04-27T10:52:55Z</time>
      </trkpt>
      <trkpt lat="45.27" lon="5.66628">
        <ele>610.9</ele>
        <time>2011-04-27T10:53:00Z</time>
      </trkpt>
      <trkpt lat="45.27009" lon="5.6663">
        <ele>611.8</ele>
        <time>2011-04-27T10:53:05Z</time>
      </trkpt>
      <trkpt lat="45.27017" lon="5.66632">
        <ele>612</ele>
        <time>2011-04-27T10:53:09Z</time>
      </trkpt>
      <trkpt lat="45.27018" lon="5.66632">
        <ele>612</ele>
        <time>2011-04-27T10:53:10Z</time>
      </trkpt>
      <trkpt lat="45.27032" lon="5.66637">
        <ele>612.2</ele>
        <time>2011-04-27T10:53:18Z</time>
      </trkpt>
      <trkpt lat="45.27039" lon="5.6664">
        <ele>614.1</ele>
        <time>2011-04-27T10:53:22Z</time>
      </trkpt>
      <trkpt lat="45.27048" lon="5.66645">
        <ele>615.1</ele>
        <time>2011-04-27T10:53:27Z</time>
      </trkpt>
      <trkpt lat="45.27055" lon="5.66637">
        <ele>616.7</ele>
        <time>2011-04-27T10:54:51Z</time>
      </trkpt>
      <trkpt lat="45.27057" lon="5.66637">
        <ele>616.8</ele>
        <time>2011-04-27T10:54:52Z</time>
      </trkpt>
      <trkpt lat="45.27069" lon="5.66638">
        <ele>616.8</ele>
        <time>2011-04-27T10:54:57Z</time>
      </trkpt>
      <trkpt lat="45.27077" lon="5.66636">
        <ele>616.8</ele>
        <time>2011-04-27T10:55:01Z</time>
      </trkpt>
      <trkpt lat="45.27086" lon="5.66634">
        <ele>616.7</ele>
        <time>2011-04-27T10:55:07Z</time>
      </trkpt>
      <trkpt lat="45.27094" lon="5.66632">
        <ele>616.3</ele>
        <time>2011-04-27T10:55:10Z</time>
      </trkpt>
      <trkpt lat="45.27101" lon="5.66629">
        <ele>616.8</ele>
        <time>2011-04-27T10:55:13Z</time>
      </trkpt>
      <trkpt lat="45.27108" lon="5.66626">
        <ele>617</ele>
        <time>2011-04-27T10:55:16Z</time>
      </trkpt>
      <trkpt lat="45.27115" lon="5.66622">
        <ele>617.2</ele>
        <time>2011-04-27T10:55:19Z</time>
      </trkpt>
      <trkpt lat="45.27124" lon="5.66619">
        <ele>617.4</ele>
        <time>2011-04-27T10:55:22Z</time>
      </trkpt>
      <trkpt lat="45.27133" lon="5.66615">
        <ele>617.7</ele>
        <time>2011-04-27T10:55:25Z</time>
      </trkpt>
      <trkpt lat="45.27141" lon="5.66612">
        <ele>616.9</ele>
        <time>2011-04-27T10:55:28Z</time>
      </trkpt>
      <trkpt lat="45.27149" lon="5.66609">
        <ele>617.2</ele>
        <time>2011-04-27T10:55:31Z</time>
      </trkpt>
      <trkpt lat="45.27156" lon="5.66606">
        <ele>618.2</ele>
        <time>2011-04-27T10:55:34Z</time>
      </trkpt>
      <trkpt lat="45.27164" lon="5.66604">
        <ele>619</ele>
        <time>2011-04-27T10:55:38Z</time>
      </trkpt>
      <trkpt lat="45.27171" lon="5.66602">
        <ele>619.9</ele>
        <time>2011-04-27T10:55:41Z</time>
      </trkpt>
      <trkpt lat="45.2718" lon="5.666">
        <ele>621</ele>
        <time>2011-04-27T10:55:45Z</time>
      </trkpt>
      <trkpt lat="45.27188" lon="5.66597">
        <ele>622.5</ele>
        <time>2011-04-27T10:55:49Z</time>
      </trkpt>
      <trkpt lat="45.27195" lon="5.66595">
        <ele>624.1</ele>
        <time>2011-04-27T10:55:53Z</time>
      </trkpt>
      <trkpt lat="45.27196" lon="5.66594">
        <ele>624.1</ele>
        <time>2011-04-27T10:55:54Z</time>
      </trkpt>
      <trkpt lat="45.27212" lon="5.66594">
        <ele>624.7</ele>
        <time>2011-04-27T10:56:03Z</time>
      </trkpt>
      <trkpt lat="45.2722" lon="5.66596">
        <ele>626.5</ele>
        <time>2011-04-27T10:56:08Z</time>
      </trkpt>
      <trkpt lat="45.27229" lon="5.66597">
        <ele>627.9</ele>
        <time>2011-04-27T10:56:16Z</time>
      </trkpt>
      <trkpt lat="45.27238" lon="5.66597">
        <ele>629.6</ele>
        <time>2011-04-27T10:56:25Z</time>
      </trkpt>
      <trkpt lat="45.27246" lon="5.66599">
        <ele>631.3</ele>
        <time>2011-04-27T10:56:36Z</time>
      </trkpt>
      <trkpt lat="45.27255" lon="5.66599">
        <ele>633.4</ele>
        <time>2011-04-27T10:56:48Z</time>
      </trkpt>
      <trkpt lat="45.27262" lon="5.66604">
        <ele>633.9</ele>
        <time>2011-04-27T10:56:57Z</time>
      </trkpt>
      <trkpt lat="45.27263" lon="5.66605">
        <ele>634.4</ele>
        <time>2011-04-27T10:56:58Z</time>
      </trkpt>
      <trkpt lat="45.27279" lon="5.66612">
        <ele>637.7</ele>
        <time>2011-04-27T10:57:15Z</time>
      </trkpt>
      <trkpt lat="45.27287" lon="5.66609">
        <ele>638.8</ele>
        <time>2011-04-27T10:57:24Z</time>
      </trkpt>
      <trkpt lat="45.27294" lon="5.66604">
        <ele>639.7</ele>
        <time>2011-04-27T10:57:34Z</time>
      </trkpt>
      <trkpt lat="45.27302" lon="5.666">
        <ele>642.7</ele>
        <time>2011-04-27T10:57:45Z</time>
      </trkpt>
      <trkpt lat="45.27297" lon="5.66604">
        <ele>645.1</ele>
        <time>2011-04-27T11:04:14Z</time>
      </trkpt>
      <trkpt lat="45.27295" lon="5.66607">
        <ele>645.3</ele>
        <time>2011-04-27T11:04:15Z</time>
      </trkpt>
      <trkpt lat="45.27284" lon="5.66612">
        <ele>644.4</ele>
        <time>2011-04-27T11:04:18Z</time>
      </trkpt>
      <trkpt lat="45.27277" lon="5.66611">
        <ele>643</ele>
        <time>2011-04-27T11:04:20Z</time>
      </trkpt>
      <trkpt lat="45.27273" lon="5.66609">
        <ele>642.5</ele>
        <time>2011-04-27T11:04:21Z</time>
      </trkpt>
      <trkpt lat="45.27269" lon="5.66606">
        <ele>641.6</ele>
        <time>2011-04-27T11:04:22Z</time>
      </trkpt>
      <trkpt lat="45.27265" lon="5.66602">
        <ele>640.9</ele>
        <time>2011-04-27T11:04:23Z</time>
      </trkpt>
      <trkpt lat="45.2726" lon="5.66599">
        <ele>640.4</ele>
        <time>2011-04-27T11:04:24Z</time>
      </trkpt>
      <trkpt lat="45.27256" lon="5.66598">
        <ele>639.1</ele>
        <time>2011-04-27T11:04:25Z</time>
      </trkpt>
      <trkpt lat="45.27251" lon="5.66598">
        <ele>638.1</ele>
        <time>2011-04-27T11:04:26Z</time>
      </trkpt>
      <trkpt lat="45.27246" lon="5.66597">
        <ele>637.3</ele>
        <time>2011-04-27T11:04:27Z</time>
      </trkpt>
      <trkpt lat="45.27241" lon="5.66596">
        <ele>636.1</ele>
        <time>2011-04-27T11:04:28Z</time>
      </trkpt>
      <trkpt lat="45.27235" lon="5.66595">
        <ele>635.1</ele>
        <time>2011-04-27T11:04:29Z</time>
      </trkpt>
      <trkpt lat="45.2723" lon="5.66594">
        <ele>634.4</ele>
        <time>2011-04-27T11:04:30Z</time>
      </trkpt>
      <trkpt lat="45.27225" lon="5.66593">
        <ele>633.9</ele>
        <time>2011-04-27T11:04:31Z</time>
      </trkpt>
      <trkpt lat="45.2722" lon="5.66592">
        <ele>632.7</ele>
        <time>2011-04-27T11:04:32Z</time>
      </trkpt>
      <trkpt lat="45.27215" lon="5.66592">
        <ele>631.8</ele>
        <time>2011-04-27T11:04:33Z</time>
      </trkpt>
      <trkpt lat="45.2721" lon="5.66592">
        <ele>631.1</ele>
        <time>2011-04-27T11:04:34Z</time>
      </trkpt>
      <trkpt lat="45.27205" lon="5.66591">
        <ele>629.8</ele>
        <time>2011-04-27T11:04:35Z</time>
      </trkpt>
      <trkpt lat="45.27198" lon="5.66593">
        <ele>628.1</ele>
        <time>2011-04-27T11:04:37Z</time>
      </trkpt>
      <trkpt lat="45.2719" lon="5.66596">
        <ele>622.7</ele>
        <time>2011-04-27T11:14:25Z</time>
      </trkpt>
      <trkpt lat="45.27187" lon="5.66597">
        <ele>622.7</ele>
        <time>2011-04-27T11:14:26Z</time>
      </trkpt>
      <trkpt lat="45.27177" lon="5.66602">
        <ele>622.4</ele>
        <time>2011-04-27T11:14:29Z</time>
      </trkpt>
      <trkpt lat="45.27172" lon="5.66604">
        <ele>622.3</ele>
        <time>2011-04-27T11:14:30Z</time>
      </trkpt>
      <trkpt lat="45.27167" lon="5.66606">
        <ele>621.9</ele>
        <time>2011-04-27T11:14:31Z</time>
      </trkpt>
      <trkpt lat="45.27162" lon="5.66609">
        <ele>621.6</ele>
        <time>2011-04-27T11:14:32Z</time>
      </trkpt>
      <trkpt lat="45.27158" lon="5.66611">
        <ele>621.4</ele>
        <time>2011-04-27T11:14:33Z</time>
      </trkpt>
      <trkpt lat="45.27152" lon="5.66613">
        <ele>621.2</ele>
        <time>2011-04-27T11:14:34Z</time>
      </trkpt>
      <trkpt lat="45.27148" lon="5.66616">
        <ele>621.2</ele>
        <time>2011-04-27T11:14:35Z</time>
      </trkpt>
      <trkpt lat="45.27142" lon="5.66619">
        <ele>621.2</ele>
        <time>2011-04-27T11:14:36Z</time>
      </trkpt>
      <trkpt lat="45.27137" lon="5.66621">
        <ele>621.2</ele>
        <time>2011-04-27T11:14:37Z</time>
      </trkpt>
      <trkpt lat="45.27132" lon="5.66623">
        <ele>621</ele>
        <time>2011-04-27T11:14:38Z</time>
      </trkpt>
      <trkpt lat="45.27126" lon="5.66625">
        <ele>620.8</ele>
        <time>2011-04-27T11:14:39Z</time>
      </trkpt>
      <trkpt lat="45.27121" lon="5.66627">
        <ele>620.7</ele>
        <time>2011-04-27T11:14:40Z</time>
      </trkpt>
      <trkpt lat="45.27115" lon="5.6663">
        <ele>620.7</ele>
        <time>2011-04-27T11:14:41Z</time>
      </trkpt>
      <trkpt lat="45.2711" lon="5.66632">
        <ele>620.6</ele>
        <time>2011-04-27T11:14:42Z</time>
      </trkpt>
      <trkpt lat="45.27106" lon="5.66634">
        <ele>620.6</ele>
        <time>2011-04-27T11:14:43Z</time>
      </trkpt>
      <trkpt lat="45.27098" lon="5.66636">
        <ele>619.8</ele>
        <time>2011-04-27T11:14:45Z</time>
      </trkpt>
      <trkpt lat="45.27091" lon="5.66638">
        <ele>619.7</ele>
        <time>2011-04-27T11:14:47Z</time>
      </trkpt>
      <trkpt lat="45.27083" lon="5.66639">
        <ele>620</ele>
        <time>2011-04-27T11:14:49Z</time>
      </trkpt>
      <trkpt lat="45.27075" lon="5.6664">
        <ele>619.2</ele>
        <time>2011-04-27T11:14:51Z</time>
      </trkpt>
      <trkpt lat="45.27068" lon="5.66641">
        <ele>618.7</ele>
        <time>2011-04-27T11:14:53Z</time>
      </trkpt>
      <trkpt lat="45.2706" lon="5.66645">
        <ele>619.3</ele>
        <time>2011-04-27T11:14:56Z</time>
      </trkpt>
      <trkpt lat="45.27055" lon="5.66654">
        <ele>618.2</ele>
        <time>2011-04-27T11:15:00Z</time>
      </trkpt>
      <trkpt lat="45.2705" lon="5.66665">
        <ele>618.5</ele>
        <time>2011-04-27T11:15:03Z</time>
      </trkpt>
      <trkpt lat="45.27045" lon="5.66671">
        <ele>618.4</ele>
        <time>2011-04-27T11:15:05Z</time>
      </trkpt>
      <trkpt lat="45.2704" lon="5.66677">
        <ele>618.6</ele>
        <time>2011-04-27T11:15:07Z</time>
      </trkpt>
      <trkpt lat="45.27034" lon="5.66682">
        <ele>619</ele>
        <time>2011-04-27T11:15:09Z</time>
      </trkpt>
      <trkpt lat="45.27028" lon="5.66687">
        <ele>619.4</ele>
        <time>2011-04-27T11:15:11Z</time>
      </trkpt>
      <trkpt lat="45.27023" lon="5.6669">
        <ele>620.2</ele>
        <time>2011-04-27T11:15:13Z</time>
      </trkpt>
      <trkpt lat="45.27015" lon="5.66694">
        <ele>621</ele>
        <time>2011-04-27T11:15:16Z</time>
      </trkpt>
      <trkpt lat="45.27007" lon="5.66694">
        <ele>621</ele>
        <time>2011-04-27T11:15:20Z</time>
      </trkpt>
      <trkpt lat="45.26999" lon="5.66688">
        <ele>622.4</ele>
        <time>2011-04-27T11:15:28Z</time>
      </trkpt>
      <trkpt lat="45.26999" lon="5.66688">
        <ele>622.2</ele>
        <time>2011-04-27T11:15:29Z</time>
      </trkpt>
      <trkpt lat="45.26989" lon="5.66681">
        <ele>621.9</ele>
        <time>2011-04-27T11:15:34Z</time>
      </trkpt>
      <trkpt lat="45.26985" lon="5.66675">
        <ele>621.4</ele>
        <time>2011-04-27T11:15:35Z</time>
      </trkpt>
      <trkpt lat="45.26982" lon="5.66668">
        <ele>621</ele>
        <time>2011-04-27T11:15:36Z</time>
      </trkpt>
      <trkpt lat="45.2698" lon="5.66659">
        <ele>620.7</ele>
        <time>2011-04-27T11:15:37Z</time>
      </trkpt>
      <trkpt lat="45.26979" lon="5.66652">
        <ele>619.4</ele>
        <time>2011-04-27T11:15:38Z</time>
      </trkpt>
      <trkpt lat="45.26973" lon="5.66642">
        <ele>616.8</ele>
        <time>2011-04-27T11:15:41Z</time>
      </trkpt>
      <trkpt lat="45.26971" lon="5.66631">
        <ele>611.4</ele>
        <time>2011-04-27T11:15:48Z</time>
      </trkpt>
      <trkpt lat="45.2697" lon="5.66619">
        <ele>606.5</ele>
        <time>2011-04-27T11:15:54Z</time>
      </trkpt>
      <trkpt lat="45.26963" lon="5.66619">
        <ele>604.8</ele>
        <time>2011-04-27T11:15:56Z</time>
      </trkpt>
      <trkpt lat="45.26956" lon="5.66616">
        <ele>601.7</ele>
        <time>2011-04-27T11:15:58Z</time>
      </trkpt>
      <trkpt lat="45.26955" lon="5.66603">
        <ele>598.5</ele>
        <time>2011-04-27T11:16:01Z</time>
      </trkpt>
      <trkpt lat="45.26958" lon="5.66597">
        <ele>597.8</ele>
        <time>2011-04-27T11:16:02Z</time>
      </trkpt>
      <trkpt lat="45.2696" lon="5.66591">
        <ele>596.6</ele>
        <time>2011-04-27T11:16:03Z</time>
      </trkpt>
      <trkpt lat="45.26963" lon="5.66585">
        <ele>595.7</ele>
        <time>2011-04-27T11:16:04Z</time>
      </trkpt>
      <trkpt lat="45.26966" lon="5.66579">
        <ele>595.1</ele>
        <time>2011-04-27T11:16:05Z</time>
      </trkpt>
      <trkpt lat="45.26968" lon="5.66573">
        <ele>594.6</ele>
        <time>2011-04-27T11:16:06Z</time>
      </trkpt>
      <trkpt lat="45.26971" lon="5.66567">
        <ele>593.4</ele>
        <time>2011-04-27T11:16:07Z</time>
      </trkpt>
      <trkpt lat="45.26975" lon="5.66561">
        <ele>592.6</ele>
        <time>2011-04-27T11:16:08Z</time>
      </trkpt>
      <trkpt lat="45.26979" lon="5.66556">
        <ele>591.9</ele>
        <time>2011-04-27T11:16:09Z</time>
      </trkpt>
      <trkpt lat="45.26983" lon="5.6655">
        <ele>590.5</ele>
        <time>2011-04-27T11:16:10Z</time>
      </trkpt>
      <trkpt lat="45.26987" lon="5.66545">
        <ele>589.4</ele>
        <time>2011-04-27T11:16:11Z</time>
      </trkpt>
      <trkpt lat="45.26991" lon="5.66541">
        <ele>588.6</ele>
        <time>2011-04-27T11:16:12Z</time>
      </trkpt>
      <trkpt lat="45.26995" lon="5.66537">
        <ele>587.2</ele>
        <time>2011-04-27T11:16:13Z</time>
      </trkpt>
      <trkpt lat="45.27003" lon="5.66531">
        <ele>585.2</ele>
        <time>2011-04-27T11:16:15Z</time>
      </trkpt>
      <trkpt lat="45.2701" lon="5.66524">
        <ele>582.1</ele>
        <time>2011-04-27T11:16:17Z</time>
      </trkpt>
      <trkpt lat="45.27016" lon="5.66521">
        <ele>580.7</ele>
        <time>2011-04-27T11:16:19Z</time>
      </trkpt>
      <trkpt lat="45.27023" lon="5.66518">
        <ele>580</ele>
        <time>2011-04-27T11:16:22Z</time>
      </trkpt>
      <trkpt lat="45.27031" lon="5.66516">
        <ele>579.8</ele>
        <time>2011-04-27T11:16:25Z</time>
      </trkpt>
      <trkpt lat="45.27039" lon="5.66514">
        <ele>580.4</ele>
        <time>2011-04-27T11:16:29Z</time>
      </trkpt>
      <trkpt lat="45.2704" lon="5.66513">
        <ele>580.4</ele>
        <time>2011-04-27T11:16:30Z</time>
      </trkpt>
      <trkpt lat="45.27024" lon="5.66506">
        <ele>578.6</ele>
        <time>2011-04-27T11:17:20Z</time>
      </trkpt>
      <trkpt lat="45.27016" lon="5.66505">
        <ele>577.1</ele>
        <time>2011-04-27T11:17:22Z</time>
      </trkpt>
      <trkpt lat="45.27012" lon="5.66495">
        <ele>572.1</ele>
        <time>2011-04-27T11:17:26Z</time>
      </trkpt>
      <trkpt lat="45.27016" lon="5.6649">
        <ele>571.1</ele>
        <time>2011-04-27T11:17:27Z</time>
      </trkpt>
      <trkpt lat="45.27019" lon="5.66484">
        <ele>570.4</ele>
        <time>2011-04-27T11:17:28Z</time>
      </trkpt>
      <trkpt lat="45.27024" lon="5.66479">
        <ele>569</ele>
        <time>2011-04-27T11:17:29Z</time>
      </trkpt>
      <trkpt lat="45.27028" lon="5.66473">
        <ele>568</ele>
        <time>2011-04-27T11:17:30Z</time>
      </trkpt>
      <trkpt lat="45.27032" lon="5.66466">
        <ele>567.2</ele>
        <time>2011-04-27T11:17:31Z</time>
      </trkpt>
      <trkpt lat="45.27037" lon="5.66459">
        <ele>565.6</ele>
        <time>2011-04-27T11:17:32Z</time>
      </trkpt>
      <trkpt lat="45.27042" lon="5.66452">
        <ele>564.3</ele>
        <time>2011-04-27T11:17:33Z</time>
      </trkpt>
      <trkpt lat="45.27046" lon="5.66447">
        <ele>563.4</ele>
        <time>2011-04-27T11:17:34Z</time>
      </trkpt>
      <trkpt lat="45.27053" lon="5.6644">
        <ele>560.9</ele>
        <time>2011-04-27T11:17:36Z</time>
      </trkpt>
      <trkpt lat="45.27061" lon="5.66435">
        <ele>559.4</ele>
        <time>2011-04-27T11:17:38Z</time>
      </trkpt>
      <trkpt lat="45.27066" lon="5.66431">
        <ele>557.3</ele>
        <time>2011-04-27T11:17:39Z</time>
      </trkpt>
      <trkpt lat="45.27072" lon="5.66427">
        <ele>555.6</ele>
        <time>2011-04-27T11:17:40Z</time>
      </trkpt>
      <trkpt lat="45.27079" lon="5.66424">
        <ele>554.4</ele>
        <time>2011-04-27T11:17:41Z</time>
      </trkpt>
      <trkpt lat="45.27085" lon="5.66423">
        <ele>552.8</ele>
        <time>2011-04-27T11:17:42Z</time>
      </trkpt>
      <trkpt lat="45.27091" lon="5.66427">
        <ele>550.7</ele>
        <time>2011-04-27T11:17:44Z</time>
      </trkpt>
      <trkpt lat="45.27097" lon="5.66429">
        <ele>548.3</ele>
        <time>2011-04-27T11:17:46Z</time>
      </trkpt>
      <trkpt lat="45.27104" lon="5.66425">
        <ele>546.1</ele>
        <time>2011-04-27T11:17:48Z</time>
      </trkpt>
      <trkpt lat="45.2711" lon="5.66425">
        <ele>544.3</ele>
        <time>2011-04-27T11:17:50Z</time>
      </trkpt>
      <trkpt lat="45.27118" lon="5.66424">
        <ele>540.4</ele>
        <time>2011-04-27T11:17:53Z</time>
      </trkpt>
      <trkpt lat="45.27125" lon="5.66421">
        <ele>537</ele>
        <time>2011-04-27T11:17:56Z</time>
      </trkpt>
      <trkpt lat="45.2713" lon="5.66417">
        <ele>534.8</ele>
        <time>2011-04-27T11:17:58Z</time>
      </trkpt>
      <trkpt lat="45.27135" lon="5.66416">
        <ele>533.6</ele>
        <time>2011-04-27T11:17:59Z</time>
      </trkpt>
      <trkpt lat="45.27141" lon="5.66413">
        <ele>532.8</ele>
        <time>2011-04-27T11:18:00Z</time>
      </trkpt>
      <trkpt lat="45.27147" lon="5.66409">
        <ele>530.8</ele>
        <time>2011-04-27T11:18:01Z</time>
      </trkpt>
      <trkpt lat="45.27153" lon="5.66407">
        <ele>529.4</ele>
        <time>2011-04-27T11:18:02Z</time>
      </trkpt>
      <trkpt lat="45.2716" lon="5.66404">
        <ele>528.3</ele>
        <time>2011-04-27T11:18:03Z</time>
      </trkpt>
      <trkpt lat="45.27166" lon="5.66401">
        <ele>526.3</ele>
        <time>2011-04-27T11:18:04Z</time>
      </trkpt>
      <trkpt lat="45.27172" lon="5.66397">
        <ele>524.8</ele>
        <time>2011-04-27T11:18:05Z</time>
      </trkpt>
      <trkpt lat="45.27177" lon="5.66394">
        <ele>523.6</ele>
        <time>2011-04-27T11:18:06Z</time>
      </trkpt>
      <trkpt lat="45.27182" lon="5.66391">
        <ele>521.7</ele>
        <time>2011-04-27T11:18:07Z</time>
      </trkpt>
      <trkpt lat="45.27186" lon="5.66387">
        <ele>520.3</ele>
        <time>2011-04-27T11:18:08Z</time>
      </trkpt>
      <trkpt lat="45.27191" lon="5.66385">
        <ele>519.2</ele>
        <time>2011-04-27T11:18:09Z</time>
      </trkpt>
      <trkpt lat="45.27199" lon="5.6638">
        <ele>516.9</ele>
        <time>2011-04-27T11:18:11Z</time>
      </trkpt>
      <trkpt lat="45.27202" lon="5.66378">
        <ele>516.1</ele>
        <time>2011-04-27T11:18:12Z</time>
      </trkpt>
      <trkpt lat="45.27207" lon="5.66375">
        <ele>515.5</ele>
        <time>2011-04-27T11:18:13Z</time>
      </trkpt>
      <trkpt lat="45.27212" lon="5.66371">
        <ele>514.2</ele>
        <time>2011-04-27T11:18:14Z</time>
      </trkpt>
      <trkpt lat="45.27217" lon="5.66367">
        <ele>513.1</ele>
        <time>2011-04-27T11:18:15Z</time>
      </trkpt>
      <trkpt lat="45.27221" lon="5.66364">
        <ele>512.4</ele>
        <time>2011-04-27T11:18:16Z</time>
      </trkpt>
      <trkpt lat="45.27225" lon="5.66362">
        <ele>510.1</ele>
        <time>2011-04-27T11:18:17Z</time>
      </trkpt>
      <trkpt lat="45.27229" lon="5.6636">
        <ele>508.4</ele>
        <time>2011-04-27T11:18:18Z</time>
      </trkpt>
      <trkpt lat="45.27234" lon="5.66355">
        <ele>507.1</ele>
        <time>2011-04-27T11:18:19Z</time>
      </trkpt>
      <trkpt lat="45.27238" lon="5.6635">
        <ele>505.7</ele>
        <time>2011-04-27T11:18:20Z</time>
      </trkpt>
      <trkpt lat="45.27242" lon="5.66345">
        <ele>504.6</ele>
        <time>2011-04-27T11:18:21Z</time>
      </trkpt>
      <trkpt lat="45.27246" lon="5.66341">
        <ele>503.8</ele>
        <time>2011-04-27T11:18:22Z</time>
      </trkpt>
      <trkpt lat="45.27251" lon="5.66337">
        <ele>501.9</ele>
        <time>2011-04-27T11:18:23Z</time>
      </trkpt>
      <trkpt lat="45.27256" lon="5.66332">
        <ele>500.5</ele>
        <time>2011-04-27T11:18:24Z</time>
      </trkpt>
      <trkpt lat="45.27262" lon="5.66326">
        <ele>499.4</ele>
        <time>2011-04-27T11:18:25Z</time>
      </trkpt>
      <trkpt lat="45.27269" lon="5.6632">
        <ele>497.3</ele>
        <time>2011-04-27T11:18:26Z</time>
      </trkpt>
      <trkpt lat="45.27275" lon="5.66313">
        <ele>495.7</ele>
        <time>2011-04-27T11:18:27Z</time>
      </trkpt>
      <trkpt lat="45.2728" lon="5.66306">
        <ele>494.5</ele>
        <time>2011-04-27T11:18:28Z</time>
      </trkpt>
      <trkpt lat="45.27285" lon="5.66299">
        <ele>492.7</ele>
        <time>2011-04-27T11:18:29Z</time>
      </trkpt>
      <trkpt lat="45.27289" lon="5.66293">
        <ele>491.3</ele>
        <time>2011-04-27T11:18:30Z</time>
      </trkpt>
      <trkpt lat="45.27293" lon="5.66287">
        <ele>490.2</ele>
        <time>2011-04-27T11:18:31Z</time>
      </trkpt>
      <trkpt lat="45.27296" lon="5.6628">
        <ele>489.4</ele>
        <time>2011-04-27T11:18:32Z</time>
      </trkpt>
      <trkpt lat="45.27299" lon="5.66273">
        <ele>488.1</ele>
        <time>2011-04-27T11:18:33Z</time>
      </trkpt>
      <trkpt lat="45.27303" lon="5.66264">
        <ele>487.1</ele>
        <time>2011-04-27T11:18:34Z</time>
      </trkpt>
      <trkpt lat="45.27307" lon="5.66254">
        <ele>486.4</ele>
        <time>2011-04-27T11:18:35Z</time>
      </trkpt>
      <trkpt lat="45.27312" lon="5.66245">
        <ele>485.3</ele>
        <time>2011-04-27T11:18:36Z</time>
      </trkpt>
      <trkpt lat="45.27316" lon="5.66237">
        <ele>484.5</ele>
        <time>2011-04-27T11:18:37Z</time>
      </trkpt>
      <trkpt lat="45.2732" lon="5.6623">
        <ele>483.8</ele>
        <time>2011-04-27T11:18:38Z</time>
      </trkpt>
      <trkpt lat="45.27325" lon="5.66221">
        <ele>482.5</ele>
        <time>2011-04-27T11:18:39Z</time>
      </trkpt>
      <trkpt lat="45.2733" lon="5.66214">
        <ele>481.6</ele>
        <time>2011-04-27T11:18:40Z</time>
      </trkpt>
      <trkpt lat="45.27335" lon="5.66207">
        <ele>480.8</ele>
        <time>2011-04-27T11:18:41Z</time>
      </trkpt>
      <trkpt lat="45.2734" lon="5.66199">
        <ele>479.9</ele>
        <time>2011-04-27T11:18:42Z</time>
      </trkpt>
      <trkpt lat="45.27343" lon="5.66192">
        <ele>479.1</ele>
        <time>2011-04-27T11:18:43Z</time>
      </trkpt>
      <trkpt lat="45.27345" lon="5.66183">
        <ele>478.6</ele>
        <time>2011-04-27T11:18:44Z</time>
      </trkpt>
      <trkpt lat="45.27349" lon="5.66173">
        <ele>477.5</ele>
        <time>2011-04-27T11:18:46Z</time>
      </trkpt>
      <trkpt lat="45.27354" lon="5.66164">
        <ele>473.9</ele>
        <time>2011-04-27T11:19:00Z</time>
      </trkpt>
      <trkpt lat="45.27358" lon="5.66155">
        <ele>473.7</ele>
        <time>2011-04-27T11:19:03Z</time>
      </trkpt>
      <trkpt lat="45.27363" lon="5.66145">
        <ele>472.9</ele>
        <time>2011-04-27T11:19:05Z</time>
      </trkpt>
      <trkpt lat="45.27366" lon="5.66139">
        <ele>472.7</ele>
        <time>2011-04-27T11:19:06Z</time>
      </trkpt>
      <trkpt lat="45.2737" lon="5.66133">
        <ele>472.5</ele>
        <time>2011-04-27T11:19:07Z</time>
      </trkpt>
      <trkpt lat="45.27374" lon="5.66126">
        <ele>472</ele>
        <time>2011-04-27T11:19:08Z</time>
      </trkpt>
      <trkpt lat="45.27377" lon="5.66118">
        <ele>471.5</ele>
        <time>2011-04-27T11:19:09Z</time>
      </trkpt>
      <trkpt lat="45.27381" lon="5.6611">
        <ele>471.2</ele>
        <time>2011-04-27T11:19:10Z</time>
      </trkpt>
      <trkpt lat="45.27386" lon="5.66103">
        <ele>470.4</ele>
        <time>2011-04-27T11:19:11Z</time>
      </trkpt>
      <trkpt lat="45.2739" lon="5.66095">
        <ele>469.7</ele>
        <time>2011-04-27T11:19:12Z</time>
      </trkpt>
      <trkpt lat="45.27395" lon="5.66087">
        <ele>469.3</ele>
        <time>2011-04-27T11:19:13Z</time>
      </trkpt>
      <trkpt lat="45.27399" lon="5.6608">
        <ele>468.5</ele>
        <time>2011-04-27T11:19:14Z</time>
      </trkpt>
      <trkpt lat="45.27404" lon="5.66076">
        <ele>467.9</ele>
        <time>2011-04-27T11:19:15Z</time>
      </trkpt>
      <trkpt lat="45.27409" lon="5.66074">
        <ele>467.5</ele>
        <time>2011-04-27T11:19:16Z</time>
      </trkpt>
      <trkpt lat="45.27414" lon="5.6607">
        <ele>466.9</ele>
        <time>2011-04-27T11:19:17Z</time>
      </trkpt>
      <trkpt lat="45.2742" lon="5.66067">
        <ele>466.4</ele>
        <time>2011-04-27T11:19:18Z</time>
      </trkpt>
      <trkpt lat="45.27425" lon="5.66063">
        <ele>466.1</ele>
        <time>2011-04-27T11:19:19Z</time>
      </trkpt>
      <trkpt lat="45.2743" lon="5.66057">
        <ele>465.9</ele>
        <time>2011-04-27T11:19:20Z</time>
      </trkpt>
      <trkpt lat="45.27435" lon="5.66052">
        <ele>465.7</ele>
        <time>2011-04-27T11:19:21Z</time>
      </trkpt>
      <trkpt lat="45.2744" lon="5.66047">
        <ele>465.6</ele>
        <time>2011-04-27T11:19:22Z</time>
      </trkpt>
      <trkpt lat="45.27445" lon="5.66044">
        <ele>465</ele>
        <time>2011-04-27T11:19:23Z</time>
      </trkpt>
      <trkpt lat="45.27449" lon="5.6604">
        <ele>464.5</ele>
        <time>2011-04-27T11:19:24Z</time>
      </trkpt>
      <trkpt lat="45.27458" lon="5.66036">
        <ele>463.2</ele>
        <time>2011-04-27T11:19:26Z</time>
      </trkpt>
      <trkpt lat="45.27465" lon="5.66032">
        <ele>461.9</ele>
        <time>2011-04-27T11:19:28Z</time>
      </trkpt>
      <trkpt lat="45.27472" lon="5.66027">
        <ele>461.2</ele>
        <time>2011-04-27T11:19:31Z</time>
      </trkpt>
      <trkpt lat="45.2748" lon="5.66023">
        <ele>461.9</ele>
        <time>2011-04-27T11:19:34Z</time>
      </trkpt>
      <trkpt lat="45.27483" lon="5.66022">
        <ele>462.2</ele>
        <time>2011-04-27T11:19:35Z</time>
      </trkpt>
      <trkpt lat="45.27493" lon="5.66017">
        <ele>462.1</ele>
        <time>2011-04-27T11:19:38Z</time>
      </trkpt>
      <trkpt lat="45.27499" lon="5.66016">
        <ele>460.9</ele>
        <time>2011-04-27T11:19:39Z</time>
      </trkpt>
      <trkpt lat="45.27506" lon="5.66009">
        <ele>459.4</ele>
        <time>2011-04-27T11:19:41Z</time>
      </trkpt>
      <trkpt lat="45.27508" lon="5.65999">
        <ele>457.3</ele>
        <time>2011-04-27T11:19:43Z</time>
      </trkpt>
      <trkpt lat="45.27512" lon="5.6599">
        <ele>456.1</ele>
        <time>2011-04-27T11:19:45Z</time>
      </trkpt>
      <trkpt lat="45.27516" lon="5.65986">
        <ele>455.3</ele>
        <time>2011-04-27T11:19:46Z</time>
      </trkpt>
      <trkpt lat="45.2752" lon="5.65981">
        <ele>454.7</ele>
        <time>2011-04-27T11:19:47Z</time>
      </trkpt>
      <trkpt lat="45.27525" lon="5.65977">
        <ele>454.3</ele>
        <time>2011-04-27T11:19:48Z</time>
      </trkpt>
      <trkpt lat="45.2753" lon="5.65974">
        <ele>454</ele>
        <time>2011-04-27T11:19:49Z</time>
      </trkpt>
      <trkpt lat="45.27537" lon="5.65972">
        <ele>453.6</ele>
        <time>2011-04-27T11:19:51Z</time>
      </trkpt>
      <trkpt lat="45.27543" lon="5.65969">
        <ele>453.8</ele>
        <time>2011-04-27T11:19:53Z</time>
      </trkpt>
      <trkpt lat="45.27548" lon="5.65963">
        <ele>454.4</ele>
        <time>2011-04-27T11:19:55Z</time>
      </trkpt>
      <trkpt lat="45.27555" lon="5.65955">
        <ele>454.9</ele>
        <time>2011-04-27T11:19:58Z</time>
      </trkpt>
      <trkpt lat="45.27561" lon="5.65949">
        <ele>454.3</ele>
        <time>2011-04-27T11:20:01Z</time>
      </trkpt>
      <trkpt lat="45.27565" lon="5.65943">
        <ele>453.7</ele>
        <time>2011-04-27T11:20:03Z</time>
      </trkpt>
      <trkpt lat="45.2757" lon="5.65934">
        <ele>452.5</ele>
        <time>2011-04-27T11:20:05Z</time>
      </trkpt>
      <trkpt lat="45.27575" lon="5.65925">
        <ele>451.3</ele>
        <time>2011-04-27T11:20:07Z</time>
      </trkpt>
      <trkpt lat="45.27579" lon="5.6592">
        <ele>449.4</ele>
        <time>2011-04-27T11:20:08Z</time>
      </trkpt>
      <trkpt lat="45.27583" lon="5.65914">
        <ele>448.1</ele>
        <time>2011-04-27T11:20:09Z</time>
      </trkpt>
      <trkpt lat="45.27587" lon="5.65907">
        <ele>447</ele>
        <time>2011-04-27T11:20:10Z</time>
      </trkpt>
      <trkpt lat="45.27591" lon="5.65899">
        <ele>445</ele>
        <time>2011-04-27T11:20:11Z</time>
      </trkpt>
      <trkpt lat="45.27594" lon="5.65893">
        <ele>443.5</ele>
        <time>2011-04-27T11:20:12Z</time>
      </trkpt>
      <trkpt lat="45.276" lon="5.65883">
        <ele>440.4</ele>
        <time>2011-04-27T11:20:14Z</time>
      </trkpt>
      <trkpt lat="45.27602" lon="5.65877">
        <ele>438.9</ele>
        <time>2011-04-27T11:20:15Z</time>
      </trkpt>
      <trkpt lat="45.27603" lon="5.65865">
        <ele>436.1</ele>
        <time>2011-04-27T11:20:17Z</time>
      </trkpt>
      <trkpt lat="45.27598" lon="5.65856">
        <ele>432.5</ele>
        <time>2011-04-27T11:20:20Z</time>
      </trkpt>
      <trkpt lat="45.27593" lon="5.65857">
        <ele>430.6</ele>
        <time>2011-04-27T11:20:22Z</time>
      </trkpt>
      <trkpt lat="45.27586" lon="5.65863">
        <ele>428.5</ele>
        <time>2011-04-27T11:20:24Z</time>
      </trkpt>
      <trkpt lat="45.27581" lon="5.65855">
        <ele>421.9</ele>
        <time>2011-04-27T11:20:31Z</time>
      </trkpt>
      <trkpt lat="45.27582" lon="5.65849">
        <ele>421.6</ele>
        <time>2011-04-27T11:20:32Z</time>
      </trkpt>
      <trkpt lat="45.27584" lon="5.65843">
        <ele>420.3</ele>
        <time>2011-04-27T11:20:33Z</time>
      </trkpt>
      <trkpt lat="45.27586" lon="5.65835">
        <ele>419.3</ele>
        <time>2011-04-27T11:20:34Z</time>
      </trkpt>
      <trkpt lat="45.27588" lon="5.65828">
        <ele>418.5</ele>
        <time>2011-04-27T11:20:35Z</time>
      </trkpt>
      <trkpt lat="45.2759" lon="5.65821">
        <ele>417.2</ele>
        <time>2011-04-27T11:20:36Z</time>
      </trkpt>
      <trkpt lat="45.27592" lon="5.65815">
        <ele>416.3</ele>
        <time>2011-04-27T11:20:37Z</time>
      </trkpt>
      <trkpt lat="45.27598" lon="5.65805">
        <ele>415.1</ele>
        <time>2011-04-27T11:20:39Z</time>
      </trkpt>
      <trkpt lat="45.27602" lon="5.65798">
        <ele>413.3</ele>
        <time>2011-04-27T11:20:40Z</time>
      </trkpt>
      <trkpt lat="45.27606" lon="5.65791">
        <ele>412</ele>
        <time>2011-04-27T11:20:41Z</time>
      </trkpt>
      <trkpt lat="45.27608" lon="5.65783">
        <ele>411.1</ele>
        <time>2011-04-27T11:20:42Z</time>
      </trkpt>
      <trkpt lat="45.27615" lon="5.65775">
        <ele>407.7</ele>
        <time>2011-04-27T11:20:45Z</time>
      </trkpt>
      <trkpt lat="45.27621" lon="5.65771">
        <ele>404.7</ele>
        <time>2011-04-27T11:20:47Z</time>
      </trkpt>
      <trkpt lat="45.27628" lon="5.65764">
        <ele>400.9</ele>
        <time>2011-04-27T11:20:50Z</time>
      </trkpt>
      <trkpt lat="45.27629" lon="5.65753">
        <ele>397.6</ele>
        <time>2011-04-27T11:20:53Z</time>
      </trkpt>
      <trkpt lat="45.27634" lon="5.65743">
        <ele>393.7</ele>
        <time>2011-04-27T11:20:56Z</time>
      </trkpt>
      <trkpt lat="45.27638" lon="5.65734">
        <ele>390.7</ele>
        <time>2011-04-27T11:20:59Z</time>
      </trkpt>
      <trkpt lat="45.27643" lon="5.65727">
        <ele>387.5</ele>
        <time>2011-04-27T11:21:02Z</time>
      </trkpt>
      <trkpt lat="45.27647" lon="5.65716">
        <ele>384.1</ele>
        <time>2011-04-27T11:21:05Z</time>
      </trkpt>
      <trkpt lat="45.27649" lon="5.65705">
        <ele>380.6</ele>
        <time>2011-04-27T11:21:08Z</time>
      </trkpt>
      <trkpt lat="45.27652" lon="5.65696">
        <ele>375.1</ele>
        <time>2011-04-27T11:21:12Z</time>
      </trkpt>
      <trkpt lat="45.27659" lon="5.65691">
        <ele>371.7</ele>
        <time>2011-04-27T11:21:15Z</time>
      </trkpt>
      <trkpt lat="45.27666" lon="5.65686">
        <ele>370.3</ele>
        <time>2011-04-27T11:21:17Z</time>
      </trkpt>
      <trkpt lat="45.2767" lon="5.65682">
        <ele>369.2</ele>
        <time>2011-04-27T11:21:18Z</time>
      </trkpt>
      <trkpt lat="45.27674" lon="5.65678">
        <ele>368.4</ele>
        <time>2011-04-27T11:21:19Z</time>
      </trkpt>
      <trkpt lat="45.27679" lon="5.65674">
        <ele>367.8</ele>
        <time>2011-04-27T11:21:20Z</time>
      </trkpt>
      <trkpt lat="45.27683" lon="5.65669">
        <ele>365.9</ele>
        <time>2011-04-27T11:21:21Z</time>
      </trkpt>
      <trkpt lat="45.27688" lon="5.65664">
        <ele>364.5</ele>
        <time>2011-04-27T11:21:22Z</time>
      </trkpt>
      <trkpt lat="45.27692" lon="5.65658">
        <ele>363.4</ele>
        <time>2011-04-27T11:21:23Z</time>
      </trkpt>
      <trkpt lat="45.27696" lon="5.65653">
        <ele>361.6</ele>
        <time>2011-04-27T11:21:24Z</time>
      </trkpt>
      <trkpt lat="45.27699" lon="5.65645">
        <ele>360.2</ele>
        <time>2011-04-27T11:21:25Z</time>
      </trkpt>
      <trkpt lat="45.27701" lon="5.65637">
        <ele>359.1</ele>
        <time>2011-04-27T11:21:26Z</time>
      </trkpt>
      <trkpt lat="45.27703" lon="5.65629">
        <ele>357.2</ele>
        <time>2011-04-27T11:21:27Z</time>
      </trkpt>
      <trkpt lat="45.27704" lon="5.65616">
        <ele>354.6</ele>
        <time>2011-04-27T11:21:29Z</time>
      </trkpt>
      <trkpt lat="45.27706" lon="5.65604">
        <ele>348</ele>
        <time>2011-04-27T11:21:50Z</time>
      </trkpt>
      <trkpt lat="45.27706" lon="5.65604">
        <ele>347.9</ele>
        <time>2011-04-27T11:21:51Z</time>
      </trkpt>
      <trkpt lat="45.27704" lon="5.65582">
        <ele>347.9</ele>
        <time>2011-04-27T11:21:57Z</time>
      </trkpt>
      <trkpt lat="45.27704" lon="5.65575">
        <ele>347.8</ele>
        <time>2011-04-27T11:21:58Z</time>
      </trkpt>
      <trkpt lat="45.27703" lon="5.65567">
        <ele>346.8</ele>
        <time>2011-04-27T11:21:59Z</time>
      </trkpt>
      <trkpt lat="45.27704" lon="5.6556">
        <ele>346.1</ele>
        <time>2011-04-27T11:22:00Z</time>
      </trkpt>
      <trkpt lat="45.27705" lon="5.65552">
        <ele>345.6</ele>
        <time>2011-04-27T11:22:01Z</time>
      </trkpt>
      <trkpt lat="45.27707" lon="5.65544">
        <ele>344.3</ele>
        <time>2011-04-27T11:22:02Z</time>
      </trkpt>
      <trkpt lat="45.27709" lon="5.65537">
        <ele>343.3</ele>
        <time>2011-04-27T11:22:03Z</time>
      </trkpt>
      <trkpt lat="45.27713" lon="5.65526">
        <ele>340.9</ele>
        <time>2011-04-27T11:22:05Z</time>
      </trkpt>
      <trkpt lat="45.27715" lon="5.65515">
        <ele>338.9</ele>
        <time>2011-04-27T11:22:07Z</time>
      </trkpt>
      <trkpt lat="45.27706" lon="5.65512">
        <ele>332.7</ele>
        <time>2011-04-27T11:22:12Z</time>
      </trkpt>
      <trkpt lat="45.27699" lon="5.65509">
        <ele>328.7</ele>
        <time>2011-04-27T11:22:17Z</time>
      </trkpt>
      <trkpt lat="45.27697" lon="5.655">
        <ele>327.1</ele>
        <time>2011-04-27T11:22:19Z</time>
      </trkpt>
      <trkpt lat="45.27696" lon="5.65493">
        <ele>326.6</ele>
        <time>2011-04-27T11:22:20Z</time>
      </trkpt>
      <trkpt lat="45.27696" lon="5.65484">
        <ele>325.6</ele>
        <time>2011-04-27T11:22:21Z</time>
      </trkpt>
      <trkpt lat="45.27696" lon="5.65476">
        <ele>325</ele>
        <time>2011-04-27T11:22:22Z</time>
      </trkpt>
      <trkpt lat="45.27695" lon="5.65467">
        <ele>324.4</ele>
        <time>2011-04-27T11:22:23Z</time>
      </trkpt>
      <trkpt lat="45.27695" lon="5.65458">
        <ele>322.3</ele>
        <time>2011-04-27T11:22:24Z</time>
      </trkpt>
      <trkpt lat="45.27695" lon="5.65449">
        <ele>320.7</ele>
        <time>2011-04-27T11:22:25Z</time>
      </trkpt>
      <trkpt lat="45.27695" lon="5.6544">
        <ele>319.5</ele>
        <time>2011-04-27T11:22:26Z</time>
      </trkpt>
      <trkpt lat="45.27696" lon="5.65427">
        <ele>315.8</ele>
        <time>2011-04-27T11:22:28Z</time>
      </trkpt>
      <trkpt lat="45.2769" lon="5.65418">
        <ele>311.7</ele>
        <time>2011-04-27T11:22:32Z</time>
      </trkpt>
      <trkpt lat="45.27685" lon="5.65419">
        <ele>311.1</ele>
        <time>2011-04-27T11:22:33Z</time>
      </trkpt>
      <trkpt lat="45.2768" lon="5.6542">
        <ele>310</ele>
        <time>2011-04-27T11:22:34Z</time>
      </trkpt>
      <trkpt lat="45.27676" lon="5.65424">
        <ele>309.2</ele>
        <time>2011-04-27T11:22:35Z</time>
      </trkpt>
      <trkpt lat="45.27668" lon="5.65429">
        <ele>306.8</ele>
        <time>2011-04-27T11:22:37Z</time>
      </trkpt>
      <trkpt lat="45.27663" lon="5.6542">
        <ele>304.6</ele>
        <time>2011-04-27T11:22:39Z</time>
      </trkpt>
      <trkpt lat="45.27664" lon="5.65413">
        <ele>303.2</ele>
        <time>2011-04-27T11:22:40Z</time>
      </trkpt>
      <trkpt lat="45.27665" lon="5.65405">
        <ele>302.1</ele>
        <time>2011-04-27T11:22:41Z</time>
      </trkpt>
      <trkpt lat="45.27665" lon="5.65398">
        <ele>301.3</ele>
        <time>2011-04-27T11:22:42Z</time>
      </trkpt>
      <trkpt lat="45.27666" lon="5.65389">
        <ele>300.3</ele>
        <time>2011-04-27T11:22:43Z</time>
      </trkpt>
      <trkpt lat="45.27667" lon="5.6538">
        <ele>299.6</ele>
        <time>2011-04-27T11:22:44Z</time>
      </trkpt>
      <trkpt lat="45.27668" lon="5.65372">
        <ele>299</ele>
        <time>2011-04-27T11:22:45Z</time>
      </trkpt>
      <trkpt lat="45.27669" lon="5.65365">
        <ele>297.8</ele>
        <time>2011-04-27T11:22:46Z</time>
      </trkpt>
      <trkpt lat="45.2767" lon="5.65358">
        <ele>296.9</ele>
        <time>2011-04-27T11:22:47Z</time>
      </trkpt>
      <trkpt lat="45.27673" lon="5.65347">
        <ele>295.8</ele>
        <time>2011-04-27T11:22:49Z</time>
      </trkpt>
      <trkpt lat="45.27678" lon="5.65342">
        <ele>294.5</ele>
        <time>2011-04-27T11:22:50Z</time>
      </trkpt>
      <trkpt lat="45.27683" lon="5.65337">
        <ele>293.5</ele>
        <time>2011-04-27T11:22:51Z</time>
      </trkpt>
      <trkpt lat="45.27688" lon="5.65333">
        <ele>292.7</ele>
        <time>2011-04-27T11:22:52Z</time>
      </trkpt>
      <trkpt lat="45.27695" lon="5.6533">
        <ele>291.7</ele>
        <time>2011-04-27T11:22:53Z</time>
      </trkpt>
      <trkpt lat="45.27701" lon="5.65327">
        <ele>290.9</ele>
        <time>2011-04-27T11:22:54Z</time>
      </trkpt>
      <trkpt lat="45.27707" lon="5.65324">
        <ele>290.3</ele>
        <time>2011-04-27T11:22:55Z</time>
      </trkpt>
      <trkpt lat="45.27713" lon="5.65323">
        <ele>289.6</ele>
        <time>2011-04-27T11:22:56Z</time>
      </trkpt>
      <trkpt lat="45.27719" lon="5.65324">
        <ele>289.1</ele>
        <time>2011-04-27T11:22:57Z</time>
      </trkpt>
      <trkpt lat="45.27723" lon="5.65312">
        <ele>285</ele>
        <time>2011-04-27T11:23:31Z</time>
      </trkpt>
      <trkpt lat="45.2772" lon="5.65301">
        <ele>282.2</ele>
        <time>2011-04-27T11:23:44Z</time>
      </trkpt>
      <trkpt lat="45.27713" lon="5.65293">
        <ele>281</ele>
        <time>2011-04-27T11:23:47Z</time>
      </trkpt>
      <trkpt lat="45.27706" lon="5.6529">
        <ele>280.5</ele>
        <time>2011-04-27T11:23:49Z</time>
      </trkpt>
      <trkpt lat="45.277" lon="5.65288">
        <ele>279.2</ele>
        <time>2011-04-27T11:23:51Z</time>
      </trkpt>
      <trkpt lat="45.27693" lon="5.65285">
        <ele>277.3</ele>
        <time>2011-04-27T11:23:53Z</time>
      </trkpt>
      <trkpt lat="45.27688" lon="5.65284">
        <ele>276.1</ele>
        <time>2011-04-27T11:23:54Z</time>
      </trkpt>
      <trkpt lat="45.27682" lon="5.6527">
        <ele>270.8</ele>
        <time>2011-04-27T11:24:00Z</time>
      </trkpt>
      <trkpt lat="45.2768" lon="5.65263">
        <ele>269.7</ele>
        <time>2011-04-27T11:24:03Z</time>
      </trkpt>
      <trkpt lat="45.27678" lon="5.65258">
        <ele>269.4</ele>
        <time>2011-04-27T11:24:04Z</time>
      </trkpt>
      <trkpt lat="45.27676" lon="5.65251">
        <ele>269.2</ele>
        <time>2011-04-27T11:24:05Z</time>
      </trkpt>
      <trkpt lat="45.27672" lon="5.65244">
        <ele>268.6</ele>
        <time>2011-04-27T11:24:06Z</time>
      </trkpt>
      <trkpt lat="45.27667" lon="5.65238">
        <ele>268.2</ele>
        <time>2011-04-27T11:24:07Z</time>
      </trkpt>
      <trkpt lat="45.27661" lon="5.65233">
        <ele>267.9</ele>
        <time>2011-04-27T11:24:08Z</time>
      </trkpt>
      <trkpt lat="45.27654" lon="5.65229">
        <ele>266.9</ele>
        <time>2011-04-27T11:24:09Z</time>
      </trkpt>
      <trkpt lat="45.27647" lon="5.65225">
        <ele>266.1</ele>
        <time>2011-04-27T11:24:10Z</time>
      </trkpt>
      <trkpt lat="45.27641" lon="5.65221">
        <ele>265.6</ele>
        <time>2011-04-27T11:24:11Z</time>
      </trkpt>
      <trkpt lat="45.27634" lon="5.65216">
        <ele>264.6</ele>
        <time>2011-04-27T11:24:12Z</time>
      </trkpt>
      <trkpt lat="45.27628" lon="5.6521">
        <ele>263.9</ele>
        <time>2011-04-27T11:24:13Z</time>
      </trkpt>
      <trkpt lat="45.27624" lon="5.65203">
        <ele>263.4</ele>
        <time>2011-04-27T11:24:14Z</time>
      </trkpt>
      <trkpt lat="45.2762" lon="5.65196">
        <ele>261.7</ele>
        <time>2011-04-27T11:24:15Z</time>
      </trkpt>
      <trkpt lat="45.27614" lon="5.65189">
        <ele>259.5</ele>
        <time>2011-04-27T11:24:17Z</time>
      </trkpt>
      <trkpt lat="45.27605" lon="5.65191">
        <ele>254.4</ele>
        <time>2011-04-27T11:24:44Z</time>
      </trkpt>
      <trkpt lat="45.27602" lon="5.65199">
        <ele>254.2</ele>
        <time>2011-04-27T11:24:47Z</time>
      </trkpt>
      <trkpt lat="45.27598" lon="5.65206">
        <ele>254.5</ele>
        <time>2011-04-27T11:24:49Z</time>
      </trkpt>
      <trkpt lat="45.27592" lon="5.65216">
        <ele>254.4</ele>
        <time>2011-04-27T11:24:51Z</time>
      </trkpt>
      <trkpt lat="45.27589" lon="5.65222">
        <ele>254.3</ele>
        <time>2011-04-27T11:24:52Z</time>
      </trkpt>
      <trkpt lat="45.27586" lon="5.65229">
        <ele>253.8</ele>
        <time>2011-04-27T11:24:53Z</time>
      </trkpt>
      <trkpt lat="45.27583" lon="5.65236">
        <ele>253.4</ele>
        <time>2011-04-27T11:24:54Z</time>
      </trkpt>
      <trkpt lat="45.2758" lon="5.65244">
        <ele>253.2</ele>
        <time>2011-04-27T11:24:55Z</time>
      </trkpt>
      <trkpt lat="45.27576" lon="5.65253">
        <ele>252.9</ele>
        <time>2011-04-27T11:24:56Z</time>
      </trkpt>
      <trkpt lat="45.27572" lon="5.65262">
        <ele>252.5</ele>
        <time>2011-04-27T11:24:57Z</time>
      </trkpt>
      <trkpt lat="45.27568" lon="5.65272">
        <ele>252.2</ele>
        <time>2011-04-27T11:24:58Z</time>
      </trkpt>
      <trkpt lat="45.27563" lon="5.65283">
        <ele>252</ele>
        <time>2011-04-27T11:24:59Z</time>
      </trkpt>
      <trkpt lat="45.27557" lon="5.65293">
        <ele>251.3</ele>
        <time>2011-04-27T11:25:00Z</time>
      </trkpt>
      <trkpt lat="45.2755" lon="5.65302">
        <ele>250.7</ele>
        <time>2011-04-27T11:25:01Z</time>
      </trkpt>
      <trkpt lat="45.27542" lon="5.65308">
        <ele>250.3</ele>
        <time>2011-04-27T11:25:02Z</time>
      </trkpt>
      <trkpt lat="45.27533" lon="5.6531">
        <ele>248.8</ele>
        <time>2011-04-27T11:25:03Z</time>
      </trkpt>
      <trkpt lat="45.27524" lon="5.65314">
        <ele>247.7</ele>
        <time>2011-04-27T11:25:04Z</time>
      </trkpt>
      <trkpt lat="45.27515" lon="5.65321">
        <ele>246.8</ele>
        <time>2011-04-27T11:25:05Z</time>
      </trkpt>
      <trkpt lat="45.27507" lon="5.65329">
        <ele>245.9</ele>
        <time>2011-04-27T11:25:06Z</time>
      </trkpt>
      <trkpt lat="45.27499" lon="5.65339">
        <ele>245.3</ele>
        <time>2011-04-27T11:25:07Z</time>
      </trkpt>
      <trkpt lat="45.2749" lon="5.65349">
        <ele>244.8</ele>
        <time>2011-04-27T11:25:08Z</time>
      </trkpt>
      <trkpt lat="45.27482" lon="5.6536">
        <ele>243.6</ele>
        <time>2011-04-27T11:25:09Z</time>
      </trkpt>
      <trkpt lat="45.27475" lon="5.65371">
        <ele>242.8</ele>
        <time>2011-04-27T11:25:10Z</time>
      </trkpt>
      <trkpt lat="45.27468" lon="5.65381">
        <ele>242.2</ele>
        <time>2011-04-27T11:25:11Z</time>
      </trkpt>
      <trkpt lat="45.2746" lon="5.65389">
        <ele>241.3</ele>
        <time>2011-04-27T11:25:12Z</time>
      </trkpt>
      <trkpt lat="45.27452" lon="5.65395">
        <ele>240.6</ele>
        <time>2011-04-27T11:25:13Z</time>
      </trkpt>
      <trkpt lat="45.27445" lon="5.654">
        <ele>240.1</ele>
        <time>2011-04-27T11:25:14Z</time>
      </trkpt>
      <trkpt lat="45.27437" lon="5.65404">
        <ele>239.7</ele>
        <time>2011-04-27T11:25:15Z</time>
      </trkpt>
      <trkpt lat="45.2743" lon="5.65407">
        <ele>239.4</ele>
        <time>2011-04-27T11:25:16Z</time>
      </trkpt>
      <trkpt lat="45.27424" lon="5.65409">
        <ele>239.2</ele>
        <time>2011-04-27T11:25:17Z</time>
      </trkpt>
      <trkpt lat="45.27418" lon="5.65411">
        <ele>239.1</ele>
        <time>2011-04-27T11:25:18Z</time>
      </trkpt>
      <trkpt lat="45.27413" lon="5.65414">
        <ele>238.9</ele>
        <time>2011-04-27T11:25:19Z</time>
      </trkpt>
      <trkpt lat="45.27409" lon="5.65418">
        <ele>238.7</ele>
        <time>2011-04-27T11:25:20Z</time>
      </trkpt>
      <trkpt lat="45.27405" lon="5.65427">
        <ele>238.4</ele>
        <time>2011-04-27T11:25:22Z</time>
      </trkpt>
      <trkpt lat="45.27405" lon="5.65439">
        <ele>238.3</ele>
        <time>2011-04-27T11:25:25Z</time>
      </trkpt>
      <trkpt lat="45.27409" lon="5.65449">
        <ele>239.4</ele>
        <time>2011-04-27T11:25:28Z</time>
      </trkpt>
      <trkpt lat="45.27413" lon="5.65459">
        <ele>240.8</ele>
        <time>2011-04-27T11:25:31Z</time>
      </trkpt>
      <trkpt lat="45.27416" lon="5.6547">
        <ele>241.2</ele>
        <time>2011-04-27T11:25:34Z</time>
      </trkpt>
      <trkpt lat="45.27419" lon="5.65478">
        <ele>241.9</ele>
        <time>2011-04-27T11:25:36Z</time>
      </trkpt>
      <trkpt lat="45.27421" lon="5.65487">
        <ele>242.5</ele>
        <time>2011-04-27T11:25:38Z</time>
      </trkpt>
      <trkpt lat="45.27423" lon="5.65498">
        <ele>243.9</ele>
        <time>2011-04-27T11:25:41Z</time>
      </trkpt>
      <trkpt lat="45.27426" lon="5.65511">
        <ele>245.3</ele>
        <time>2011-04-27T11:25:46Z</time>
      </trkpt>
      <trkpt lat="45.2742" lon="5.65516">
        <ele>244.1</ele>
        <time>2011-04-27T11:25:49Z</time>
      </trkpt>
      <trkpt lat="45.27413" lon="5.65523">
        <ele>244.4</ele>
        <time>2011-04-27T11:25:52Z</time>
      </trkpt>
      <trkpt lat="45.27406" lon="5.65529">
        <ele>244.8</ele>
        <time>2011-04-27T11:25:55Z</time>
      </trkpt>
      <trkpt lat="45.27404" lon="5.65532">
        <ele>244.8</ele>
        <time>2011-04-27T11:25:56Z</time>
      </trkpt>
      <trkpt lat="45.27393" lon="5.65543">
        <ele>245.4</ele>
        <time>2011-04-27T11:26:01Z</time>
      </trkpt>
      <trkpt lat="45.27388" lon="5.65551">
        <ele>245.1</ele>
        <time>2011-04-27T11:26:04Z</time>
      </trkpt>
      <trkpt lat="45.27384" lon="5.6556">
        <ele>246.2</ele>
        <time>2011-04-27T11:26:07Z</time>
      </trkpt>
      <trkpt lat="45.27382" lon="5.65572">
        <ele>247.3</ele>
        <time>2011-04-27T11:26:11Z</time>
      </trkpt>
      <trkpt lat="45.2738" lon="5.65582">
        <ele>248.4</ele>
        <time>2011-04-27T11:26:15Z</time>
      </trkpt>
      <trkpt lat="45.27383" lon="5.65593">
        <ele>249.8</ele>
        <time>2011-04-27T11:26:20Z</time>
      </trkpt>
      <trkpt lat="45.27387" lon="5.65604">
        <ele>252</ele>
        <time>2011-04-27T11:26:25Z</time>
      </trkpt>
      <trkpt lat="45.27391" lon="5.65613">
        <ele>254</ele>
        <time>2011-04-27T11:26:30Z</time>
      </trkpt>
      <trkpt lat="45.27398" lon="5.6562">
        <ele>255.6</ele>
        <time>2011-04-27T11:26:38Z</time>
      </trkpt>
      <trkpt lat="45.27407" lon="5.65621">
        <ele>259.9</ele>
        <time>2011-04-27T11:27:10Z</time>
      </trkpt>
      <trkpt lat="45.27407" lon="5.65621">
        <ele>260.4</ele>
        <time>2011-04-27T11:27:11Z</time>
      </trkpt>
      <trkpt lat="45.27412" lon="5.65642">
        <ele>266.7</ele>
        <time>2011-04-27T11:27:43Z</time>
      </trkpt>
      <trkpt lat="45.2741" lon="5.65654">
        <ele>269.8</ele>
        <time>2011-04-27T11:27:58Z</time>
      </trkpt>
      <trkpt lat="45.27407" lon="5.65666">
        <ele>272.6</ele>
        <time>2011-04-27T11:28:09Z</time>
      </trkpt>
      <trkpt lat="45.27404" lon="5.65677">
        <ele>273.3</ele>
        <time>2011-04-27T11:28:19Z</time>
      </trkpt>
      <trkpt lat="45.27403" lon="5.65678">
        <ele>273.7</ele>
        <time>2011-04-27T11:28:20Z</time>
      </trkpt>
      <trkpt lat="45.27397" lon="5.65698">
        <ele>277.9</ele>
        <time>2011-04-27T11:28:41Z</time>
      </trkpt>
      <trkpt lat="45.27393" lon="5.65707">
        <ele>279.5</ele>
        <time>2011-04-27T11:28:46Z</time>
      </trkpt>
      <trkpt lat="45.27387" lon="5.65715">
        <ele>280.1</ele>
        <time>2011-04-27T11:28:51Z</time>
      </trkpt>
      <trkpt lat="45.27382" lon="5.65724">
        <ele>280.8</ele>
        <time>2011-04-27T11:28:56Z</time>
      </trkpt>
      <trkpt lat="45.27376" lon="5.65731">
        <ele>281.4</ele>
        <time>2011-04-27T11:29:00Z</time>
      </trkpt>
      <trkpt lat="45.2737" lon="5.65738">
        <ele>282.7</ele>
        <time>2011-04-27T11:29:04Z</time>
      </trkpt>
      <trkpt lat="45.27364" lon="5.65747">
        <ele>283.4</ele>
        <time>2011-04-27T11:29:08Z</time>
      </trkpt>
      <trkpt lat="45.27357" lon="5.65753">
        <ele>283</ele>
        <time>2011-04-27T11:29:12Z</time>
      </trkpt>
      <trkpt lat="45.2735" lon="5.65757">
        <ele>282.8</ele>
        <time>2011-04-27T11:29:16Z</time>
      </trkpt>
      <trkpt lat="45.27343" lon="5.65762">
        <ele>284</ele>
        <time>2011-04-27T11:29:21Z</time>
      </trkpt>
      <trkpt lat="45.27341" lon="5.65763">
        <ele>284.2</ele>
        <time>2011-04-27T11:29:22Z</time>
      </trkpt>
      <trkpt lat="45.27326" lon="5.65769">
        <ele>287</ele>
        <time>2011-04-27T11:29:42Z</time>
      </trkpt>
      <trkpt lat="45.27317" lon="5.65769">
        <ele>289.5</ele>
        <time>2011-04-27T11:29:54Z</time>
      </trkpt>
      <trkpt lat="45.2731" lon="5.65771">
        <ele>289.4</ele>
        <time>2011-04-27T11:29:58Z</time>
      </trkpt>
      <trkpt lat="45.27303" lon="5.65774">
        <ele>289.8</ele>
        <time>2011-04-27T11:30:02Z</time>
      </trkpt>
      <trkpt lat="45.27294" lon="5.65776">
        <ele>289.8</ele>
        <time>2011-04-27T11:30:06Z</time>
      </trkpt>
      <trkpt lat="45.27286" lon="5.65777">
        <ele>289.7</ele>
        <time>2011-04-27T11:30:10Z</time>
      </trkpt>
      <trkpt lat="45.27278" lon="5.65778">
        <ele>290.7</ele>
        <time>2011-04-27T11:30:14Z</time>
      </trkpt>
      <trkpt lat="45.27271" lon="5.6578">
        <ele>291.3</ele>
        <time>2011-04-27T11:30:17Z</time>
      </trkpt>
      <trkpt lat="45.27263" lon="5.65785">
        <ele>292.1</ele>
        <time>2011-04-27T11:30:21Z</time>
      </trkpt>
      <trkpt lat="45.27255" lon="5.65789">
        <ele>292.9</ele>
        <time>2011-04-27T11:30:25Z</time>
      </trkpt>
      <trkpt lat="45.27253" lon="5.6579">
        <ele>293</ele>
        <time>2011-04-27T11:30:26Z</time>
      </trkpt>
      <trkpt lat="45.2724" lon="5.65796">
        <ele>293.4</ele>
        <time>2011-04-27T11:30:33Z</time>
      </trkpt>
      <trkpt lat="45.27233" lon="5.65801">
        <ele>294.3</ele>
        <time>2011-04-27T11:30:37Z</time>
      </trkpt>
      <trkpt lat="45.27226" lon="5.65805">
        <ele>296.1</ele>
        <time>2011-04-27T11:30:41Z</time>
      </trkpt>
      <trkpt lat="45.27218" lon="5.6581">
        <ele>296.5</ele>
        <time>2011-04-27T11:30:45Z</time>
      </trkpt>
      <trkpt lat="45.27211" lon="5.65815">
        <ele>297.4</ele>
        <time>2011-04-27T11:30:49Z</time>
      </trkpt>
      <trkpt lat="45.27203" lon="5.65819">
        <ele>298.7</ele>
        <time>2011-04-27T11:30:54Z</time>
      </trkpt>
      <trkpt lat="45.27196" lon="5.65823">
        <ele>300.1</ele>
        <time>2011-04-27T11:30:59Z</time>
      </trkpt>
      <trkpt lat="45.27188" lon="5.65826">
        <ele>301.3</ele>
        <time>2011-04-27T11:31:05Z</time>
      </trkpt>
      <trkpt lat="45.27179" lon="5.65828">
        <ele>303.2</ele>
        <time>2011-04-27T11:31:11Z</time>
      </trkpt>
      <trkpt lat="45.2717" lon="5.6583">
        <ele>305.7</ele>
        <time>2011-04-27T11:31:17Z</time>
      </trkpt>
      <trkpt lat="45.27162" lon="5.65835">
        <ele>305.9</ele>
        <time>2011-04-27T11:31:23Z</time>
      </trkpt>
      <trkpt lat="45.27156" lon="5.65843">
        <ele>307.8</ele>
        <time>2011-04-27T11:31:33Z</time>
      </trkpt>
      <trkpt lat="45.27155" lon="5.65844">
        <ele>308.1</ele>
        <time>2011-04-27T11:31:34Z</time>
      </trkpt>
      <trkpt lat="45.27148" lon="5.65865">
        <ele>312.1</ele>
        <time>2011-04-27T11:31:50Z</time>
      </trkpt>
      <trkpt lat="45.27145" lon="5.65876">
        <ele>313.8</ele>
        <time>2011-04-27T11:31:59Z</time>
      </trkpt>
      <trkpt lat="45.2714" lon="5.65886">
        <ele>314.6</ele>
        <time>2011-04-27T11:32:09Z</time>
      </trkpt>
      <trkpt lat="45.27133" lon="5.65893">
        <ele>318.1</ele>
        <time>2011-04-27T11:32:23Z</time>
      </trkpt>
      <trkpt lat="45.27124" lon="5.65897">
        <ele>321</ele>
        <time>2011-04-27T11:32:38Z</time>
      </trkpt>
      <trkpt lat="45.27123" lon="5.65897">
        <ele>321.2</ele>
        <time>2011-04-27T11:32:39Z</time>
      </trkpt>
      <trkpt lat="45.27107" lon="5.65899">
        <ele>325.3</ele>
        <time>2011-04-27T11:32:57Z</time>
      </trkpt>
      <trkpt lat="45.27106" lon="5.65899">
        <ele>325.4</ele>
        <time>2011-04-27T11:32:58Z</time>
      </trkpt>
      <trkpt lat="45.27095" lon="5.65897">
        <ele>326.3</ele>
        <time>2011-04-27T11:33:10Z</time>
      </trkpt>
      <trkpt lat="45.27086" lon="5.65901">
        <ele>328.8</ele>
        <time>2011-04-27T11:33:19Z</time>
      </trkpt>
      <trkpt lat="45.27078" lon="5.65904">
        <ele>330.8</ele>
        <time>2011-04-27T11:33:27Z</time>
      </trkpt>
      <trkpt lat="45.2707" lon="5.65906">
        <ele>331.2</ele>
        <time>2011-04-27T11:33:35Z</time>
      </trkpt>
      <trkpt lat="45.27062" lon="5.65909">
        <ele>333.6</ele>
        <time>2011-04-27T11:33:44Z</time>
      </trkpt>
      <trkpt lat="45.27061" lon="5.6591">
        <ele>333.9</ele>
        <time>2011-04-27T11:33:45Z</time>
      </trkpt>
      <trkpt lat="45.27046" lon="5.65918">
        <ele>337.9</ele>
        <time>2011-04-27T11:34:02Z</time>
      </trkpt>
      <trkpt lat="45.27038" lon="5.65924">
        <ele>339.6</ele>
        <time>2011-04-27T11:34:12Z</time>
      </trkpt>
      <trkpt lat="45.27031" lon="5.65931">
        <ele>342.7</ele>
        <time>2011-04-27T11:34:22Z</time>
      </trkpt>
      <trkpt lat="45.27026" lon="5.65941">
        <ele>344.4</ele>
        <time>2011-04-27T11:34:30Z</time>
      </trkpt>
      <trkpt lat="45.27021" lon="5.6595">
        <ele>345.6</ele>
        <time>2011-04-27T11:34:38Z</time>
      </trkpt>
      <trkpt lat="45.27018" lon="5.65961">
        <ele>346.7</ele>
        <time>2011-04-27T11:34:47Z</time>
      </trkpt>
      <trkpt lat="45.27017" lon="5.65962">
        <ele>347</ele>
        <time>2011-04-27T11:34:48Z</time>
      </trkpt>
      <trkpt lat="45.27013" lon="5.65983">
        <ele>353.2</ele>
        <time>2011-04-27T11:35:13Z</time>
      </trkpt>
      <trkpt lat="45.27013" lon="5.65995">
        <ele>356.1</ele>
        <time>2011-04-27T11:35:27Z</time>
      </trkpt>
      <trkpt lat="45.2701" lon="5.66006">
        <ele>358.5</ele>
        <time>2011-04-27T11:35:42Z</time>
      </trkpt>
      <trkpt lat="45.2701" lon="5.66019">
        <ele>362.6</ele>
        <time>2011-04-27T11:36:06Z</time>
      </trkpt>
      <trkpt lat="45.2701" lon="5.66019">
        <ele>362.5</ele>
        <time>2011-04-27T11:36:07Z</time>
      </trkpt>
      <trkpt lat="45.27002" lon="5.66028">
        <ele>364.9</ele>
        <time>2011-04-27T11:39:14Z</time>
      </trkpt>
      <trkpt lat="45.2699" lon="5.66022">
        <ele>356.9</ele>
        <time>2011-04-27T11:39:36Z</time>
      </trkpt>
      <trkpt lat="45.26985" lon="5.66016">
        <ele>356.2</ele>
        <time>2011-04-27T11:39:39Z</time>
      </trkpt>
      <trkpt lat="45.26978" lon="5.66011">
        <ele>354.8</ele>
        <time>2011-04-27T11:39:42Z</time>
      </trkpt>
      <trkpt lat="45.26971" lon="5.66008">
        <ele>353.7</ele>
        <time>2011-04-27T11:39:44Z</time>
      </trkpt>
      <trkpt lat="45.26964" lon="5.66005">
        <ele>351.6</ele>
        <time>2011-04-27T11:39:46Z</time>
      </trkpt>
      <trkpt lat="45.26959" lon="5.66003">
        <ele>351</ele>
        <time>2011-04-27T11:39:47Z</time>
      </trkpt>
      <trkpt lat="45.26954" lon="5.66001">
        <ele>349.2</ele>
        <time>2011-04-27T11:39:48Z</time>
      </trkpt>
      <trkpt lat="45.26949" lon="5.66001">
        <ele>347.9</ele>
        <time>2011-04-27T11:39:49Z</time>
      </trkpt>
      <trkpt lat="45.26945" lon="5.66">
        <ele>346.9</ele>
        <time>2011-04-27T11:39:50Z</time>
      </trkpt>
      <trkpt lat="45.26937" lon="5.65997">
        <ele>344.5</ele>
        <time>2011-04-27T11:39:52Z</time>
      </trkpt>
      <trkpt lat="45.2693" lon="5.65992">
        <ele>342.2</ele>
        <time>2011-04-27T11:39:54Z</time>
      </trkpt>
      <trkpt lat="45.26926" lon="5.65986">
        <ele>340.7</ele>
        <time>2011-04-27T11:39:55Z</time>
      </trkpt>
      <trkpt lat="45.26921" lon="5.65981">
        <ele>339.5</ele>
        <time>2011-04-27T11:39:56Z</time>
      </trkpt>
      <trkpt lat="45.26916" lon="5.65979">
        <ele>338.6</ele>
        <time>2011-04-27T11:39:57Z</time>
      </trkpt>
      <trkpt lat="45.26911" lon="5.65977">
        <ele>336.4</ele>
        <time>2011-04-27T11:39:58Z</time>
      </trkpt>
      <trkpt lat="45.26906" lon="5.65975">
        <ele>334.8</ele>
        <time>2011-04-27T11:39:59Z</time>
      </trkpt>
      <trkpt lat="45.26901" lon="5.65974">
        <ele>333.6</ele>
        <time>2011-04-27T11:40:00Z</time>
      </trkpt>
      <trkpt lat="45.26897" lon="5.65972">
        <ele>331.4</ele>
        <time>2011-04-27T11:40:01Z</time>
      </trkpt>
      <trkpt lat="45.26892" lon="5.65969">
        <ele>329.7</ele>
        <time>2011-04-27T11:40:02Z</time>
      </trkpt>
      <trkpt lat="45.26887" lon="5.65967">
        <ele>328.5</ele>
        <time>2011-04-27T11:40:03Z</time>
      </trkpt>
      <trkpt lat="45.26881" lon="5.65963">
        <ele>326.8</ele>
        <time>2011-04-27T11:40:04Z</time>
      </trkpt>
      <trkpt lat="45.26876" lon="5.6596">
        <ele>325.5</ele>
        <time>2011-04-27T11:40:05Z</time>
      </trkpt>
      <trkpt lat="45.2687" lon="5.65958">
        <ele>324.5</ele>
        <time>2011-04-27T11:40:06Z</time>
      </trkpt>
      <trkpt lat="45.26865" lon="5.65956">
        <ele>322.8</ele>
        <time>2011-04-27T11:40:07Z</time>
      </trkpt>
      <trkpt lat="45.26859" lon="5.65955">
        <ele>321.5</ele>
        <time>2011-04-27T11:40:08Z</time>
      </trkpt>
      <trkpt lat="45.26854" lon="5.65954">
        <ele>320.5</ele>
        <time>2011-04-27T11:40:09Z</time>
      </trkpt>
      <trkpt lat="45.2685" lon="5.65952">
        <ele>319.7</ele>
        <time>2011-04-27T11:40:10Z</time>
      </trkpt>
      <trkpt lat="45.26841" lon="5.6595">
        <ele>316.5</ele>
        <time>2011-04-27T11:40:12Z</time>
      </trkpt>
      <trkpt lat="45.26834" lon="5.65948">
        <ele>313.5</ele>
        <time>2011-04-27T11:40:14Z</time>
      </trkpt>
      <trkpt lat="45.2683" lon="5.65945">
        <ele>311.9</ele>
        <time>2011-04-27T11:40:15Z</time>
      </trkpt>
      <trkpt lat="45.26825" lon="5.65942">
        <ele>310.8</ele>
        <time>2011-04-27T11:40:16Z</time>
      </trkpt>
      <trkpt lat="45.2682" lon="5.65938">
        <ele>309</ele>
        <time>2011-04-27T11:40:17Z</time>
      </trkpt>
      <trkpt lat="45.26815" lon="5.65934">
        <ele>307.6</ele>
        <time>2011-04-27T11:40:18Z</time>
      </trkpt>
      <trkpt lat="45.2681" lon="5.65928">
        <ele>306.6</ele>
        <time>2011-04-27T11:40:19Z</time>
      </trkpt>
      <trkpt lat="45.26805" lon="5.65923">
        <ele>304.6</ele>
        <time>2011-04-27T11:40:20Z</time>
      </trkpt>
      <trkpt lat="45.268" lon="5.65917">
        <ele>303.2</ele>
        <time>2011-04-27T11:40:21Z</time>
      </trkpt>
      <trkpt lat="45.26795" lon="5.65912">
        <ele>302</ele>
        <time>2011-04-27T11:40:22Z</time>
      </trkpt>
      <trkpt lat="45.26789" lon="5.65909">
        <ele>299.6</ele>
        <time>2011-04-27T11:40:23Z</time>
      </trkpt>
      <trkpt lat="45.26783" lon="5.65904">
        <ele>297.8</ele>
        <time>2011-04-27T11:40:24Z</time>
      </trkpt>
      <trkpt lat="45.26776" lon="5.65899">
        <ele>296.5</ele>
        <time>2011-04-27T11:40:25Z</time>
      </trkpt>
      <trkpt lat="45.2677" lon="5.65895">
        <ele>294.7</ele>
        <time>2011-04-27T11:40:26Z</time>
      </trkpt>
      <trkpt lat="45.26764" lon="5.65892">
        <ele>293.4</ele>
        <time>2011-04-27T11:40:27Z</time>
      </trkpt>
      <trkpt lat="45.26758" lon="5.6589">
        <ele>292.4</ele>
        <time>2011-04-27T11:40:28Z</time>
      </trkpt>
      <trkpt lat="45.26753" lon="5.65887">
        <ele>291.7</ele>
        <time>2011-04-27T11:40:29Z</time>
      </trkpt>
      <trkpt lat="45.26746" lon="5.65884">
        <ele>289.7</ele>
        <time>2011-04-27T11:40:30Z</time>
      </trkpt>
      <trkpt lat="45.26739" lon="5.65882">
        <ele>288.3</ele>
        <time>2011-04-27T11:40:31Z</time>
      </trkpt>
      <trkpt lat="45.26731" lon="5.65879">
        <ele>287.2</ele>
        <time>2011-04-27T11:40:32Z</time>
      </trkpt>
      <trkpt lat="45.26724" lon="5.65877">
        <ele>285.7</ele>
        <time>2011-04-27T11:40:33Z</time>
      </trkpt>
      <trkpt lat="45.26718" lon="5.65876">
        <ele>284.6</ele>
        <time>2011-04-27T11:40:34Z</time>
      </trkpt>
      <trkpt lat="45.26712" lon="5.65876">
        <ele>283.7</ele>
        <time>2011-04-27T11:40:35Z</time>
      </trkpt>
      <trkpt lat="45.26706" lon="5.65877">
        <ele>281.9</ele>
        <time>2011-04-27T11:40:36Z</time>
      </trkpt>
      <trkpt lat="45.267" lon="5.65878">
        <ele>280.6</ele>
        <time>2011-04-27T11:40:37Z</time>
      </trkpt>
      <trkpt lat="45.26692" lon="5.65876">
        <ele>277.9</ele>
        <time>2011-04-27T11:40:39Z</time>
      </trkpt>
      <trkpt lat="45.26686" lon="5.65875">
        <ele>275.7</ele>
        <time>2011-04-27T11:40:41Z</time>
      </trkpt>
      <trkpt lat="45.26679" lon="5.65874">
        <ele>272.7</ele>
        <time>2011-04-27T11:40:43Z</time>
      </trkpt>
      <trkpt lat="45.26671" lon="5.65878">
        <ele>264.5</ele>
        <time>2011-04-27T11:40:54Z</time>
      </trkpt>
      <trkpt lat="45.26668" lon="5.6589">
        <ele>264.7</ele>
        <time>2011-04-27T11:41:09Z</time>
      </trkpt>
      <trkpt lat="45.26662" lon="5.65885">
        <ele>264.5</ele>
        <time>2011-04-27T11:41:14Z</time>
      </trkpt>
      <trkpt lat="45.26656" lon="5.65881">
        <ele>264.1</ele>
        <time>2011-04-27T11:41:16Z</time>
      </trkpt>
      <trkpt lat="45.26653" lon="5.65879">
        <ele>262.7</ele>
        <time>2011-04-27T11:41:17Z</time>
      </trkpt>
      <trkpt lat="45.26644" lon="5.65876">
        <ele>260.9</ele>
        <time>2011-04-27T11:41:19Z</time>
      </trkpt>
      <trkpt lat="45.26636" lon="5.65873">
        <ele>257.4</ele>
        <time>2011-04-27T11:41:21Z</time>
      </trkpt>
      <trkpt lat="45.2663" lon="5.6587">
        <ele>255.4</ele>
        <time>2011-04-27T11:41:23Z</time>
      </trkpt>
      <trkpt lat="45.26621" lon="5.65869">
        <ele>252.4</ele>
        <time>2011-04-27T11:41:25Z</time>
      </trkpt>
      <trkpt lat="45.26614" lon="5.65862">
        <ele>249</ele>
        <time>2011-04-27T11:41:27Z</time>
      </trkpt>
      <trkpt lat="45.26609" lon="5.65851">
        <ele>245.8</ele>
        <time>2011-04-27T11:41:29Z</time>
      </trkpt>
      <trkpt lat="45.26605" lon="5.65841">
        <ele>236.1</ele>
        <time>2011-04-27T11:41:35Z</time>
      </trkpt>
      <trkpt lat="45.26597" lon="5.65834">
        <ele>230.4</ele>
        <time>2011-04-27T11:41:47Z</time>
      </trkpt>
      <trkpt lat="45.2659" lon="5.65829">
        <ele>230.5</ele>
        <time>2011-04-27T11:42:17Z</time>
      </trkpt>
      <trkpt lat="45.26589" lon="5.65829">
        <ele>230.5</ele>
        <time>2011-04-27T11:42:18Z</time>
      </trkpt>
      <trkpt lat="45.26574" lon="5.65823">
        <ele>229.8</ele>
        <time>2011-04-27T11:43:52Z</time>
      </trkpt>
      <trkpt lat="45.26573" lon="5.65824">
        <ele>230</ele>
        <time>2011-04-27T11:43:53Z</time>
      </trkpt>
      <trkpt lat="45.26572" lon="5.65824">
        <ele>230.1</ele>
        <time>2011-04-27T11:44:33Z</time>
      </trkpt>
      <trkpt lat="45.26564" lon="5.6583">
        <ele>230.4</ele>
        <time>2011-04-27T11:44:57Z</time>
      </trkpt>
      <trkpt lat="45.26561" lon="5.65831">
        <ele>230.4</ele>
        <time>2011-04-27T11:44:58Z</time>
      </trkpt>
      <trkpt lat="45.26551" lon="5.65833">
        <ele>229.5</ele>
        <time>2011-04-27T11:45:01Z</time>
      </trkpt>
      <trkpt lat="45.26543" lon="5.65832">
        <ele>229.4</ele>
        <time>2011-04-27T11:45:03Z</time>
      </trkpt>
      <trkpt lat="45.26536" lon="5.6583">
        <ele>229.4</ele>
        <time>2011-04-27T11:45:05Z</time>
      </trkpt>
      <trkpt lat="45.26529" lon="5.65826">
        <ele>229.2</ele>
        <time>2011-04-27T11:45:07Z</time>
      </trkpt>
      <trkpt lat="45.26523" lon="5.65823">
        <ele>228.8</ele>
        <time>2011-04-27T11:45:09Z</time>
      </trkpt>
      <trkpt lat="45.26516" lon="5.65822">
        <ele>228.3</ele>
        <time>2011-04-27T11:45:11Z</time>
      </trkpt>
      <trkpt lat="45.2651" lon="5.65822">
        <ele>229.3</ele>
        <time>2011-04-27T11:45:13Z</time>
      </trkpt>
      <trkpt lat="45.26503" lon="5.65822">
        <ele>229.4</ele>
        <time>2011-04-27T11:45:15Z</time>
      </trkpt>
      <trkpt lat="45.26497" lon="5.65823">
        <ele>229.2</ele>
        <time>2011-04-27T11:45:17Z</time>
      </trkpt>
      <trkpt lat="45.2649" lon="5.65823">
        <ele>229.3</ele>
        <time>2011-04-27T11:45:19Z</time>
      </trkpt>
      <trkpt lat="45.26483" lon="5.65824">
        <ele>229.5</ele>
        <time>2011-04-27T11:45:21Z</time>
      </trkpt>
      <trkpt lat="45.26476" lon="5.65825">
        <ele>229.9</ele>
        <time>2011-04-27T11:45:23Z</time>
      </trkpt>
      <trkpt lat="45.26469" lon="5.65824">
        <ele>229.7</ele>
        <time>2011-04-27T11:45:25Z</time>
      </trkpt>
      <trkpt lat="45.26461" lon="5.65824">
        <ele>229.2</ele>
        <time>2011-04-27T11:45:27Z</time>
      </trkpt>
      <trkpt lat="45.26453" lon="5.65823">
        <ele>229.8</ele>
        <time>2011-04-27T11:45:29Z</time>
      </trkpt>
      <trkpt lat="45.26446" lon="5.65821">
        <ele>230.1</ele>
        <time>2011-04-27T11:45:31Z</time>
      </trkpt>
      <trkpt lat="45.26437" lon="5.65819">
        <ele>230.1</ele>
        <time>2011-04-27T11:45:33Z</time>
      </trkpt>
      <trkpt lat="45.26429" lon="5.65817">
        <ele>229.7</ele>
        <time>2011-04-27T11:45:35Z</time>
      </trkpt>
      <trkpt lat="45.2642" lon="5.65818">
        <ele>230</ele>
        <time>2011-04-27T11:45:37Z</time>
      </trkpt>
      <trkpt lat="45.26411" lon="5.65817">
        <ele>230.6</ele>
        <time>2011-04-27T11:45:39Z</time>
      </trkpt>
      <trkpt lat="45.26406" lon="5.65816">
        <ele>230.7</ele>
        <time>2011-04-27T11:45:40Z</time>
      </trkpt>
      <trkpt lat="45.26402" lon="5.65815">
        <ele>230.7</ele>
        <time>2011-04-27T11:45:41Z</time>
      </trkpt>
      <trkpt lat="45.26397" lon="5.65815">
        <ele>230.6</ele>
        <time>2011-04-27T11:45:42Z</time>
      </trkpt>
      <trkpt lat="45.26391" lon="5.65816">
        <ele>230.6</ele>
        <time>2011-04-27T11:45:43Z</time>
      </trkpt>
      <trkpt lat="45.26386" lon="5.65816">
        <ele>230.6</ele>
        <time>2011-04-27T11:45:44Z</time>
      </trkpt>
      <trkpt lat="45.26381" lon="5.65817">
        <ele>230.6</ele>
        <time>2011-04-27T11:45:45Z</time>
      </trkpt>
      <trkpt lat="45.26376" lon="5.65818">
        <ele>230.6</ele>
        <time>2011-04-27T11:45:46Z</time>
      </trkpt>
      <trkpt lat="45.26371" lon="5.6582">
        <ele>230.6</ele>
        <time>2011-04-27T11:45:47Z</time>
      </trkpt>
      <trkpt lat="45.26363" lon="5.65824">
        <ele>230.6</ele>
        <time>2011-04-27T11:45:49Z</time>
      </trkpt>
      <trkpt lat="45.26358" lon="5.65826">
        <ele>230.7</ele>
        <time>2011-04-27T11:45:50Z</time>
      </trkpt>
      <trkpt lat="45.26354" lon="5.65828">
        <ele>230.9</ele>
        <time>2011-04-27T11:45:51Z</time>
      </trkpt>
      <trkpt lat="45.26349" lon="5.6583">
        <ele>231</ele>
        <time>2011-04-27T11:45:52Z</time>
      </trkpt>
      <trkpt lat="45.26344" lon="5.65832">
        <ele>231.4</ele>
        <time>2011-04-27T11:45:53Z</time>
      </trkpt>
      <trkpt lat="45.2634" lon="5.65834">
        <ele>231.6</ele>
        <time>2011-04-27T11:45:54Z</time>
      </trkpt>
      <trkpt lat="45.26335" lon="5.65836">
        <ele>231.8</ele>
        <time>2011-04-27T11:45:55Z</time>
      </trkpt>
      <trkpt lat="45.26331" lon="5.65837">
        <ele>232</ele>
        <time>2011-04-27T11:45:56Z</time>
      </trkpt>
      <trkpt lat="45.26326" lon="5.6584">
        <ele>231.9</ele>
        <time>2011-04-27T11:45:57Z</time>
      </trkpt>
      <trkpt lat="45.26322" lon="5.65842">
        <ele>231.8</ele>
        <time>2011-04-27T11:45:58Z</time>
      </trkpt>
      <trkpt lat="45.26317" lon="5.65844">
        <ele>231.7</ele>
        <time>2011-04-27T11:45:59Z</time>
      </trkpt>
      <trkpt lat="45.26312" lon="5.65847">
        <ele>231.9</ele>
        <time>2011-04-27T11:46:00Z</time>
      </trkpt>
      <trkpt lat="45.26307" lon="5.65849">
        <ele>232</ele>
        <time>2011-04-27T11:46:01Z</time>
      </trkpt>
      <trkpt lat="45.26301" lon="5.65851">
        <ele>232.1</ele>
        <time>2011-04-27T11:46:02Z</time>
      </trkpt>
      <trkpt lat="45.26296" lon="5.65853">
        <ele>232.3</ele>
        <time>2011-04-27T11:46:03Z</time>
      </trkpt>
      <trkpt lat="45.2629" lon="5.65855">
        <ele>232.5</ele>
        <time>2011-04-27T11:46:04Z</time>
      </trkpt>
      <trkpt lat="45.26284" lon="5.65856">
        <ele>232.6</ele>
        <time>2011-04-27T11:46:05Z</time>
      </trkpt>
      <trkpt lat="45.26278" lon="5.65858">
        <ele>232.2</ele>
        <time>2011-04-27T11:46:06Z</time>
      </trkpt>
      <trkpt lat="45.26272" lon="5.65859">
        <ele>231.8</ele>
        <time>2011-04-27T11:46:07Z</time>
      </trkpt>
      <trkpt lat="45.26265" lon="5.65861">
        <ele>231.5</ele>
        <time>2011-04-27T11:46:08Z</time>
      </trkpt>
      <trkpt lat="45.26259" lon="5.65863">
        <ele>231.2</ele>
        <time>2011-04-27T11:46:09Z</time>
      </trkpt>
      <trkpt lat="45.26252" lon="5.65864">
        <ele>230.9</ele>
        <time>2011-04-27T11:46:10Z</time>
      </trkpt>
      <trkpt lat="45.26246" lon="5.65866">
        <ele>230.8</ele>
        <time>2011-04-27T11:46:11Z</time>
      </trkpt>
      <trkpt lat="45.26239" lon="5.65867">
        <ele>230.6</ele>
        <time>2011-04-27T11:46:12Z</time>
      </trkpt>
      <trkpt lat="45.26233" lon="5.65868">
        <ele>230.5</ele>
        <time>2011-04-27T11:46:13Z</time>
      </trkpt>
      <trkpt lat="45.26226" lon="5.6587">
        <ele>230.4</ele>
        <time>2011-04-27T11:46:14Z</time>
      </trkpt>
      <trkpt lat="45.2622" lon="5.65871">
        <ele>230.3</ele>
        <time>2011-04-27T11:46:15Z</time>
      </trkpt>
      <trkpt lat="45.26214" lon="5.65873">
        <ele>230.3</ele>
        <time>2011-04-27T11:46:16Z</time>
      </trkpt>
      <trkpt lat="45.26207" lon="5.65874">
        <ele>230.2</ele>
        <time>2011-04-27T11:46:17Z</time>
      </trkpt>
      <trkpt lat="45.262" lon="5.65876">
        <ele>230.1</ele>
        <time>2011-04-27T11:46:18Z</time>
      </trkpt>
      <trkpt lat="45.26194" lon="5.65878">
        <ele>230.2</ele>
        <time>2011-04-27T11:46:19Z</time>
      </trkpt>
      <trkpt lat="45.26187" lon="5.65879">
        <ele>230.3</ele>
        <time>2011-04-27T11:46:20Z</time>
      </trkpt>
      <trkpt lat="45.26181" lon="5.65881">
        <ele>230.3</ele>
        <time>2011-04-27T11:46:21Z</time>
      </trkpt>
      <trkpt lat="45.26175" lon="5.65882">
        <ele>230.6</ele>
        <time>2011-04-27T11:46:22Z</time>
      </trkpt>
      <trkpt lat="45.26169" lon="5.65883">
        <ele>230.7</ele>
        <time>2011-04-27T11:46:23Z</time>
      </trkpt>
      <trkpt lat="45.26164" lon="5.65883">
        <ele>230.9</ele>
        <time>2011-04-27T11:46:24Z</time>
      </trkpt>
      <trkpt lat="45.26159" lon="5.65881">
        <ele>230.6</ele>
        <time>2011-04-27T11:46:25Z</time>
      </trkpt>
      <trkpt lat="45.26156" lon="5.65876">
        <ele>230.4</ele>
        <time>2011-04-27T11:46:26Z</time>
      </trkpt>
      <trkpt lat="45.26153" lon="5.65871">
        <ele>230.3</ele>
        <time>2011-04-27T11:46:27Z</time>
      </trkpt>
      <trkpt lat="45.26151" lon="5.65864">
        <ele>230.5</ele>
        <time>2011-04-27T11:46:28Z</time>
      </trkpt>
      <trkpt lat="45.2615" lon="5.65858">
        <ele>230.7</ele>
        <time>2011-04-27T11:46:29Z</time>
      </trkpt>
      <trkpt lat="45.26148" lon="5.65851">
        <ele>230.9</ele>
        <time>2011-04-27T11:46:30Z</time>
      </trkpt>
      <trkpt lat="45.26145" lon="5.65844">
        <ele>231.1</ele>
        <time>2011-04-27T11:46:31Z</time>
      </trkpt>
      <trkpt lat="45.26143" lon="5.65837">
        <ele>231.2</ele>
        <time>2011-04-27T11:46:32Z</time>
      </trkpt>
      <trkpt lat="45.26142" lon="5.6583">
        <ele>231.3</ele>
        <time>2011-04-27T11:46:33Z</time>
      </trkpt>
      <trkpt lat="45.2614" lon="5.65823">
        <ele>231.4</ele>
        <time>2011-04-27T11:46:34Z</time>
      </trkpt>
      <trkpt lat="45.26138" lon="5.65817">
        <ele>231.3</ele>
        <time>2011-04-27T11:46:35Z</time>
      </trkpt>
      <trkpt lat="45.26136" lon="5.65811">
        <ele>231.3</ele>
        <time>2011-04-27T11:46:36Z</time>
      </trkpt>
      <trkpt lat="45.26135" lon="5.65804">
        <ele>231.3</ele>
        <time>2011-04-27T11:46:37Z</time>
      </trkpt>
      <trkpt lat="45.26132" lon="5.65792">
        <ele>231</ele>
        <time>2011-04-27T11:46:39Z</time>
      </trkpt>
      <trkpt lat="45.26127" lon="5.65786">
        <ele>230.6</ele>
        <time>2011-04-27T11:46:41Z</time>
      </trkpt>
      <trkpt lat="45.26119" lon="5.65787">
        <ele>230.2</ele>
        <time>2011-04-27T11:46:43Z</time>
      </trkpt>
      <trkpt lat="45.26111" lon="5.65791">
        <ele>229.5</ele>
        <time>2011-04-27T11:46:45Z</time>
      </trkpt>
      <trkpt lat="45.26106" lon="5.65794">
        <ele>229.2</ele>
        <time>2011-04-27T11:46:46Z</time>
      </trkpt>
      <trkpt lat="45.26101" lon="5.65797">
        <ele>229</ele>
        <time>2011-04-27T11:46:47Z</time>
      </trkpt>
      <trkpt lat="45.26096" lon="5.658">
        <ele>228.9</ele>
        <time>2011-04-27T11:46:48Z</time>
      </trkpt>
      <trkpt lat="45.2609" lon="5.65803">
        <ele>228.8</ele>
        <time>2011-04-27T11:46:49Z</time>
      </trkpt>
      <trkpt lat="45.26085" lon="5.65806">
        <ele>228.6</ele>
        <time>2011-04-27T11:46:50Z</time>
      </trkpt>
      <trkpt lat="45.26079" lon="5.6581">
        <ele>228.5</ele>
        <time>2011-04-27T11:46:51Z</time>
      </trkpt>
      <trkpt lat="45.26073" lon="5.65813">
        <ele>228.4</ele>
        <time>2011-04-27T11:46:52Z</time>
      </trkpt>
      <trkpt lat="45.26067" lon="5.65817">
        <ele>228.3</ele>
        <time>2011-04-27T11:46:53Z</time>
      </trkpt>
      <trkpt lat="45.26061" lon="5.6582">
        <ele>228.9</ele>
        <time>2011-04-27T11:46:54Z</time>
      </trkpt>
      <trkpt lat="45.26056" lon="5.65823">
        <ele>229.3</ele>
        <time>2011-04-27T11:46:55Z</time>
      </trkpt>
      <trkpt lat="45.2605" lon="5.65827">
        <ele>229.7</ele>
        <time>2011-04-27T11:46:56Z</time>
      </trkpt>
      <trkpt lat="45.26044" lon="5.6583">
        <ele>229.4</ele>
        <time>2011-04-27T11:46:57Z</time>
      </trkpt>
      <trkpt lat="45.26038" lon="5.65834">
        <ele>229.1</ele>
        <time>2011-04-27T11:46:58Z</time>
      </trkpt>
      <trkpt lat="45.26032" lon="5.65837">
        <ele>229</ele>
        <time>2011-04-27T11:46:59Z</time>
      </trkpt>
      <trkpt lat="45.26026" lon="5.65841">
        <ele>229.1</ele>
        <time>2011-04-27T11:47:00Z</time>
      </trkpt>
      <trkpt lat="45.2602" lon="5.65845">
        <ele>229.1</ele>
        <time>2011-04-27T11:47:01Z</time>
      </trkpt>
      <trkpt lat="45.26014" lon="5.65848">
        <ele>229.2</ele>
        <time>2011-04-27T11:47:02Z</time>
      </trkpt>
      <trkpt lat="45.26008" lon="5.65852">
        <ele>229.4</ele>
        <time>2011-04-27T11:47:03Z</time>
      </trkpt>
      <trkpt lat="45.26002" lon="5.65855">
        <ele>229.6</ele>
        <time>2011-04-27T11:47:04Z</time>
      </trkpt>
      <trkpt lat="45.25995" lon="5.65859">
        <ele>229.8</ele>
        <time>2011-04-27T11:47:05Z</time>
      </trkpt>
      <trkpt lat="45.25989" lon="5.65862">
        <ele>229.6</ele>
        <time>2011-04-27T11:47:06Z</time>
      </trkpt>
      <trkpt lat="45.25983" lon="5.65866">
        <ele>229.4</ele>
        <time>2011-04-27T11:47:07Z</time>
      </trkpt>
      <trkpt lat="45.25977" lon="5.6587">
        <ele>229.3</ele>
        <time>2011-04-27T11:47:08Z</time>
      </trkpt>
      <trkpt lat="45.25971" lon="5.65873">
        <ele>230</ele>
        <time>2011-04-27T11:47:09Z</time>
      </trkpt>
      <trkpt lat="45.25964" lon="5.65876">
        <ele>230.4</ele>
        <time>2011-04-27T11:47:10Z</time>
      </trkpt>
      <trkpt lat="45.25958" lon="5.6588">
        <ele>230.8</ele>
        <time>2011-04-27T11:47:11Z</time>
      </trkpt>
      <trkpt lat="45.25952" lon="5.65883">
        <ele>231</ele>
        <time>2011-04-27T11:47:12Z</time>
      </trkpt>
      <trkpt lat="45.25946" lon="5.65887">
        <ele>231</ele>
        <time>2011-04-27T11:47:13Z</time>
      </trkpt>
      <trkpt lat="45.2594" lon="5.65891">
        <ele>231</ele>
        <time>2011-04-27T11:47:14Z</time>
      </trkpt>
      <trkpt lat="45.25934" lon="5.65893">
        <ele>231</ele>
        <time>2011-04-27T11:47:15Z</time>
      </trkpt>
      <trkpt lat="45.25927" lon="5.65895">
        <ele>231</ele>
        <time>2011-04-27T11:47:16Z</time>
      </trkpt>
      <trkpt lat="45.25921" lon="5.65897">
        <ele>230.9</ele>
        <time>2011-04-27T11:47:17Z</time>
      </trkpt>
      <trkpt lat="45.25915" lon="5.65898">
        <ele>230.8</ele>
        <time>2011-04-27T11:47:18Z</time>
      </trkpt>
      <trkpt lat="45.25909" lon="5.659">
        <ele>231.3</ele>
        <time>2011-04-27T11:47:19Z</time>
      </trkpt>
      <trkpt lat="45.25902" lon="5.65902">
        <ele>231.6</ele>
        <time>2011-04-27T11:47:20Z</time>
      </trkpt>
      <trkpt lat="45.25896" lon="5.65905">
        <ele>231.9</ele>
        <time>2011-04-27T11:47:21Z</time>
      </trkpt>
      <trkpt lat="45.2589" lon="5.65907">
        <ele>231.8</ele>
        <time>2011-04-27T11:47:22Z</time>
      </trkpt>
      <trkpt lat="45.25884" lon="5.6591">
        <ele>231.8</ele>
        <time>2011-04-27T11:47:23Z</time>
      </trkpt>
      <trkpt lat="45.25878" lon="5.65914">
        <ele>231.7</ele>
        <time>2011-04-27T11:47:24Z</time>
      </trkpt>
      <trkpt lat="45.25872" lon="5.65917">
        <ele>231.7</ele>
        <time>2011-04-27T11:47:25Z</time>
      </trkpt>
      <trkpt lat="45.25866" lon="5.65921">
        <ele>231.7</ele>
        <time>2011-04-27T11:47:26Z</time>
      </trkpt>
      <trkpt lat="45.2586" lon="5.65924">
        <ele>231.6</ele>
        <time>2011-04-27T11:47:27Z</time>
      </trkpt>
      <trkpt lat="45.25854" lon="5.65928">
        <ele>231.6</ele>
        <time>2011-04-27T11:47:28Z</time>
      </trkpt>
      <trkpt lat="45.25848" lon="5.65932">
        <ele>231.9</ele>
        <time>2011-04-27T11:47:29Z</time>
      </trkpt>
      <trkpt lat="45.25842" lon="5.65935">
        <ele>232.1</ele>
        <time>2011-04-27T11:47:30Z</time>
      </trkpt>
      <trkpt lat="45.25836" lon="5.65939">
        <ele>232.3</ele>
        <time>2011-04-27T11:47:31Z</time>
      </trkpt>
      <trkpt lat="45.2583" lon="5.65943">
        <ele>232.5</ele>
        <time>2011-04-27T11:47:32Z</time>
      </trkpt>
      <trkpt lat="45.25824" lon="5.65947">
        <ele>232.6</ele>
        <time>2011-04-27T11:47:33Z</time>
      </trkpt>
      <trkpt lat="45.25817" lon="5.65951">
        <ele>232.7</ele>
        <time>2011-04-27T11:47:34Z</time>
      </trkpt>
      <trkpt lat="45.25811" lon="5.65955">
        <ele>233</ele>
        <time>2011-04-27T11:47:35Z</time>
      </trkpt>
      <trkpt lat="45.25804" lon="5.6596">
        <ele>233.2</ele>
        <time>2011-04-27T11:47:36Z</time>
      </trkpt>
      <trkpt lat="45.25798" lon="5.65964">
        <ele>233.4</ele>
        <time>2011-04-27T11:47:37Z</time>
      </trkpt>
      <trkpt lat="45.25791" lon="5.65968">
        <ele>232.9</ele>
        <time>2011-04-27T11:47:38Z</time>
      </trkpt>
      <trkpt lat="45.25784" lon="5.65972">
        <ele>232.5</ele>
        <time>2011-04-27T11:47:39Z</time>
      </trkpt>
      <trkpt lat="45.25777" lon="5.65976">
        <ele>232.3</ele>
        <time>2011-04-27T11:47:40Z</time>
      </trkpt>
      <trkpt lat="45.2577" lon="5.65981">
        <ele>231.9</ele>
        <time>2011-04-27T11:47:41Z</time>
      </trkpt>
      <trkpt lat="45.25763" lon="5.65985">
        <ele>231.6</ele>
        <time>2011-04-27T11:47:42Z</time>
      </trkpt>
      <trkpt lat="45.25756" lon="5.6599">
        <ele>231.4</ele>
        <time>2011-04-27T11:47:43Z</time>
      </trkpt>
      <trkpt lat="45.2575" lon="5.65994">
        <ele>231.7</ele>
        <time>2011-04-27T11:47:44Z</time>
      </trkpt>
      <trkpt lat="45.25743" lon="5.65998">
        <ele>232</ele>
        <time>2011-04-27T11:47:45Z</time>
      </trkpt>
      <trkpt lat="45.25736" lon="5.66003">
        <ele>232.2</ele>
        <time>2011-04-27T11:47:46Z</time>
      </trkpt>
      <trkpt lat="45.25729" lon="5.66007">
        <ele>232.3</ele>
        <time>2011-04-27T11:47:47Z</time>
      </trkpt>
      <trkpt lat="45.25722" lon="5.66011">
        <ele>232.1</ele>
        <time>2011-04-27T11:47:48Z</time>
      </trkpt>
      <trkpt lat="45.25716" lon="5.66015">
        <ele>231.9</ele>
        <time>2011-04-27T11:47:49Z</time>
      </trkpt>
      <trkpt lat="45.25709" lon="5.6602">
        <ele>231.8</ele>
        <time>2011-04-27T11:47:50Z</time>
      </trkpt>
      <trkpt lat="45.25702" lon="5.66024">
        <ele>231.9</ele>
        <time>2011-04-27T11:47:51Z</time>
      </trkpt>
      <trkpt lat="45.25695" lon="5.66028">
        <ele>231.9</ele>
        <time>2011-04-27T11:47:52Z</time>
      </trkpt>
      <trkpt lat="45.25689" lon="5.66032">
        <ele>232</ele>
        <time>2011-04-27T11:47:53Z</time>
      </trkpt>
      <trkpt lat="45.25683" lon="5.66036">
        <ele>231.7</ele>
        <time>2011-04-27T11:47:54Z</time>
      </trkpt>
      <trkpt lat="45.25676" lon="5.6604">
        <ele>231.6</ele>
        <time>2011-04-27T11:47:55Z</time>
      </trkpt>
      <trkpt lat="45.2567" lon="5.66044">
        <ele>231.4</ele>
        <time>2011-04-27T11:47:56Z</time>
      </trkpt>
      <trkpt lat="45.25664" lon="5.66048">
        <ele>231.5</ele>
        <time>2011-04-27T11:47:57Z</time>
      </trkpt>
      <trkpt lat="45.25657" lon="5.66052">
        <ele>231.5</ele>
        <time>2011-04-27T11:47:58Z</time>
      </trkpt>
      <trkpt lat="45.25651" lon="5.66056">
        <ele>231.5</ele>
        <time>2011-04-27T11:47:59Z</time>
      </trkpt>
      <trkpt lat="45.25645" lon="5.66061">
        <ele>231.1</ele>
        <time>2011-04-27T11:48:00Z</time>
      </trkpt>
      <trkpt lat="45.25639" lon="5.66065">
        <ele>230.9</ele>
        <time>2011-04-27T11:48:01Z</time>
      </trkpt>
      <trkpt lat="45.25632" lon="5.66069">
        <ele>230.6</ele>
        <time>2011-04-27T11:48:02Z</time>
      </trkpt>
      <trkpt lat="45.25626" lon="5.66073">
        <ele>230.4</ele>
        <time>2011-04-27T11:48:03Z</time>
      </trkpt>
      <trkpt lat="45.2562" lon="5.66076">
        <ele>230.3</ele>
        <time>2011-04-27T11:48:04Z</time>
      </trkpt>
      <trkpt lat="45.25614" lon="5.6608">
        <ele>230.1</ele>
        <time>2011-04-27T11:48:05Z</time>
      </trkpt>
      <trkpt lat="45.25607" lon="5.66084">
        <ele>230</ele>
        <time>2011-04-27T11:48:06Z</time>
      </trkpt>
      <trkpt lat="45.25601" lon="5.66088">
        <ele>230</ele>
        <time>2011-04-27T11:48:07Z</time>
      </trkpt>
      <trkpt lat="45.25595" lon="5.66092">
        <ele>230</ele>
        <time>2011-04-27T11:48:08Z</time>
      </trkpt>
      <trkpt lat="45.25589" lon="5.66096">
        <ele>230</ele>
        <time>2011-04-27T11:48:09Z</time>
      </trkpt>
      <trkpt lat="45.25583" lon="5.661">
        <ele>230.2</ele>
        <time>2011-04-27T11:48:10Z</time>
      </trkpt>
      <trkpt lat="45.25576" lon="5.66104">
        <ele>230.4</ele>
        <time>2011-04-27T11:48:11Z</time>
      </trkpt>
      <trkpt lat="45.2557" lon="5.66108">
        <ele>230.6</ele>
        <time>2011-04-27T11:48:12Z</time>
      </trkpt>
      <trkpt lat="45.25564" lon="5.66112">
        <ele>231.1</ele>
        <time>2011-04-27T11:48:13Z</time>
      </trkpt>
      <trkpt lat="45.25558" lon="5.66116">
        <ele>231.4</ele>
        <time>2011-04-27T11:48:14Z</time>
      </trkpt>
      <trkpt lat="45.25552" lon="5.66119">
        <ele>231.7</ele>
        <time>2011-04-27T11:48:15Z</time>
      </trkpt>
      <trkpt lat="45.25546" lon="5.66123">
        <ele>231.5</ele>
        <time>2011-04-27T11:48:16Z</time>
      </trkpt>
      <trkpt lat="45.2554" lon="5.66127">
        <ele>231.4</ele>
        <time>2011-04-27T11:48:17Z</time>
      </trkpt>
      <trkpt lat="45.25534" lon="5.66131">
        <ele>231.3</ele>
        <time>2011-04-27T11:48:18Z</time>
      </trkpt>
      <trkpt lat="45.25528" lon="5.66134">
        <ele>231.5</ele>
        <time>2011-04-27T11:48:19Z</time>
      </trkpt>
      <trkpt lat="45.25523" lon="5.66138">
        <ele>231.6</ele>
        <time>2011-04-27T11:48:20Z</time>
      </trkpt>
      <trkpt lat="45.25517" lon="5.66141">
        <ele>231.6</ele>
        <time>2011-04-27T11:48:21Z</time>
      </trkpt>
      <trkpt lat="45.25511" lon="5.66145">
        <ele>231.9</ele>
        <time>2011-04-27T11:48:22Z</time>
      </trkpt>
      <trkpt lat="45.25506" lon="5.66148">
        <ele>232.1</ele>
        <time>2011-04-27T11:48:23Z</time>
      </trkpt>
      <trkpt lat="45.255" lon="5.66151">
        <ele>232.2</ele>
        <time>2011-04-27T11:48:24Z</time>
      </trkpt>
      <trkpt lat="45.25495" lon="5.66154">
        <ele>232.3</ele>
        <time>2011-04-27T11:48:25Z</time>
      </trkpt>
      <trkpt lat="45.2549" lon="5.66157">
        <ele>231.9</ele>
        <time>2011-04-27T11:48:26Z</time>
      </trkpt>
      <trkpt lat="45.25485" lon="5.6616">
        <ele>231.6</ele>
        <time>2011-04-27T11:48:27Z</time>
      </trkpt>
      <trkpt lat="45.25481" lon="5.66163">
        <ele>231.3</ele>
        <time>2011-04-27T11:48:28Z</time>
      </trkpt>
      <trkpt lat="45.25476" lon="5.66167">
        <ele>230.9</ele>
        <time>2011-04-27T11:48:29Z</time>
      </trkpt>
      <trkpt lat="45.25468" lon="5.66171">
        <ele>230.3</ele>
        <time>2011-04-27T11:48:31Z</time>
      </trkpt>
      <trkpt lat="45.25461" lon="5.66176">
        <ele>230.3</ele>
        <time>2011-04-27T11:48:33Z</time>
      </trkpt>
      <trkpt lat="45.25452" lon="5.66181">
        <ele>230.3</ele>
        <time>2011-04-27T11:48:35Z</time>
      </trkpt>
      <trkpt lat="45.25448" lon="5.66184">
        <ele>230.4</ele>
        <time>2011-04-27T11:48:36Z</time>
      </trkpt>
      <trkpt lat="45.25444" lon="5.66186">
        <ele>230.4</ele>
        <time>2011-04-27T11:48:37Z</time>
      </trkpt>
      <trkpt lat="45.25439" lon="5.66189">
        <ele>230.3</ele>
        <time>2011-04-27T11:48:38Z</time>
      </trkpt>
      <trkpt lat="45.25435" lon="5.66192">
        <ele>230.2</ele>
        <time>2011-04-27T11:48:39Z</time>
      </trkpt>
      <trkpt lat="45.25431" lon="5.66195">
        <ele>230.1</ele>
        <time>2011-04-27T11:48:40Z</time>
      </trkpt>
      <trkpt lat="45.25427" lon="5.66198">
        <ele>230</ele>
        <time>2011-04-27T11:48:41Z</time>
      </trkpt>
      <trkpt lat="45.25422" lon="5.662">
        <ele>230.5</ele>
        <time>2011-04-27T11:48:42Z</time>
      </trkpt>
      <trkpt lat="45.25418" lon="5.66203">
        <ele>230.8</ele>
        <time>2011-04-27T11:48:43Z</time>
      </trkpt>
      <trkpt lat="45.25414" lon="5.66206">
        <ele>231</ele>
        <time>2011-04-27T11:48:44Z</time>
      </trkpt>
      <trkpt lat="45.2541" lon="5.66209">
        <ele>231.5</ele>
        <time>2011-04-27T11:48:45Z</time>
      </trkpt>
      <trkpt lat="45.25405" lon="5.66211">
        <ele>231.8</ele>
        <time>2011-04-27T11:48:46Z</time>
      </trkpt>
      <trkpt lat="45.25401" lon="5.66214">
        <ele>232</ele>
        <time>2011-04-27T11:48:47Z</time>
      </trkpt>
      <trkpt lat="45.25396" lon="5.66217">
        <ele>231.9</ele>
        <time>2011-04-27T11:48:48Z</time>
      </trkpt>
      <trkpt lat="45.25391" lon="5.6622">
        <ele>231.9</ele>
        <time>2011-04-27T11:48:49Z</time>
      </trkpt>
      <trkpt lat="45.25386" lon="5.66223">
        <ele>231.8</ele>
        <time>2011-04-27T11:48:50Z</time>
      </trkpt>
      <trkpt lat="45.25381" lon="5.66226">
        <ele>232.3</ele>
        <time>2011-04-27T11:48:51Z</time>
      </trkpt>
      <trkpt lat="45.25376" lon="5.66229">
        <ele>232.7</ele>
        <time>2011-04-27T11:48:52Z</time>
      </trkpt>
      <trkpt lat="45.25372" lon="5.66232">
        <ele>233</ele>
        <time>2011-04-27T11:48:53Z</time>
      </trkpt>
      <trkpt lat="45.25367" lon="5.66236">
        <ele>233.4</ele>
        <time>2011-04-27T11:48:54Z</time>
      </trkpt>
      <trkpt lat="45.25362" lon="5.66239">
        <ele>233.7</ele>
        <time>2011-04-27T11:48:55Z</time>
      </trkpt>
      <trkpt lat="45.25357" lon="5.66242">
        <ele>233.9</ele>
        <time>2011-04-27T11:48:56Z</time>
      </trkpt>
      <trkpt lat="45.25352" lon="5.66246">
        <ele>233.8</ele>
        <time>2011-04-27T11:48:57Z</time>
      </trkpt>
      <trkpt lat="45.25347" lon="5.66249">
        <ele>233.7</ele>
        <time>2011-04-27T11:48:58Z</time>
      </trkpt>
      <trkpt lat="45.25342" lon="5.66252">
        <ele>233.7</ele>
        <time>2011-04-27T11:48:59Z</time>
      </trkpt>
      <trkpt lat="45.25337" lon="5.66255">
        <ele>233.6</ele>
        <time>2011-04-27T11:49:00Z</time>
      </trkpt>
      <trkpt lat="45.25332" lon="5.66259">
        <ele>233.3</ele>
        <time>2011-04-27T11:49:01Z</time>
      </trkpt>
      <trkpt lat="45.25326" lon="5.66262">
        <ele>233</ele>
        <time>2011-04-27T11:49:02Z</time>
      </trkpt>
      <trkpt lat="45.25321" lon="5.66266">
        <ele>232.8</ele>
        <time>2011-04-27T11:49:03Z</time>
      </trkpt>
      <trkpt lat="45.25315" lon="5.6627">
        <ele>232.9</ele>
        <time>2011-04-27T11:49:04Z</time>
      </trkpt>
      <trkpt lat="45.2531" lon="5.66274">
        <ele>233</ele>
        <time>2011-04-27T11:49:05Z</time>
      </trkpt>
      <trkpt lat="45.25304" lon="5.66278">
        <ele>233.1</ele>
        <time>2011-04-27T11:49:06Z</time>
      </trkpt>
      <trkpt lat="45.25298" lon="5.66282">
        <ele>233.1</ele>
        <time>2011-04-27T11:49:07Z</time>
      </trkpt>
      <trkpt lat="45.25293" lon="5.66286">
        <ele>233.1</ele>
        <time>2011-04-27T11:49:08Z</time>
      </trkpt>
      <trkpt lat="45.25288" lon="5.6629">
        <ele>233.2</ele>
        <time>2011-04-27T11:49:09Z</time>
      </trkpt>
      <trkpt lat="45.25282" lon="5.66294">
        <ele>232.9</ele>
        <time>2011-04-27T11:49:10Z</time>
      </trkpt>
      <trkpt lat="45.25277" lon="5.66298">
        <ele>232.7</ele>
        <time>2011-04-27T11:49:11Z</time>
      </trkpt>
      <trkpt lat="45.25271" lon="5.66302">
        <ele>232.5</ele>
        <time>2011-04-27T11:49:12Z</time>
      </trkpt>
      <trkpt lat="45.25267" lon="5.66306">
        <ele>232.8</ele>
        <time>2011-04-27T11:49:13Z</time>
      </trkpt>
      <trkpt lat="45.25262" lon="5.66308">
        <ele>233.1</ele>
        <time>2011-04-27T11:49:14Z</time>
      </trkpt>
      <trkpt lat="45.25255" lon="5.66312">
        <ele>232.9</ele>
        <time>2011-04-27T11:49:16Z</time>
      </trkpt>
      <trkpt lat="45.25247" lon="5.66316">
        <ele>232.4</ele>
        <time>2011-04-27T11:49:19Z</time>
      </trkpt>
      <trkpt lat="45.25246" lon="5.66328">
        <ele>231.3</ele>
        <time>2011-04-27T11:49:25Z</time>
      </trkpt>
      <trkpt lat="45.2525" lon="5.66337">
        <ele>232</ele>
        <time>2011-04-27T11:49:29Z</time>
      </trkpt>
      <trkpt lat="45.25255" lon="5.66347">
        <ele>231.5</ele>
        <time>2011-04-27T11:49:32Z</time>
      </trkpt>
      <trkpt lat="45.25257" lon="5.66352">
        <ele>231.5</ele>
        <time>2011-04-27T11:49:33Z</time>
      </trkpt>
      <trkpt lat="45.2526" lon="5.66358">
        <ele>231.5</ele>
        <time>2011-04-27T11:49:34Z</time>
      </trkpt>
      <trkpt lat="45.25263" lon="5.66365">
        <ele>231.8</ele>
        <time>2011-04-27T11:49:35Z</time>
      </trkpt>
      <trkpt lat="45.25266" lon="5.66372">
        <ele>232.1</ele>
        <time>2011-04-27T11:49:36Z</time>
      </trkpt>
      <trkpt lat="45.25268" lon="5.6638">
        <ele>232.3</ele>
        <time>2011-04-27T11:49:37Z</time>
      </trkpt>
      <trkpt lat="45.25271" lon="5.66387">
        <ele>232.5</ele>
        <time>2011-04-27T11:49:38Z</time>
      </trkpt>
      <trkpt lat="45.25275" lon="5.66395">
        <ele>232</ele>
        <time>2011-04-27T11:49:39Z</time>
      </trkpt>
      <trkpt lat="45.25278" lon="5.66402">
        <ele>231.7</ele>
        <time>2011-04-27T11:49:40Z</time>
      </trkpt>
      <trkpt lat="45.25281" lon="5.66409">
        <ele>231.4</ele>
        <time>2011-04-27T11:49:41Z</time>
      </trkpt>
      <trkpt lat="45.25284" lon="5.66416">
        <ele>231.6</ele>
        <time>2011-04-27T11:49:42Z</time>
      </trkpt>
      <trkpt lat="45.25286" lon="5.66422">
        <ele>231.8</ele>
        <time>2011-04-27T11:49:43Z</time>
      </trkpt>
      <trkpt lat="45.25289" lon="5.66429">
        <ele>231.9</ele>
        <time>2011-04-27T11:49:44Z</time>
      </trkpt>
      <trkpt lat="45.25291" lon="5.66436">
        <ele>231.8</ele>
        <time>2011-04-27T11:49:45Z</time>
      </trkpt>
      <trkpt lat="45.25294" lon="5.66442">
        <ele>231.8</ele>
        <time>2011-04-27T11:49:46Z</time>
      </trkpt>
      <trkpt lat="45.25296" lon="5.66449">
        <ele>231.8</ele>
        <time>2011-04-27T11:49:47Z</time>
      </trkpt>
      <trkpt lat="45.25299" lon="5.66454">
        <ele>232</ele>
        <time>2011-04-27T11:49:48Z</time>
      </trkpt>
      <trkpt lat="45.25304" lon="5.66458">
        <ele>232.2</ele>
        <time>2011-04-27T11:49:49Z</time>
      </trkpt>
      <trkpt lat="45.25308" lon="5.6646">
        <ele>232.3</ele>
        <time>2011-04-27T11:49:50Z</time>
      </trkpt>
      <trkpt lat="45.25313" lon="5.66461">
        <ele>232.5</ele>
        <time>2011-04-27T11:49:51Z</time>
      </trkpt>
      <trkpt lat="45.25319" lon="5.66461">
        <ele>232.7</ele>
        <time>2011-04-27T11:49:52Z</time>
      </trkpt>
      <trkpt lat="45.25327" lon="5.66464">
        <ele>232.9</ele>
        <time>2011-04-27T11:49:54Z</time>
      </trkpt>
      <trkpt lat="45.2533" lon="5.66475">
        <ele>232.5</ele>
        <time>2011-04-27T11:49:56Z</time>
      </trkpt>
      <trkpt lat="45.25329" lon="5.66487">
        <ele>232.5</ele>
        <time>2011-04-27T11:49:58Z</time>
      </trkpt>
      <trkpt lat="45.25329" lon="5.66493">
        <ele>232.7</ele>
        <time>2011-04-27T11:49:59Z</time>
      </trkpt>
      <trkpt lat="45.25328" lon="5.665">
        <ele>232.9</ele>
        <time>2011-04-27T11:50:00Z</time>
      </trkpt>
      <trkpt lat="45.25327" lon="5.66508">
        <ele>232.5</ele>
        <time>2011-04-27T11:50:01Z</time>
      </trkpt>
      <trkpt lat="45.25327" lon="5.66515">
        <ele>232.3</ele>
        <time>2011-04-27T11:50:02Z</time>
      </trkpt>
      <trkpt lat="45.25326" lon="5.66522">
        <ele>232.1</ele>
        <time>2011-04-27T11:50:03Z</time>
      </trkpt>
      <trkpt lat="45.25326" lon="5.6653">
        <ele>231.8</ele>
        <time>2011-04-27T11:50:04Z</time>
      </trkpt>
      <trkpt lat="45.25325" lon="5.66537">
        <ele>231.5</ele>
        <time>2011-04-27T11:50:05Z</time>
      </trkpt>
      <trkpt lat="45.25324" lon="5.66543">
        <ele>231.4</ele>
        <time>2011-04-27T11:50:06Z</time>
      </trkpt>
      <trkpt lat="45.25321" lon="5.66548">
        <ele>231.3</ele>
        <time>2011-04-27T11:50:07Z</time>
      </trkpt>
      <trkpt lat="45.25317" lon="5.66553">
        <ele>231.2</ele>
        <time>2011-04-27T11:50:08Z</time>
      </trkpt>
      <trkpt lat="45.25314" lon="5.66557">
        <ele>231.2</ele>
        <time>2011-04-27T11:50:09Z</time>
      </trkpt>
      <trkpt lat="45.2531" lon="5.66561">
        <ele>231.1</ele>
        <time>2011-04-27T11:50:10Z</time>
      </trkpt>
      <trkpt lat="45.25306" lon="5.66565">
        <ele>231</ele>
        <time>2011-04-27T11:50:11Z</time>
      </trkpt>
      <trkpt lat="45.25302" lon="5.66569">
        <ele>231</ele>
        <time>2011-04-27T11:50:12Z</time>
      </trkpt>
      <trkpt lat="45.25298" lon="5.66574">
        <ele>230.9</ele>
        <time>2011-04-27T11:50:13Z</time>
      </trkpt>
      <trkpt lat="45.25295" lon="5.66578">
        <ele>231.1</ele>
        <time>2011-04-27T11:50:14Z</time>
      </trkpt>
      <trkpt lat="45.25291" lon="5.66582">
        <ele>231.2</ele>
        <time>2011-04-27T11:50:15Z</time>
      </trkpt>
      <trkpt lat="45.25287" lon="5.66586">
        <ele>231.3</ele>
        <time>2011-04-27T11:50:16Z</time>
      </trkpt>
      <trkpt lat="45.25283" lon="5.66589">
        <ele>231.3</ele>
        <time>2011-04-27T11:50:17Z</time>
      </trkpt>
      <trkpt lat="45.25279" lon="5.66593">
        <ele>231.3</ele>
        <time>2011-04-27T11:50:18Z</time>
      </trkpt>
      <trkpt lat="45.25272" lon="5.666">
        <ele>231.5</ele>
        <time>2011-04-27T11:50:20Z</time>
      </trkpt>
      <trkpt lat="45.25268" lon="5.66612">
        <ele>231.5</ele>
        <time>2011-04-27T11:50:23Z</time>
      </trkpt>
    </trkseg>
  </trk>
</gpx>